Darstellungsparameter: Aktuell verwendete Einstellungen:
Skalierung der Graphiken ... ?
xyx+y,   Skalierungsfaktor:      Skalierung: Modus: x, Faktor: 1
Darstellungszeitraum ... ?
Vom - - bis: - -   Zeitraum: 06.06.2019 - 05.09.2019
Min/Max/Avg-Anzeige ... ?
Zeige MMA aktuell
Zeige MMA Monat
Zeige MMA alles
Zeige --A aktuell
Zeige --A Monat
Zeige --A alles
Keine MMA-Anzeige
MMA:
Keine MMA-Graphiken
MMA-Basis: 06.06.2019 - 05.09.2019
Quicknavigation für Darstellung... ?
Tage:      1T, 2T, 3T, 5T -1T -2T -3T -5T +1T +2T +3T +5T
Wochen: 1W, 2W, 3W -1W -2W -3W +1W +2W +3W
Monate: 1M, 3M, 6M -1M -3M -6M +1M +3M +6M
Jahre:    1J, 3J, 5J, 10J -1J -3J -5J -10J +1J +3J +5J +10J
Nutze für die Darstellung ... ?
Originaldaten oder Mittelwerte auf ...
Stundenbasis Tagesbasis Wochenbasis
Monatsbasis Jahresbasis      Datenbasis: Original-Daten
Darstellen als:
Statistik (Auto) Statistik J:M      Darstellung:
Zur Graphik,    zurück zur Übersicht aller Sensoren.
 
Tabellarische Datenbersicht: ?
 
Sensor: Nr:Datum:Temp:Feuchte:Taupunkt:
Aussen-T/F 1 06-06-2019 00:00:00 20.8 C 79 % 17.02 C
2 06-06-2019 00:05:00 20.8 C 79 % 17.02 C
3 06-06-2019 00:10:00 20.7 C 80 % 17.13 C
4 06-06-2019 00:15:00 21.1 C 76 % 16.7 C
5 06-06-2019 00:20:00 21.6 C 72 % 16.34 C
6 06-06-2019 00:25:00 22.2 C 67 % 15.78 C
7 06-06-2019 00:30:00 22.4 C 64 % 15.26 C
8 06-06-2019 00:35:00 22.3 C 63 % 14.92 C
9 06-06-2019 00:40:00 22.1 C 62 % 14.48 C
10 06-06-2019 00:45:00 21.8 C 62 % 14.2 C
11 06-06-2019 00:50:00 21.7 C 62 % 14.1 C
12 06-06-2019 00:55:00 21.4 C 65 % 14.55 C
13 06-06-2019 01:00:00 21.2 C 67 % 14.83 C
14 06-06-2019 01:05:00 20.8 C 71 % 15.35 C
15 06-06-2019 01:10:00 20.4 C 76 % 16.03 C
16 06-06-2019 01:15:00 19.7 C 78 % 15.76 C
17 06-06-2019 01:20:00 19.2 C 81 % 15.86 C
18 06-06-2019 01:25:00 18.7 C 83 % 15.75 C
19 06-06-2019 01:30:00 18.3 C 84 % 15.55 C
20 06-06-2019 01:35:00 18.1 C 86 % 15.72 C
21 06-06-2019 01:40:00 17.9 C 87 % 15.71 C
22 06-06-2019 01:45:00 17.8 C 88 % 15.79 C
23 06-06-2019 01:50:00 17.6 C 88 % 15.59 C
24 06-06-2019 01:55:00 17.4 C 90 % 15.74 C
25 06-06-2019 02:00:00 17.4 C 90 % 15.74 C
Sensor: Nr:Datum:Temp:Feuchte:Taupunkt:
Aussen-T/F 26 06-06-2019 02:05:00 17.3 C 91 % 15.82 C
27 06-06-2019 02:10:00 17.3 C 91 % 15.82 C
28 06-06-2019 02:15:00 17.2 C 92 % 15.89 C
29 06-06-2019 02:20:00 17.2 C 92 % 15.89 C
30 06-06-2019 02:25:00 17.1 C 92 % 15.79 C
31 06-06-2019 02:30:00 17.1 C 92 % 15.79 C
32 06-06-2019 02:35:00 17 C 92 % 15.69 C
33 06-06-2019 02:40:00 17 C 92 % 15.69 C
34 06-06-2019 02:45:00 16.9 C 93 % 15.76 C
35 06-06-2019 02:50:00 16.9 C 93 % 15.76 C
36 06-06-2019 02:55:00 16.9 C 93 % 15.76 C
37 06-06-2019 03:00:00 16.9 C 93 % 15.76 C
38 06-06-2019 03:05:00 16.8 C 93 % 15.66 C
39 06-06-2019 03:10:00 16.8 C 93 % 15.66 C
40 06-06-2019 03:15:00 16.8 C 93 % 15.66 C
41 06-06-2019 03:20:00 16.7 C 94 % 15.73 C
42 06-06-2019 03:25:00 16.7 C 94 % 15.73 C
43 06-06-2019 03:30:00 16.7 C 94 % 15.73 C
44 06-06-2019 03:35:00 16.7 C 94 % 15.73 C
45 06-06-2019 03:40:00 16.6 C 94 % 15.63 C
46 06-06-2019 03:45:00 16.6 C 94 % 15.63 C
47 06-06-2019 03:50:00 16.6 C 94 % 15.63 C
48 06-06-2019 03:55:00 16.6 C 94 % 15.63 C
49 06-06-2019 04:00:00 16.6 C 94 % 15.63 C
50 06-06-2019 04:05:00 16.6 C 94 % 15.63 C
Sensor: Nr:Datum:Temp:Feuchte:Taupunkt:
Aussen-T/F 51 06-06-2019 04:10:00 16.6 C 94 % 15.63 C
52 06-06-2019 04:15:00 16.6 C 94 % 15.63 C
53 06-06-2019 04:20:00 16.5 C 94 % 15.53 C
54 06-06-2019 04:25:00 16.5 C 95 % 15.7 C
55 06-06-2019 04:30:00 16.4 C 95 % 15.6 C
56 06-06-2019 04:35:00 16.4 C 95 % 15.6 C
57 06-06-2019 04:40:00 16.4 C 95 % 15.6 C
58 06-06-2019 04:45:00 16.4 C 95 % 15.6 C
59 06-06-2019 04:50:00 16.4 C 95 % 15.6 C
60 06-06-2019 04:55:00 16.4 C 95 % 15.6 C
61 06-06-2019 05:00:00 16.4 C 95 % 15.6 C
62 06-06-2019 05:05:00 16.4 C 95 % 15.6 C
63 06-06-2019 05:10:00 16.3 C 94 % 15.33 C
64 06-06-2019 05:15:00 16 C 94 % 15.03 C
65 06-06-2019 05:20:00 15.7 C 94 % 14.74 C
66 06-06-2019 05:25:00 15.5 C 94 % 14.54 C
67 06-06-2019 05:30:00 15.3 C 93 % 14.18 C
68 06-06-2019 05:35:00 15.2 C 93 % 14.08 C
69 06-06-2019 05:40:00 15 C 93 % 13.88 C
70 06-06-2019 05:45:00 14.9 C 93 % 13.78 C
71 06-06-2019 05:50:00 14.8 C 93 % 13.68 C
72 06-06-2019 05:55:00 14.7 C 93 % 13.58 C
73 06-06-2019 06:00:00 14.6 C 93 % 13.48 C
74 06-06-2019 06:05:00 14.5 C 93 % 13.38 C
75 06-06-2019 06:10:00 14.3 C 93 % 13.18 C
Sensor: Nr:Datum:Temp:Feuchte:Taupunkt:
Aussen-T/F 76 06-06-2019 06:15:00 14.3 C 93 % 13.18 C
77 06-06-2019 06:20:00 14.2 C 93 % 13.08 C
78 06-06-2019 06:25:00 14.2 C 93 % 13.08 C
79 06-06-2019 06:30:00 14 C 93 % 12.89 C
80 06-06-2019 06:35:00 13.7 C 92 % 12.42 C
81 06-06-2019 06:40:00 13.5 C 91 % 12.06 C
82 06-06-2019 06:45:00 13.4 C 91 % 11.96 C
83 06-06-2019 06:50:00 13.3 C 92 % 12.03 C
84 06-06-2019 06:55:00 13.3 C 91 % 11.86 C
85 06-06-2019 07:00:00 13.2 C 91 % 11.76 C
86 06-06-2019 07:05:00 13.1 C 91 % 11.67 C
87 06-06-2019 07:10:00 13.1 C 91 % 11.67 C
88 06-06-2019 07:15:00 13.1 C 91 % 11.67 C
89 06-06-2019 07:20:00 13.1 C 91 % 11.67 C
90 06-06-2019 07:25:00 13.1 C 90 % 11.5 C
91 06-06-2019 07:30:00 13 C 90 % 11.4 C
92 06-06-2019 07:35:00 13.1 C 89 % 11.33 C
93 06-06-2019 07:40:00 13.3 C 89 % 11.53 C
94 06-06-2019 07:45:00 13.4 C 88 % 11.45 C
95 06-06-2019 07:50:00 13.4 C 87 % 11.28 C
96 06-06-2019 07:55:00 13.4 C 88 % 11.45 C
97 06-06-2019 08:00:00 13.6 C 88 % 11.65 C
98 06-06-2019 08:05:00 13.6 C 88 % 11.65 C
99 06-06-2019 08:10:00 13.4 C 87 % 11.28 C
100 06-06-2019 08:15:00 13.4 C 87 % 11.28 C
Sensor: Nr:Datum:Temp:Feuchte:Taupunkt:
Aussen-T/F 101 06-06-2019 08:20:00 13.4 C 86 % 11.11 C
102 06-06-2019 08:25:00 13.4 C 84 % 10.75 C
103 06-06-2019 08:30:00 13.3 C 83 % 10.48 C
104 06-06-2019 08:35:00 13.2 C 82 % 10.2 C
105 06-06-2019 08:40:00 13.2 C 83 % 10.38 C
106 06-06-2019 08:45:00 13.2 C 83 % 10.38 C
107 06-06-2019 08:50:00 13.1 C 82 % 10.1 C
108 06-06-2019 08:55:00 13.1 C 82 % 10.1 C
109 06-06-2019 09:00:00 13 C 82 % 10 C
110 06-06-2019 09:05:00 12.9 C 82 % 9.9 C
111 06-06-2019 09:10:00 12.9 C 82 % 9.9 C
112 06-06-2019 09:15:00 12.9 C 82 % 9.9 C
113 06-06-2019 09:20:00 12.9 C 81 % 9.72 C
114 06-06-2019 09:25:00 13 C 82 % 10 C
115 06-06-2019 09:30:00 13.1 C 81 % 9.92 C
116 06-06-2019 09:35:00 13.1 C 80 % 9.73 C
117 06-06-2019 09:40:00 13.2 C 81 % 10.01 C
118 06-06-2019 09:45:00 13.3 C 81 % 10.11 C
119 06-06-2019 09:50:00 13.4 C 80 % 10.02 C
120 06-06-2019 09:55:00 13.6 C 80 % 10.22 C
121 06-06-2019 10:00:00 13.6 C 81 % 10.4 C
122 06-06-2019 10:05:00 13.7 C 80 % 10.32 C
123 06-06-2019 10:10:00 13.6 C 78 % 9.84 C
124 06-06-2019 10:15:00 13.6 C 79 % 10.03 C
125 06-06-2019 10:20:00 13.6 C 80 % 10.22 C
Sensor: Nr:Datum:Temp:Feuchte:Taupunkt:
Aussen-T/F 126 06-06-2019 10:25:00 13.6 C 79 % 10.03 C
127 06-06-2019 10:30:00 13.6 C 80 % 10.22 C
128 06-06-2019 10:35:00 13.7 C 80 % 10.32 C
129 06-06-2019 10:40:00 13.8 C 81 % 10.6 C
130 06-06-2019 10:45:00 14.1 C 81 % 10.89 C
131 06-06-2019 10:50:00 14.3 C 80 % 10.9 C
132 06-06-2019 10:55:00 14.5 C 81 % 11.28 C
133 06-06-2019 11:00:00 14.6 C 76 % 10.42 C
134 06-06-2019 11:05:00 14.7 C 76 % 10.52 C
135 06-06-2019 11:10:00 14.9 C 77 % 10.91 C
136 06-06-2019 11:15:00 15.1 C 77 % 11.1 C
137 06-06-2019 11:20:00 15.2 C 77 % 11.2 C
138 06-06-2019 11:25:00 15.1 C 76 % 10.9 C
139 06-06-2019 11:30:00 15.1 C 76 % 10.9 C
140 06-06-2019 11:35:00 15 C 75 % 10.61 C
141 06-06-2019 11:40:00 14.9 C 74 % 10.31 C
142 06-06-2019 11:45:00 14.9 C 74 % 10.31 C
143 06-06-2019 11:50:00 14.8 C 74 % 10.22 C
144 06-06-2019 11:55:00 14.9 C 74 % 10.31 C
145 06-06-2019 12:00:00 14.8 C 73 % 10.01 C
146 06-06-2019 12:05:00 14.8 C 73 % 10.01 C
147 06-06-2019 12:10:00 14.9 C 74 % 10.31 C
148 06-06-2019 12:15:00 15.1 C 75 % 10.71 C
149 06-06-2019 12:20:00 15.2 C 74 % 10.6 C
150 06-06-2019 12:25:00 15.2 C 74 % 10.6 C
Sensor: Nr:Datum:Temp:Feuchte:Taupunkt:
Aussen-T/F 151 06-06-2019 12:30:00 15.3 C 76 % 11.1 C
152 06-06-2019 12:35:00 15.5 C 74 % 10.89 C
153 06-06-2019 12:40:00 15.8 C 73 % 10.97 C
154 06-06-2019 12:45:00 16 C 73 % 11.17 C
155 06-06-2019 12:50:00 16.1 C 71 % 10.84 C
156 06-06-2019 12:55:00 16.2 C 69 % 10.51 C
157 06-06-2019 13:00:00 16.3 C 69 % 10.61 C
158 06-06-2019 13:05:00 16.4 C 70 % 10.92 C
159 06-06-2019 13:10:00 16.5 C 67 % 10.36 C
160 06-06-2019 13:15:00 16.6 C 69 % 10.89 C
161 06-06-2019 13:20:00 16.6 C 69 % 10.89 C
162 06-06-2019 13:25:00 16.6 C 69 % 10.89 C
163 06-06-2019 13:30:00 16.4 C 68 % 10.48 C
164 06-06-2019 13:35:00 16.4 C 70 % 10.92 C
165 06-06-2019 13:40:00 16.4 C 70 % 10.92 C
166 06-06-2019 13:45:00 16.4 C 70 % 10.92 C
167 06-06-2019 13:50:00 16.6 C 71 % 11.32 C
168 06-06-2019 13:55:00 16.7 C 70 % 11.21 C
169 06-06-2019 14:00:00 16.8 C 70 % 11.3 C
170 06-06-2019 14:05:00 16.9 C 70 % 11.4 C
171 06-06-2019 14:10:00 16.9 C 69 % 11.18 C
172 06-06-2019 14:15:00 17 C 67 % 10.83 C
173 06-06-2019 14:20:00 16.9 C 69 % 11.18 C
174 06-06-2019 14:25:00 17 C 67 % 10.83 C
175 06-06-2019 14:30:00 17.1 C 68 % 11.15 C
Sensor: Nr:Datum:Temp:Feuchte:Taupunkt:
Aussen-T/F 176 06-06-2019 14:35:00 17.1 C 68 % 11.15 C
177 06-06-2019 14:40:00 17.1 C 68 % 11.15 C
178 06-06-2019 14:45:00 17.1 C 67 % 10.93 C
179 06-06-2019 14:50:00 17.1 C 67 % 10.93 C
180 06-06-2019 14:55:00 17.3 C 68 % 11.34 C
181 06-06-2019 15:00:00 17.4 C 68 % 11.44 C
182 06-06-2019 15:05:00 17.2 C 68 % 11.25 C
183 06-06-2019 15:10:00 17.2 C 71 % 11.9 C
184 06-06-2019 15:15:00 17.2 C 69 % 11.47 C
185 06-06-2019 15:20:00 17.5 C 67 % 11.31 C
186 06-06-2019 15:25:00 18 C 69 % 12.23 C
187 06-06-2019 15:30:00 18.4 C 65 % 11.71 C
188 06-06-2019 15:35:00 18.4 C 62 % 10.99 C
189 06-06-2019 15:40:00 18.1 C 63 % 10.95 C
190 06-06-2019 15:45:00 17.8 C 65 % 11.14 C
191 06-06-2019 15:50:00 17.8 C 66 % 11.37 C
192 06-06-2019 15:55:00 18.1 C 64 % 11.19 C
193 06-06-2019 16:00:00 18.1 C 66 % 11.65 C
194 06-06-2019 16:05:00 18.3 C 65 % 11.61 C
195 06-06-2019 16:10:00 18.3 C 64 % 11.38 C
196 06-06-2019 16:15:00 18.1 C 63 % 10.95 C
197 06-06-2019 16:20:00 17.9 C 65 % 11.23 C
198 06-06-2019 16:25:00 17.8 C 66 % 11.37 C
199 06-06-2019 16:30:00 17.7 C 67 % 11.5 C
200 06-06-2019 16:35:00 17.8 C 68 % 11.82 C
Sensor: Nr:Datum:Temp:Feuchte:Taupunkt:
Aussen-T/F 201 06-06-2019 16:40:00 18.2 C 66 % 11.75 C
202 06-06-2019 16:45:00 18.1 C 65 % 11.42 C
203 06-06-2019 16:50:00 17.9 C 65 % 11.23 C
204 06-06-2019 16:55:00 17.8 C 66 % 11.37 C
205 06-06-2019 17:00:00 17.5 C 67 % 11.31 C
206 06-06-2019 17:05:00 17.2 C 66 % 10.8 C
207 06-06-2019 17:10:00 17 C 67 % 10.83 C
208 06-06-2019 17:15:00 16.9 C 68 % 10.96 C
209 06-06-2019 17:20:00 16.8 C 68 % 10.87 C
210 06-06-2019 17:25:00 16.7 C 69 % 10.99 C
211 06-06-2019 17:30:00 16.6 C 69 % 10.89 C
212 06-06-2019 17:35:00 16.6 C 71 % 11.32 C
213 06-06-2019 17:40:00 16.5 C 71 % 11.23 C
214 06-06-2019 17:45:00 16.4 C 71 % 11.13 C
215 06-06-2019 17:50:00 16.3 C 72 % 11.25 C
216 06-06-2019 17:55:00 16.3 C 71 % 11.04 C
217 06-06-2019 18:00:00 16.2 C 71 % 10.94 C
218 06-06-2019 18:05:00 16.2 C 72 % 11.15 C
219 06-06-2019 18:10:00 16.1 C 73 % 11.26 C
220 06-06-2019 18:15:00 16.1 C 73 % 11.26 C
221 06-06-2019 18:20:00 16.1 C 72 % 11.06 C
222 06-06-2019 18:25:00 16.3 C 74 % 11.66 C
223 06-06-2019 18:30:00 16.7 C 72 % 11.63 C
224 06-06-2019 18:35:00 17.1 C 70 % 11.59 C
225 06-06-2019 18:40:00 17.6 C 69 % 11.85 C
Sensor: Nr:Datum:Temp:Feuchte:Taupunkt:
Aussen-T/F 226 06-06-2019 18:45:00 18.2 C 65 % 11.52 C
227 06-06-2019 18:50:00 18.5 C 64 % 11.57 C
228 06-06-2019 18:55:00 18.6 C 64 % 11.66 C
229 06-06-2019 19:00:00 18.6 C 63 % 11.42 C
230 06-06-2019 19:05:00 18.7 C 62 % 11.28 C
231 06-06-2019 19:10:00 18.6 C 62 % 11.18 C
232 06-06-2019 19:15:00 18.3 C 63 % 11.14 C
233 06-06-2019 19:20:00 18.3 C 63 % 11.14 C
234 06-06-2019 19:25:00 18.4 C 64 % 11.47 C
235 06-06-2019 19:30:00 18.4 C 65 % 11.71 C
236 06-06-2019 19:35:00 18.2 C 63 % 11.05 C
237 06-06-2019 19:40:00 17.9 C 66 % 11.46 C
238 06-06-2019 19:45:00 17.9 C 64 % 11 C
239 06-06-2019 19:50:00 17.9 C 64 % 11 C
240 06-06-2019 19:55:00 18 C 64 % 11.09 C
241 06-06-2019 20:00:00 17.9 C 63 % 10.76 C
242 06-06-2019 20:05:00 17.9 C 64 % 11 C
243 06-06-2019 20:10:00 17.9 C 63 % 10.76 C
244 06-06-2019 20:15:00 17.9 C 64 % 11 C
245 06-06-2019 20:20:00 17.9 C 64 % 11 C
246 06-06-2019 20:25:00 17.8 C 63 % 10.67 C
247 06-06-2019 20:30:00 17.7 C 64 % 10.81 C
248 06-06-2019 20:35:00 17.6 C 66 % 11.18 C
249 06-06-2019 20:40:00 17.7 C 66 % 11.27 C
250 06-06-2019 20:45:00 17.6 C 65 % 10.95 C
Sensor: Nr:Datum:Temp:Feuchte:Taupunkt:
Aussen-T/F 251 06-06-2019 20:50:00 17.5 C 71 % 12.19 C
252 06-06-2019 20:55:00 17.3 C 71 % 12 C
253 06-06-2019 21:00:00 17.1 C 72 % 12.02 C
254 06-06-2019 21:05:00 16.7 C 73 % 11.84 C
255 06-06-2019 21:10:00 16.5 C 73 % 11.65 C
256 06-06-2019 21:15:00 16.2 C 74 % 11.56 C
257 06-06-2019 21:20:00 15.8 C 74 % 11.18 C
258 06-06-2019 21:25:00 15.5 C 74 % 10.89 C
259 06-06-2019 21:30:00 15.2 C 75 % 10.8 C
260 06-06-2019 21:35:00 14.9 C 76 % 10.71 C
261 06-06-2019 21:40:00 14.7 C 77 % 10.71 C
262 06-06-2019 21:45:00 14.4 C 78 % 10.62 C
263 06-06-2019 21:50:00 14.2 C 79 % 10.61 C
264 06-06-2019 21:55:00 14 C 80 % 10.61 C
265 06-06-2019 22:00:00 13.8 C 81 % 10.6 C
266 06-06-2019 22:05:00 13.6 C 82 % 10.59 C
267 06-06-2019 22:10:00 13.3 C 83 % 10.48 C
268 06-06-2019 22:15:00 13.1 C 83 % 10.28 C
269 06-06-2019 22:20:00 12.9 C 84 % 10.26 C
270 06-06-2019 22:25:00 12.8 C 84 % 10.17 C
271 06-06-2019 22:30:00 12.6 C 84 % 9.97 C
272 06-06-2019 22:35:00 12.4 C 84 % 9.78 C
273 06-06-2019 22:40:00 12.3 C 85 % 9.85 C
274 06-06-2019 22:45:00 12.2 C 85 % 9.76 C
275 06-06-2019 22:50:00 12.1 C 85 % 9.66 C
Sensor: Nr:Datum:Temp:Feuchte:Taupunkt:
Aussen-T/F 276 06-06-2019 22:55:00 11.9 C 86 % 9.64 C
277 06-06-2019 23:00:00 11.9 C 86 % 9.64 C
278 06-06-2019 23:05:00 11.8 C 86 % 9.54 C
279 06-06-2019 23:10:00 11.8 C 87 % 9.71 C
280 06-06-2019 23:15:00 11.7 C 87 % 9.61 C
281 06-06-2019 23:20:00 11.6 C 87 % 9.51 C
282 06-06-2019 23:25:00 11.4 C 87 % 9.32 C
283 06-06-2019 23:30:00 11.3 C 88 % 9.39 C
284 06-06-2019 23:35:00 11.3 C 88 % 9.39 C
285 06-06-2019 23:40:00 11.2 C 88 % 9.29 C
286 06-06-2019 23:45:00 11.2 C 88 % 9.29 C
287 06-06-2019 23:50:00 11.1 C 89 % 9.36 C
288 06-06-2019 23:55:00 10.9 C 89 % 9.16 C
289 07-06-2019 00:00:00 10.8 C 89 % 9.06 C
290 07-06-2019 00:05:00 10.8 C 89 % 9.06 C
291 07-06-2019 00:10:00 10.7 C 90 % 9.13 C
292 07-06-2019 00:15:00 10.6 C 90 % 9.03 C
293 07-06-2019 00:20:00 10.6 C 91 % 9.19 C
294 07-06-2019 00:25:00 10.5 C 90 % 8.93 C
295 07-06-2019 00:30:00 10.4 C 91 % 9 C
296 07-06-2019 00:35:00 10.4 C 91 % 9 C
297 07-06-2019 00:40:00 10.3 C 91 % 8.9 C
298 07-06-2019 00:45:00 10.2 C 91 % 8.8 C
299 07-06-2019 00:50:00 10.2 C 91 % 8.8 C
300 07-06-2019 00:55:00 10.2 C 91 % 8.8 C
Sensor: Nr:Datum:Temp:Feuchte:Taupunkt:
Aussen-T/F 301 07-06-2019 01:00:00 10.1 C 92 % 8.86 C
302 07-06-2019 01:05:00 10.1 C 92 % 8.86 C
303 07-06-2019 01:10:00 10 C 92 % 8.76 C
304 07-06-2019 01:15:00 10 C 92 % 8.76 C
305 07-06-2019 01:20:00 9.9 C 92 % 8.66 C
306 07-06-2019 01:25:00 9.9 C 92 % 8.66 C
307 07-06-2019 01:30:00 9.8 C 92 % 8.56 C
308 07-06-2019 01:35:00 9.8 C 92 % 8.56 C
309 07-06-2019 01:40:00 9.8 C 92 % 8.56 C
310 07-06-2019 01:45:00 9.7 C 92 % 8.46 C
311 07-06-2019 01:50:00 9.7 C 93 % 8.62 C
312 07-06-2019 01:55:00 9.7 C 93 % 8.62 C
313 07-06-2019 02:00:00 9.6 C 93 % 8.53 C
314 07-06-2019 02:05:00 9.6 C 93 % 8.53 C
315 07-06-2019 02:10:00 9.5 C 93 % 8.43 C
316 07-06-2019 02:15:00 9.6 C 93 % 8.53 C
317 07-06-2019 02:20:00 9.5 C 93 % 8.43 C
318 07-06-2019 02:25:00 9.5 C 93 % 8.43 C
319 07-06-2019 02:30:00 9.4 C 93 % 8.33 C
320 07-06-2019 02:35:00 9.3 C 93 % 8.23 C
321 07-06-2019 02:40:00 9.3 C 93 % 8.23 C
322 07-06-2019 02:45:00 9.3 C 93 % 8.23 C
323 07-06-2019 02:50:00 9.2 C 93 % 8.13 C
324 07-06-2019 02:55:00 9.3 C 94 % 8.39 C
325 07-06-2019 03:00:00 9.4 C 94 % 8.48 C
Sensor: Nr:Datum:Temp:Feuchte:Taupunkt:
Aussen-T/F 326 07-06-2019 03:05:00 9.3 C 94 % 8.39 C
327 07-06-2019 03:10:00 9.3 C 94 % 8.39 C
328 07-06-2019 03:15:00 9.3 C 94 % 8.39 C
329 07-06-2019 03:20:00 9.3 C 94 % 8.39 C
330 07-06-2019 03:25:00 9.3 C 94 % 8.39 C
331 07-06-2019 03:30:00 9.4 C 95 % 8.64 C
332 07-06-2019 03:35:00 9.6 C 95 % 8.84 C
333 07-06-2019 03:40:00 9.8 C 95 % 9.04 C
334 07-06-2019 03:45:00 9.9 C 95 % 9.14 C
335 07-06-2019 03:50:00 10.1 C 95 % 9.34 C
336 07-06-2019 03:55:00 10.1 C 95 % 9.34 C
337 07-06-2019 04:00:00 10.2 C 95 % 9.44 C
338 07-06-2019 04:05:00 10.2 C 95 % 9.44 C
339 07-06-2019 04:10:00 10.3 C 95 % 9.54 C
340 07-06-2019 04:15:00 10.3 C 95 % 9.54 C
341 07-06-2019 04:20:00 10.3 C 95 % 9.54 C
342 07-06-2019 04:25:00 10.3 C 95 % 9.54 C
343 07-06-2019 04:30:00 10.3 C 95 % 9.54 C
344 07-06-2019 04:35:00 10.2 C 95 % 9.44 C
345 07-06-2019 04:40:00 10.1 C 94 % 9.18 C
346 07-06-2019 04:45:00 9.9 C 94 % 8.98 C
347 07-06-2019 04:50:00 9.8 C 94 % 8.88 C
348 07-06-2019 04:55:00 9.7 C 94 % 8.78 C
349 07-06-2019 05:00:00 9.6 C 94 % 8.68 C
350 07-06-2019 05:05:00 9.4 C 94 % 8.48 C
Sensor: Nr:Datum:Temp:Feuchte:Taupunkt:
Aussen-T/F 351 07-06-2019 05:10:00 9.3 C 94 % 8.39 C
352 07-06-2019 05:15:00 9.3 C 94 % 8.39 C
353 07-06-2019 05:20:00 9.2 C 94 % 8.29 C
354 07-06-2019 05:25:00 9.2 C 94 % 8.29 C
355 07-06-2019 05:30:00 9.1 C 94 % 8.19 C
356 07-06-2019 05:35:00 9.1 C 94 % 8.19 C
357 07-06-2019 05:40:00 9.1 C 95 % 8.34 C
358 07-06-2019 05:45:00 9.1 C 95 % 8.34 C
359 07-06-2019 05:50:00 9.2 C 95 % 8.44 C
360 07-06-2019 05:55:00 9.2 C 95 % 8.44 C
361 07-06-2019 06:00:00 9.2 C 95 % 8.44 C
362 07-06-2019 06:05:00 9.3 C 95 % 8.54 C
363 07-06-2019 06:10:00 9.4 C 95 % 8.64 C
364 07-06-2019 06:15:00 9.5 C 96 % 8.89 C
365 07-06-2019 06:20:00 9.6 C 96 % 8.99 C
366 07-06-2019 06:25:00 9.6 C 96 % 8.99 C
367 07-06-2019 06:30:00 9.6 C 96 % 8.99 C
368 07-06-2019 06:35:00 9.7 C 96 % 9.09 C
369 07-06-2019 06:40:00 9.7 C 96 % 9.09 C
370 07-06-2019 06:45:00 9.7 C 96 % 9.09 C
371 07-06-2019 06:50:00 9.9 C 96 % 9.29 C
372 07-06-2019 06:55:00 10.1 C 96 % 9.49 C
373 07-06-2019 07:00:00 10.2 C 96 % 9.59 C
374 07-06-2019 07:05:00 10.3 C 96 % 9.69 C
375 07-06-2019 07:10:00 10.3 C 96 % 9.69 C
Sensor: Nr:Datum:Temp:Feuchte:Taupunkt:
Aussen-T/F 376 07-06-2019 07:15:00 10.3 C 96 % 9.69 C
377 07-06-2019 07:20:00 10.3 C 96 % 9.69 C
378 07-06-2019 07:25:00 10.3 C 96 % 9.69 C
379 07-06-2019 07:30:00 10.3 C 96 % 9.69 C
380 07-06-2019 07:35:00 10.3 C 96 % 9.69 C
381 07-06-2019 07:40:00 10.4 C 96 % 9.79 C
382 07-06-2019 07:45:00 10.5 C 96 % 9.89 C
383 07-06-2019 07:50:00 10.6 C 96 % 9.99 C
384 07-06-2019 07:55:00 10.8 C 96 % 10.19 C
385 07-06-2019 08:00:00 10.9 C 96 % 10.29 C
386 07-06-2019 08:05:00 11.1 C 96 % 10.49 C
387 07-06-2019 08:10:00 11.2 C 95 % 10.43 C
388 07-06-2019 08:15:00 11.4 C 95 % 10.63 C
389 07-06-2019 08:20:00 11.6 C 94 % 10.67 C
390 07-06-2019 08:25:00 11.7 C 94 % 10.77 C
391 07-06-2019 08:30:00 11.8 C 93 % 10.71 C
392 07-06-2019 08:35:00 12 C 92 % 10.74 C
393 07-06-2019 08:40:00 12.2 C 91 % 10.78 C
394 07-06-2019 08:45:00 12.6 C 90 % 11 C
395 07-06-2019 08:50:00 12.8 C 88 % 10.86 C
396 07-06-2019 08:55:00 13.1 C 87 % 10.99 C
397 07-06-2019 09:00:00 13.2 C 86 % 10.91 C
398 07-06-2019 09:05:00 13.3 C 86 % 11.01 C
399 07-06-2019 09:10:00 13.4 C 85 % 10.93 C
400 07-06-2019 09:15:00 13.6 C 85 % 11.13 C
Sensor: Nr:Datum:Temp:Feuchte:Taupunkt:
Aussen-T/F 401 07-06-2019 09:20:00 13.6 C 84 % 10.95 C
402 07-06-2019 09:25:00 13.7 C 84 % 11.05 C
403 07-06-2019 09:30:00 13.7 C 84 % 11.05 C
404 07-06-2019 09:35:00 13.9 C 84 % 11.24 C
405 07-06-2019 09:40:00 14 C 83 % 11.16 C
406 07-06-2019 09:45:00 14.1 C 83 % 11.26 C
407 07-06-2019 09:50:00 14.2 C 83 % 11.36 C
408 07-06-2019 09:55:00 14.4 C 83 % 11.55 C
409 07-06-2019 10:00:00 14.7 C 82 % 11.66 C
410 07-06-2019 10:05:00 15 C 82 % 11.95 C
411 07-06-2019 10:10:00 15.3 C 81 % 12.06 C
412 07-06-2019 10:15:00 15.7 C 80 % 12.26 C
413 07-06-2019 10:20:00 16.1 C 79 % 12.46 C
414 07-06-2019 10:25:00 16.5 C 78 % 12.65 C
415 07-06-2019 10:30:00 16.9 C 76 % 12.65 C
416 07-06-2019 10:35:00 17.3 C 74 % 12.62 C
417 07-06-2019 10:40:00 17.7 C 72 % 12.59 C
418 07-06-2019 10:45:00 18 C 70 % 12.45 C
419 07-06-2019 10:50:00 18.2 C 68 % 12.2 C
420 07-06-2019 10:55:00 18.4 C 68 % 12.39 C
421 07-06-2019 11:00:00 18.5 C 66 % 12.03 C
422 07-06-2019 11:05:00 18.6 C 65 % 11.9 C
423 07-06-2019 11:10:00 18.6 C 66 % 12.13 C
424 07-06-2019 11:15:00 18.6 C 66 % 12.13 C
425 07-06-2019 11:20:00 18.8 C 64 % 11.85 C
Sensor: Nr:Datum:Temp:Feuchte:Taupunkt:
Aussen-T/F 426 07-06-2019 11:25:00 18.8 C 65 % 12.09 C
427 07-06-2019 11:30:00 18.8 C 66 % 12.32 C
428 07-06-2019 11:35:00 18.8 C 66 % 12.32 C
429 07-06-2019 11:40:00 18.8 C 65 % 12.09 C
430 07-06-2019 11:45:00 18.8 C 65 % 12.09 C
431 07-06-2019 11:50:00 18.9 C 67 % 12.64 C
432 07-06-2019 11:55:00 19.1 C 65 % 12.37 C
433 07-06-2019 12:00:00 19.3 C 64 % 12.32 C
434 07-06-2019 12:05:00 19.4 C 64 % 12.42 C
435 07-06-2019 12:10:00 19.6 C 64 % 12.61 C
436 07-06-2019 12:15:00 19.7 C 64 % 12.7 C
437 07-06-2019 12:20:00 19.9 C 62 % 12.41 C
438 07-06-2019 12:25:00 19.9 C 62 % 12.41 C
439 07-06-2019 12:30:00 19.9 C 63 % 12.65 C
440 07-06-2019 12:35:00 19.9 C 63 % 12.65 C
441 07-06-2019 12:40:00 20.1 C 63 % 12.84 C
442 07-06-2019 12:45:00 20.2 C 63 % 12.94 C
443 07-06-2019 12:50:00 20.3 C 65 % 13.51 C
444 07-06-2019 12:55:00 20.6 C 64 % 13.55 C
445 07-06-2019 13:00:00 20.8 C 63 % 13.5 C
446 07-06-2019 13:05:00 20.9 C 64 % 13.84 C
447 07-06-2019 13:10:00 21.1 C 63 % 13.79 C
448 07-06-2019 13:15:00 21.2 C 65 % 14.36 C
449 07-06-2019 13:20:00 21.3 C 62 % 13.73 C
450 07-06-2019 13:25:00 21.2 C 63 % 13.88 C
Sensor: Nr:Datum:Temp:Feuchte:Taupunkt:
Aussen-T/F 451 07-06-2019 13:30:00 21.1 C 63 % 13.79 C
452 07-06-2019 13:35:00 21 C 63 % 13.69 C
453 07-06-2019 13:40:00 20.8 C 66 % 14.22 C
454 07-06-2019 13:45:00 20.6 C 65 % 13.79 C
455 07-06-2019 13:50:00 20.4 C 67 % 14.07 C
456 07-06-2019 13:55:00 20.3 C 68 % 14.2 C
457 07-06-2019 14:00:00 20.4 C 68 % 14.3 C
458 07-06-2019 14:05:00 20.4 C 69 % 14.52 C
459 07-06-2019 14:10:00 20.6 C 70 % 14.94 C
460 07-06-2019 14:15:00 20.6 C 71 % 15.16 C
461 07-06-2019 14:20:00 20.8 C 73 % 15.78 C
462 07-06-2019 14:25:00 21.2 C 72 % 15.95 C
463 07-06-2019 14:30:00 21.2 C 66 % 14.6 C
464 07-06-2019 14:35:00 21.2 C 66 % 14.6 C
465 07-06-2019 14:40:00 21.3 C 70 % 15.61 C
466 07-06-2019 14:45:00 21.5 C 65 % 14.65 C
467 07-06-2019 14:50:00 21.8 C 66 % 15.17 C
468 07-06-2019 14:55:00 22.1 C 62 % 14.48 C
469 07-06-2019 15:00:00 22.3 C 63 % 14.92 C
470 07-06-2019 15:05:00 22.7 C 64 % 15.54 C
471 07-06-2019 15:10:00 23.1 C 61 % 15.17 C
472 07-06-2019 15:15:00 23.4 C 59 % 14.93 C
473 07-06-2019 15:20:00 23.8 C 58 % 15.04 C
474 07-06-2019 15:25:00 23.9 C 57 % 14.87 C
475 07-06-2019 15:30:00 24.2 C 57 % 15.14 C
Sensor: Nr:Datum:Temp:Feuchte:Taupunkt:
Aussen-T/F 476 07-06-2019 15:35:00 24.7 C 55 % 15.05 C
477 07-06-2019 15:40:00 25.2 C 54 % 15.23 C
478 07-06-2019 15:45:00 25.4 C 51 % 14.53 C
479 07-06-2019 15:50:00 25.6 C 53 % 15.31 C
480 07-06-2019 15:55:00 25.8 C 54 % 15.79 C
481 07-06-2019 16:00:00 26.2 C 51 % 15.27 C
482 07-06-2019 16:05:00 26.6 C 49 % 15.01 C
483 07-06-2019 16:10:00 26.8 C 49 % 15.19 C
484 07-06-2019 16:15:00 27 C 48 % 15.05 C
485 07-06-2019 16:20:00 26.7 C 48 % 14.78 C
486 07-06-2019 16:25:00 26.2 C 49 % 14.64 C
487 07-06-2019 16:30:00 25.7 C 51 % 14.81 C
488 07-06-2019 16:35:00 25.4 C 51 % 14.53 C
489 07-06-2019 16:40:00 25.2 C 53 % 14.94 C
490 07-06-2019 16:45:00 25.1 C 52 % 14.55 C
491 07-06-2019 16:50:00 25.1 C 54 % 15.14 C
492 07-06-2019 16:55:00 25.6 C 52 % 15.02 C
493 07-06-2019 17:00:00 26.2 C 54 % 16.16 C
494 07-06-2019 17:05:00 26.9 C 52 % 16.21 C
495 07-06-2019 17:10:00 26.9 C 49 % 15.28 C
496 07-06-2019 17:15:00 26.2 C 51 % 15.27 C
497 07-06-2019 17:20:00 25.5 C 61 % 17.43 C
498 07-06-2019 17:25:00 25.3 C 55 % 15.61 C
499 07-06-2019 17:30:00 25.3 C 60 % 16.98 C
500 07-06-2019 17:35:00 25.1 C 61 % 17.05 C
Sensor: Nr:Datum:Temp:Feuchte:Taupunkt:
Aussen-T/F 501 07-06-2019 17:40:00 24.7 C 63 % 17.18 C
502 07-06-2019 17:45:00 24.3 C 65 % 17.3 C
503 07-06-2019 17:50:00 24.1 C 61 % 16.11 C
504 07-06-2019 17:55:00 23.9 C 63 % 16.43 C
505 07-06-2019 18:00:00 23.8 C 65 % 16.83 C
506 07-06-2019 18:05:00 23.8 C 64 % 16.58 C
507 07-06-2019 18:10:00 23.7 C 60 % 15.48 C
508 07-06-2019 18:15:00 23.1 C 61 % 15.17 C
509 07-06-2019 18:20:00 22.4 C 60 % 14.26 C
510 07-06-2019 18:25:00 21.8 C 59 % 13.44 C
511 07-06-2019 18:30:00 21.2 C 58 % 12.61 C
512 07-06-2019 18:35:00 20.9 C 56 % 11.8 C
513 07-06-2019 18:40:00 20.7 C 55 % 11.34 C
514 07-06-2019 18:45:00 20.3 C 55 % 10.97 C
515 07-06-2019 18:50:00 19.8 C 55 % 10.51 C
516 07-06-2019 18:55:00 19.4 C 55 % 10.13 C
517 07-06-2019 19:00:00 19.1 C 54 % 9.58 C
518 07-06-2019 19:05:00 18.3 C 57 % 9.64 C
519 07-06-2019 19:10:00 17.7 C 58 % 9.34 C
520 07-06-2019 19:15:00 17.3 C 62 % 9.96 C
521 07-06-2019 19:20:00 17.2 C 62 % 9.86 C
522 07-06-2019 19:25:00 17 C 62 % 9.67 C
523 07-06-2019 19:30:00 16.8 C 63 % 9.72 C
524 07-06-2019 19:35:00 16.8 C 65 % 10.19 C
525 07-06-2019 19:40:00 16.7 C 65 % 10.09 C
Sensor: Nr:Datum:Temp:Feuchte:Taupunkt:
Aussen-T/F 526 07-06-2019 19:45:00 16.6 C 67 % 10.45 C
527 07-06-2019 19:50:00 16.4 C 69 % 10.7 C
528 07-06-2019 19:55:00 16.3 C 68 % 10.39 C
529 07-06-2019 20:00:00 16.1 C 68 % 10.2 C
530 07-06-2019 20:05:00 15.9 C 68 % 10.01 C
531 07-06-2019 20:10:00 15.9 C 70 % 10.44 C
532 07-06-2019 20:15:00 15.8 C 70 % 10.34 C
533 07-06-2019 20:20:00 15.7 C 69 % 10.03 C
534 07-06-2019 20:25:00 15.7 C 71 % 10.46 C
535 07-06-2019 20:30:00 15.4 C 72 % 10.38 C
536 07-06-2019 20:35:00 15.1 C 73 % 10.3 C
537 07-06-2019 20:40:00 14.9 C 74 % 10.31 C
538 07-06-2019 20:45:00 14.8 C 76 % 10.61 C
539 07-06-2019 20:50:00 14.8 C 74 % 10.22 C
540 07-06-2019 20:55:00 14.9 C 75 % 10.51 C
541 07-06-2019 21:00:00 14.9 C 76 % 10.71 C
542 07-06-2019 21:05:00 15 C 73 % 10.2 C
543 07-06-2019 21:10:00 15.1 C 75 % 10.71 C
544 07-06-2019 21:15:00 15.1 C 74 % 10.5 C
545 07-06-2019 21:20:00 15.1 C 76 % 10.9 C
546 07-06-2019 21:25:00 14.9 C 72 % 9.9 C
547 07-06-2019 21:30:00 14.9 C 73 % 10.11 C
548 07-06-2019 21:35:00 14.8 C 73 % 10.01 C
549 07-06-2019 21:40:00 14.8 C 73 % 10.01 C
550 07-06-2019 21:45:00 14.8 C 70 % 9.39 C
Sensor: Nr:Datum:Temp:Feuchte:Taupunkt:
Aussen-T/F 551 07-06-2019 21:50:00 14.9 C 70 % 9.48 C
552 07-06-2019 21:55:00 15.1 C 70 % 9.67 C
553 07-06-2019 22:00:00 15.2 C 68 % 9.34 C
554 07-06-2019 22:05:00 15.2 C 69 % 9.56 C
555 07-06-2019 22:10:00 15.2 C 69 % 9.56 C
556 07-06-2019 22:15:00 15.1 C 71 % 9.89 C
557 07-06-2019 22:20:00 14.8 C 70 % 9.39 C
558 07-06-2019 22:25:00 14.6 C 68 % 8.77 C
559 07-06-2019 22:30:00 14.7 C 70 % 9.29 C
560 07-06-2019 22:35:00 14.8 C 68 % 8.96 C
561 07-06-2019 22:40:00 14.7 C 69 % 9.08 C
562 07-06-2019 22:45:00 14.6 C 72 % 9.61 C
563 07-06-2019 22:50:00 14.4 C 73 % 9.63 C
564 07-06-2019 22:55:00 14.3 C 71 % 9.12 C
565 07-06-2019 23:00:00 14.4 C 68 % 8.58 C
566 07-06-2019 23:05:00 14.7 C 69 % 9.08 C
567 07-06-2019 23:10:00 15 C 65 % 8.48 C
568 07-06-2019 23:15:00 15.1 C 66 % 8.8 C
569 07-06-2019 23:20:00 15.2 C 66 % 8.9 C
570 07-06-2019 23:25:00 15.2 C 66 % 8.9 C
571 07-06-2019 23:30:00 15.2 C 65 % 8.67 C
572 07-06-2019 23:35:00 15.3 C 67 % 9.21 C
573 07-06-2019 23:40:00 15.4 C 66 % 9.09 C
574 07-06-2019 23:45:00 15.4 C 67 % 9.31 C
575 07-06-2019 23:50:00 15.3 C 67 % 9.21 C
Sensor: Nr:Datum:Temp:Feuchte:Taupunkt:
Aussen-T/F 576 07-06-2019 23:55:00 15.3 C 66 % 8.99 C
577 08-06-2019 00:00:00 15.3 C 66 % 8.99 C
578 08-06-2019 00:05:00 15.4 C 69 % 9.75 C
579 08-06-2019 00:10:00 15.3 C 66 % 8.99 C
580 08-06-2019 00:15:00 15.3 C 66 % 8.99 C
581 08-06-2019 00:20:00 15.4 C 67 % 9.31 C
582 08-06-2019 00:25:00 15.4 C 67 % 9.31 C
583 08-06-2019 00:30:00 15.4 C 66 % 9.09 C
584 08-06-2019 00:35:00 15.5 C 67 % 9.41 C
585 08-06-2019 00:40:00 15.5 C 67 % 9.41 C
586 08-06-2019 00:45:00 15.6 C 66 % 9.28 C
587 08-06-2019 00:50:00 15.7 C 65 % 9.15 C
588 08-06-2019 00:55:00 15.8 C 65 % 9.24 C
589 08-06-2019 01:00:00 15.7 C 66 % 9.37 C
590 08-06-2019 01:05:00 15.5 C 66 % 9.18 C
591 08-06-2019 01:10:00 15.5 C 66 % 9.18 C
592 08-06-2019 01:15:00 15.6 C 65 % 9.05 C
593 08-06-2019 01:20:00 15.7 C 65 % 9.15 C
594 08-06-2019 01:25:00 15.7 C 65 % 9.15 C
595 08-06-2019 01:30:00 15.7 C 66 % 9.37 C
596 08-06-2019 01:35:00 15.6 C 65 % 9.05 C
597 08-06-2019 01:40:00 15.6 C 65 % 9.05 C
598 08-06-2019 01:45:00 15.6 C 65 % 9.05 C
599 08-06-2019 01:50:00 15.6 C 65 % 9.05 C
600 08-06-2019 01:55:00 15.6 C 64 % 8.82 C
Sensor: Nr:Datum:Temp:Feuchte:Taupunkt:
Aussen-T/F 601 08-06-2019 02:00:00 15.7 C 65 % 9.15 C
602 08-06-2019 02:05:00 15.8 C 64 % 9.01 C
603 08-06-2019 02:10:00 15.8 C 65 % 9.24 C
604 08-06-2019 02:15:00 15.8 C 65 % 9.24 C
605 08-06-2019 02:20:00 15.8 C 66 % 9.47 C
606 08-06-2019 02:25:00 15.7 C 68 % 9.82 C
607 08-06-2019 02:30:00 15.4 C 68 % 9.53 C
608 08-06-2019 02:35:00 15.1 C 68 % 9.24 C
609 08-06-2019 02:40:00 14.8 C 69 % 9.17 C
610 08-06-2019 02:45:00 14.8 C 69 % 9.17 C
611 08-06-2019 02:50:00 14.7 C 69 % 9.08 C
612 08-06-2019 02:55:00 14.7 C 69 % 9.08 C
613 08-06-2019 03:00:00 14.9 C 68 % 9.05 C
614 08-06-2019 03:05:00 15 C 67 % 8.93 C
615 08-06-2019 03:10:00 15.1 C 67 % 9.02 C
616 08-06-2019 03:15:00 15 C 67 % 8.93 C
617 08-06-2019 03:20:00 15 C 67 % 8.93 C
618 08-06-2019 03:25:00 15.1 C 68 % 9.24 C
619 08-06-2019 03:30:00 15.1 C 67 % 9.02 C
620 08-06-2019 03:35:00 15.1 C 68 % 9.24 C
621 08-06-2019 03:40:00 15.1 C 67 % 9.02 C
622 08-06-2019 03:45:00 15.1 C 66 % 8.8 C
623 08-06-2019 03:50:00 15.1 C 66 % 8.8 C
624 08-06-2019 03:55:00 15.2 C 66 % 8.9 C
625 08-06-2019 04:00:00 15.2 C 67 % 9.12 C
Sensor: Nr:Datum:Temp:Feuchte:Taupunkt:
Aussen-T/F 626 08-06-2019 04:05:00 15.1 C 65 % 8.58 C
627 08-06-2019 04:10:00 15.1 C 64 % 8.35 C
628 08-06-2019 04:15:00 14.9 C 64 % 8.16 C
629 08-06-2019 04:20:00 14.9 C 64 % 8.16 C
630 08-06-2019 04:25:00 14.8 C 63 % 7.83 C
631 08-06-2019 04:30:00 14.8 C 62 % 7.6 C
632 08-06-2019 04:35:00 14.8 C 63 % 7.83 C
633 08-06-2019 04:40:00 14.8 C 65 % 8.29 C
634 08-06-2019 04:45:00 14.7 C 64 % 7.97 C
635 08-06-2019 04:50:00 14.7 C 63 % 7.74 C
636 08-06-2019 04:55:00 14.6 C 64 % 7.87 C
637 08-06-2019 05:00:00 14.5 C 63 % 7.55 C
638 08-06-2019 05:05:00 14.4 C 63 % 7.45 C
639 08-06-2019 05:10:00 14.4 C 64 % 7.68 C
640 08-06-2019 05:15:00 14.3 C 63 % 7.36 C
641 08-06-2019 05:20:00 14.3 C 63 % 7.36 C
642 08-06-2019 05:25:00 14.2 C 62 % 7.03 C
643 08-06-2019 05:30:00 14.1 C 63 % 7.17 C
644 08-06-2019 05:35:00 14 C 63 % 7.08 C
645 08-06-2019 05:40:00 13.9 C 64 % 7.21 C
646 08-06-2019 05:45:00 13.8 C 64 % 7.12 C
647 08-06-2019 05:50:00 13.7 C 64 % 7.02 C
648 08-06-2019 05:55:00 13.7 C 64 % 7.02 C
649 08-06-2019 06:00:00 13.6 C 65 % 7.15 C
650 08-06-2019 06:05:00 13.5 C 65 % 7.06 C
Sensor: Nr:Datum:Temp:Feuchte:Taupunkt:
Aussen-T/F 651 08-06-2019 06:10:00 13.4 C 66 % 7.19 C
652 08-06-2019 06:15:00 13.4 C 66 % 7.19 C
653 08-06-2019 06:20:00 13.3 C 67 % 7.31 C
654 08-06-2019 06:25:00 13.3 C 67 % 7.31 C
655 08-06-2019 06:30:00 13.2 C 67 % 7.21 C
656 08-06-2019 06:35:00 13.2 C 67 % 7.21 C
657 08-06-2019 06:40:00 13.2 C 68 % 7.43 C
658 08-06-2019 06:45:00 13.2 C 68 % 7.43 C
659 08-06-2019 06:50:00 13.3 C 68 % 7.53 C
660 08-06-2019 06:55:00 13.3 C 67 % 7.31 C
661 08-06-2019 07:00:00 13.4 C 67 % 7.4 C
662 08-06-2019 07:05:00 13.4 C 66 % 7.19 C
663 08-06-2019 07:10:00 13.5 C 65 % 7.06 C
664 08-06-2019 07:15:00 13.5 C 66 % 7.28 C
665 08-06-2019 07:20:00 13.6 C 65 % 7.15 C
666 08-06-2019 07:25:00 13.7 C 64 % 7.02 C
667 08-06-2019 07:30:00 13.8 C 65 % 7.34 C
668 08-06-2019 07:35:00 13.8 C 66 % 7.57 C
669 08-06-2019 07:40:00 13.8 C 66 % 7.57 C
670 08-06-2019 07:45:00 13.8 C 65 % 7.34 C
671 08-06-2019 07:50:00 13.9 C 66 % 7.66 C
672 08-06-2019 07:55:00 14.1 C 65 % 7.63 C
673 08-06-2019 08:00:00 14.1 C 65 % 7.63 C
674 08-06-2019 08:05:00 14.1 C 65 % 7.63 C
675 08-06-2019 08:10:00 14.3 C 66 % 8.04 C
Sensor: Nr:Datum:Temp:Feuchte:Taupunkt:
Aussen-T/F 676 08-06-2019 08:15:00 14.4 C 64 % 7.68 C
677 08-06-2019 08:20:00 14.4 C 64 % 7.68 C
678 08-06-2019 08:25:00 14.5 C 64 % 7.78 C
679 08-06-2019 08:30:00 14.4 C 66 % 8.14 C
680 08-06-2019 08:35:00 14.3 C 65 % 7.82 C
681 08-06-2019 08:40:00 14.3 C 66 % 8.04 C
682 08-06-2019 08:45:00 14.3 C 66 % 8.04 C
683 08-06-2019 08:50:00 14.2 C 66 % 7.95 C
684 08-06-2019 08:55:00 14.2 C 67 % 8.17 C
685 08-06-2019 09:00:00 14.2 C 66 % 7.95 C
686 08-06-2019 09:05:00 14.3 C 66 % 8.04 C
687 08-06-2019 09:10:00 14.3 C 66 % 8.04 C
688 08-06-2019 09:15:00 14.3 C 66 % 8.04 C
689 08-06-2019 09:20:00 14.3 C 66 % 8.04 C
690 08-06-2019 09:25:00 14.3 C 68 % 8.48 C
691 08-06-2019 09:30:00 14.5 C 67 % 8.45 C
692 08-06-2019 09:35:00 14.7 C 65 % 8.2 C
693 08-06-2019 09:40:00 14.9 C 67 % 8.83 C
694 08-06-2019 09:45:00 15 C 65 % 8.48 C
695 08-06-2019 09:50:00 15 C 66 % 8.71 C
696 08-06-2019 09:55:00 15.1 C 65 % 8.58 C
697 08-06-2019 10:00:00 15.1 C 65 % 8.58 C
698 08-06-2019 10:05:00 14.9 C 66 % 8.61 C
699 08-06-2019 10:10:00 14.8 C 67 % 8.74 C
700 08-06-2019 10:15:00 14.7 C 66 % 8.42 C
Sensor: Nr:Datum:Temp:Feuchte:Taupunkt:
Aussen-T/F 701 08-06-2019 10:20:00 14.7 C 68 % 8.86 C
702 08-06-2019 10:25:00 14.6 C 66 % 8.33 C
703 08-06-2019 10:30:00 14.6 C 67 % 8.55 C
704 08-06-2019 10:35:00 14.7 C 68 % 8.86 C
705 08-06-2019 10:40:00 14.9 C 67 % 8.83 C
706 08-06-2019 10:45:00 15.2 C 66 % 8.9 C
707 08-06-2019 10:50:00 15.3 C 67 % 9.21 C
708 08-06-2019 10:55:00 15.4 C 66 % 9.09 C
709 08-06-2019 11:00:00 15.3 C 65 % 8.77 C
710 08-06-2019 11:05:00 15.4 C 67 % 9.31 C
711 08-06-2019 11:10:00 15.5 C 65 % 8.96 C
712 08-06-2019 11:15:00 15.6 C 65 % 9.05 C
713 08-06-2019 11:20:00 15.6 C 64 % 8.82 C
714 08-06-2019 11:25:00 15.6 C 65 % 9.05 C
715 08-06-2019 11:30:00 15.7 C 64 % 8.92 C
716 08-06-2019 11:35:00 15.8 C 64 % 9.01 C
717 08-06-2019 11:40:00 15.9 C 65 % 9.34 C
718 08-06-2019 11:45:00 16.1 C 62 % 8.82 C
719 08-06-2019 11:50:00 16 C 62 % 8.73 C
720 08-06-2019 11:55:00 16 C 62 % 8.73 C
721 08-06-2019 12:00:00 16.2 C 63 % 9.16 C
722 08-06-2019 12:05:00 16.3 C 61 % 8.77 C
723 08-06-2019 12:10:00 16.3 C 61 % 8.77 C
724 08-06-2019 12:15:00 16.2 C 62 % 8.92 C
725 08-06-2019 12:20:00 16.2 C 63 % 9.16 C
Sensor: Nr:Datum:Temp:Feuchte:Taupunkt:
Aussen-T/F 726 08-06-2019 12:25:00 16.2 C 63 % 9.16 C
727 08-06-2019 12:30:00 16.4 C 63 % 9.35 C
728 08-06-2019 12:35:00 16.6 C 62 % 9.3 C
729 08-06-2019 12:40:00 16.7 C 60 % 8.9 C
730 08-06-2019 12:45:00 16.9 C 61 % 9.34 C
731 08-06-2019 12:50:00 17.1 C 60 % 9.28 C
732 08-06-2019 12:55:00 17.2 C 59 % 9.13 C
733 08-06-2019 13:00:00 17.1 C 58 % 8.78 C
734 08-06-2019 13:05:00 17.1 C 58 % 8.78 C
735 08-06-2019 13:10:00 17.2 C 58 % 8.87 C
736 08-06-2019 13:15:00 17.3 C 57 % 8.71 C
737 08-06-2019 13:20:00 17.4 C 56 % 8.54 C
738 08-06-2019 13:25:00 17.4 C 57 % 8.8 C
739 08-06-2019 13:30:00 17.6 C 59 % 9.5 C
740 08-06-2019 13:35:00 17.6 C 57 % 8.99 C
741 08-06-2019 13:40:00 17.4 C 58 % 9.06 C
742 08-06-2019 13:45:00 17.3 C 57 % 8.71 C
743 08-06-2019 13:50:00 17.5 C 58 % 9.15 C
744 08-06-2019 13:55:00 17.7 C 59 % 9.59 C
745 08-06-2019 14:00:00 17.9 C 57 % 9.27 C
746 08-06-2019 14:05:00 18 C 58 % 9.62 C
747 08-06-2019 14:10:00 18 C 57 % 9.36 C
748 08-06-2019 14:15:00 17.9 C 56 % 9.01 C
749 08-06-2019 14:20:00 17.8 C 57 % 9.18 C
750 08-06-2019 14:25:00 18 C 57 % 9.36 C
Sensor: Nr:Datum:Temp:Feuchte:Taupunkt:
Aussen-T/F 751 08-06-2019 14:30:00 18.4 C 57 % 9.74 C
752 08-06-2019 14:35:00 18.7 C 54 % 9.21 C
753 08-06-2019 14:40:00 18.7 C 54 % 9.21 C
754 08-06-2019 14:45:00 18.8 C 54 % 9.3 C
755 08-06-2019 14:50:00 18.9 C 54 % 9.4 C
756 08-06-2019 14:55:00 18.8 C 54 % 9.3 C
757 08-06-2019 15:00:00 19.2 C 52 % 9.11 C
758 08-06-2019 15:05:00 19.3 C 51 % 8.92 C
759 08-06-2019 15:10:00 19.2 C 53 % 9.4 C
760 08-06-2019 15:15:00 18.8 C 54 % 9.3 C
761 08-06-2019 15:20:00 18.8 C 55 % 9.58 C
762 08-06-2019 15:25:00 19.1 C 56 % 10.12 C
763 08-06-2019 15:30:00 19.4 C 53 % 9.58 C
764 08-06-2019 15:35:00 19.4 C 51 % 9.01 C
765 08-06-2019 15:40:00 19.3 C 52 % 9.21 C
766 08-06-2019 15:45:00 19.2 C 50 % 8.53 C
767 08-06-2019 15:50:00 19.2 C 51 % 8.83 C
768 08-06-2019 15:55:00 18.9 C 52 % 8.84 C
769 08-06-2019 16:00:00 18.7 C 54 % 9.21 C
770 08-06-2019 16:05:00 18.8 C 52 % 8.75 C
771 08-06-2019 16:10:00 18.8 C 51 % 8.46 C
772 08-06-2019 16:15:00 19.3 C 54 % 9.77 C
773 08-06-2019 16:20:00 19.9 C 51 % 9.47 C
774 08-06-2019 16:25:00 20.2 C 51 % 9.75 C
775 08-06-2019 16:30:00 20.5 C 49 % 9.43 C
Sensor: Nr:Datum:Temp:Feuchte:Taupunkt:
Aussen-T/F 776 08-06-2019 16:35:00 20.4 C 52 % 10.22 C
777 08-06-2019 16:40:00 20.1 C 48 % 8.76 C
778 08-06-2019 16:45:00 19.7 C 50 % 8.99 C
779 08-06-2019 16:50:00 19.7 C 49 % 8.7 C
780 08-06-2019 16:55:00 19.8 C 49 % 8.79 C
781 08-06-2019 17:00:00 19.6 C 51 % 9.2 C
782 08-06-2019 17:05:00 19.7 C 52 % 9.58 C
783 08-06-2019 17:10:00 19.9 C 49 % 8.88 C
784 08-06-2019 17:15:00 20.1 C 50 % 9.36 C
785 08-06-2019 17:20:00 20.4 C 49 % 9.34 C
786 08-06-2019 17:25:00 20 C 48 % 8.67 C
787 08-06-2019 17:30:00 19.7 C 49 % 8.7 C
788 08-06-2019 17:35:00 19.4 C 49 % 8.42 C
789 08-06-2019 17:40:00 19.6 C 51 % 9.2 C
790 08-06-2019 17:45:00 20.2 C 49 % 9.15 C
791 08-06-2019 17:50:00 20.3 C 49 % 9.24 C
792 08-06-2019 17:55:00 20.2 C 48 % 8.85 C
793 08-06-2019 18:00:00 19.8 C 49 % 8.79 C
794 08-06-2019 18:05:00 19.8 C 50 % 9.09 C
795 08-06-2019 18:10:00 20.5 C 48 % 9.12 C
796 08-06-2019 18:15:00 20.8 C 46 % 8.77 C
797 08-06-2019 18:20:00 21.1 C 46 % 9.04 C
798 08-06-2019 18:25:00 21.1 C 46 % 9.04 C
799 08-06-2019 18:30:00 20.4 C 49 % 9.34 C
800 08-06-2019 18:35:00 19.8 C 49 % 8.79 C
Sensor: Nr:Datum:Temp:Feuchte:Taupunkt:
Aussen-T/F 801 08-06-2019 18:40:00 19.4 C 52 % 9.3 C
802 08-06-2019 18:45:00 19.2 C 53 % 9.4 C
803 08-06-2019 18:50:00 18.9 C 52 % 8.84 C
804 08-06-2019 18:55:00 18.7 C 53 % 8.93 C
805 08-06-2019 19:00:00 18.4 C 54 % 8.93 C
806 08-06-2019 19:05:00 18.3 C 53 % 8.56 C
807 08-06-2019 19:10:00 18.3 C 54 % 8.84 C
808 08-06-2019 19:15:00 18.6 C 56 % 9.66 C
809 08-06-2019 19:20:00 18.8 C 56 % 9.84 C
810 08-06-2019 19:25:00 19.3 C 56 % 10.31 C
811 08-06-2019 19:30:00 19.4 C 55 % 10.13 C
812 08-06-2019 19:35:00 19.3 C 54 % 9.77 C
813 08-06-2019 19:40:00 19.4 C 55 % 10.13 C
814 08-06-2019 19:45:00 19.4 C 54 % 9.86 C
815 08-06-2019 19:50:00 19.3 C 54 % 9.77 C
816 08-06-2019 19:55:00 19.3 C 53 % 9.49 C
817 08-06-2019 20:00:00 19.1 C 54 % 9.58 C
818 08-06-2019 20:05:00 18.8 C 56 % 9.84 C
819 08-06-2019 20:10:00 18.4 C 57 % 9.74 C
820 08-06-2019 20:15:00 18.1 C 59 % 9.97 C
821 08-06-2019 20:20:00 17.8 C 60 % 9.94 C
822 08-06-2019 20:25:00 17.6 C 62 % 10.24 C
823 08-06-2019 20:30:00 17.4 C 63 % 10.29 C
824 08-06-2019 20:35:00 17.2 C 65 % 10.57 C
825 08-06-2019 20:40:00 16.9 C 66 % 10.51 C
Sensor: Nr:Datum:Temp:Feuchte:Taupunkt:
Aussen-T/F 826 08-06-2019 20:45:00 16.8 C 67 % 10.64 C
827 08-06-2019 20:50:00 16.7 C 69 % 10.99 C
828 08-06-2019 20:55:00 16.6 C 69 % 10.89 C
829 08-06-2019 21:00:00 16.6 C 70 % 11.11 C
830 08-06-2019 21:05:00 16.4 C 69 % 10.7 C
831 08-06-2019 21:10:00 16.3 C 70 % 10.82 C
832 08-06-2019 21:15:00 16.3 C 70 % 10.82 C
833 08-06-2019 21:20:00 16.2 C 72 % 11.15 C
834 08-06-2019 21:25:00 16.1 C 70 % 10.63 C
835 08-06-2019 21:30:00 16.1 C 68 % 10.2 C
836 08-06-2019 21:35:00 16 C 69 % 10.32 C
837 08-06-2019 21:40:00 16 C 70 % 10.54 C
838 08-06-2019 21:45:00 15.9 C 71 % 10.65 C
839 08-06-2019 21:50:00 15.8 C 71 % 10.56 C
840 08-06-2019 21:55:00 15.7 C 70 % 10.25 C
841 08-06-2019 22:00:00 15.5 C 71 % 10.27 C
842 08-06-2019 22:05:00 15.3 C 72 % 10.29 C
843 08-06-2019 22:10:00 15.1 C 72 % 10.09 C
844 08-06-2019 22:15:00 14.8 C 73 % 10.01 C
845 08-06-2019 22:20:00 14.6 C 73 % 9.82 C
846 08-06-2019 22:25:00 14.4 C 74 % 9.83 C
847 08-06-2019 22:30:00 14.2 C 75 % 9.84 C
848 08-06-2019 22:35:00 14.1 C 76 % 9.94 C
849 08-06-2019 22:40:00 13.9 C 76 % 9.74 C
850 08-06-2019 22:45:00 13.8 C 77 % 9.84 C
Sensor: Nr:Datum:Temp:Feuchte:Taupunkt:
Aussen-T/F 851 08-06-2019 22:50:00 13.6 C 78 % 9.84 C
852 08-06-2019 22:55:00 13.4 C 78 % 9.65 C
853 08-06-2019 23:00:00 13.3 C 78 % 9.55 C
854 08-06-2019 23:05:00 13.1 C 79 % 9.54 C
855 08-06-2019 23:10:00 12.9 C 79 % 9.35 C
856 08-06-2019 23:15:00 12.8 C 80 % 9.44 C
857 08-06-2019 23:20:00 12.7 C 80 % 9.34 C
858 08-06-2019 23:25:00 12.7 C 81 % 9.53 C
859 08-06-2019 23:30:00 12.6 C 81 % 9.43 C
860 08-06-2019 23:35:00 12.5 C 81 % 9.33 C
861 08-06-2019 23:40:00 12.4 C 81 % 9.23 C
862 08-06-2019 23:45:00 12.4 C 82 % 9.42 C
863 08-06-2019 23:50:00 12.3 C 82 % 9.32 C
864 08-06-2019 23:55:00 12.2 C 83 % 9.4 C
865 09-06-2019 00:00:00 12.1 C 83 % 9.3 C
866 09-06-2019 00:05:00 12.1 C 84 % 9.48 C
867 09-06-2019 00:10:00 11.9 C 84 % 9.29 C
868 09-06-2019 00:15:00 11.9 C 84 % 9.29 C
869 09-06-2019 00:20:00 11.8 C 84 % 9.19 C
870 09-06-2019 00:25:00 11.7 C 84 % 9.09 C
871 09-06-2019 00:30:00 11.6 C 85 % 9.17 C
872 09-06-2019 00:35:00 11.6 C 85 % 9.17 C
873 09-06-2019 00:40:00 11.4 C 85 % 8.97 C
874 09-06-2019 00:45:00 11.3 C 86 % 9.05 C
875 09-06-2019 00:50:00 11.3 C 86 % 9.05 C
Sensor: Nr:Datum:Temp:Feuchte:Taupunkt:
Aussen-T/F 876 09-06-2019 00:55:00 11.3 C 86 % 9.05 C
877 09-06-2019 01:00:00 11.2 C 86 % 8.95 C
878 09-06-2019 01:05:00 11.2 C 87 % 9.12 C
879 09-06-2019 01:10:00 11.2 C 87 % 9.12 C
880 09-06-2019 01:15:00 11.1 C 87 % 9.02 C
881 09-06-2019 01:20:00 11 C 87 % 8.92 C
882 09-06-2019 01:25:00 11 C 87 % 8.92 C
883 09-06-2019 01:30:00 11.1 C 87 % 9.02 C
884 09-06-2019 01:35:00 11.1 C 87 % 9.02 C
885 09-06-2019 01:40:00 11.1 C 87 % 9.02 C
886 09-06-2019 01:45:00 11.1 C 87 % 9.02 C
887 09-06-2019 01:50:00 11 C 87 % 8.92 C
888 09-06-2019 01:55:00 10.9 C 87 % 8.82 C
889 09-06-2019 02:00:00 10.9 C 87 % 8.82 C
890 09-06-2019 02:05:00 11.1 C 87 % 9.02 C
891 09-06-2019 02:10:00 11 C 87 % 8.92 C
892 09-06-2019 02:15:00 11 C 87 % 8.92 C
893 09-06-2019 02:20:00 11.1 C 87 % 9.02 C
894 09-06-2019 02:25:00 11.1 C 87 % 9.02 C
895 09-06-2019 02:30:00 11 C 87 % 8.92 C
896 09-06-2019 02:35:00 10.9 C 87 % 8.82 C
897 09-06-2019 02:40:00 10.8 C 88 % 8.89 C
898 09-06-2019 02:45:00 10.8 C 88 % 8.89 C
899 09-06-2019 02:50:00 10.7 C 88 % 8.8 C
900 09-06-2019 02:55:00 10.7 C 88 % 8.8 C
Sensor: Nr:Datum:Temp:Feuchte:Taupunkt:
Aussen-T/F 901 09-06-2019 03:00:00 10.6 C 89 % 8.86 C
902 09-06-2019 03:05:00 10.6 C 89 % 8.86 C
903 09-06-2019 03:10:00 10.5 C 89 % 8.77 C
904 09-06-2019 03:15:00 10.4 C 89 % 8.67 C
905 09-06-2019 03:20:00 10.4 C 89 % 8.67 C
906 09-06-2019 03:25:00 10.3 C 89 % 8.57 C
907 09-06-2019 03:30:00 10.3 C 89 % 8.57 C
908 09-06-2019 03:35:00 10.2 C 89 % 8.47 C
909 09-06-2019 03:40:00 10.1 C 89 % 8.37 C
910 09-06-2019 03:45:00 10.1 C 90 % 8.54 C
911 09-06-2019 03:50:00 10 C 89 % 8.27 C
912 09-06-2019 03:55:00 9.9 C 89 % 8.17 C
913 09-06-2019 04:00:00 9.8 C 90 % 8.24 C
914 09-06-2019 04:05:00 9.8 C 90 % 8.24 C
915 09-06-2019 04:10:00 9.8 C 90 % 8.24 C
916 09-06-2019 04:15:00 9.7 C 90 % 8.14 C
917 09-06-2019 04:20:00 9.6 C 90 % 8.04 C
918 09-06-2019 04:25:00 9.4 C 90 % 7.85 C
919 09-06-2019 04:30:00 9.3 C 90 % 7.75 C
920 09-06-2019 04:35:00 9.2 C 90 % 7.65 C
921 09-06-2019 04:40:00 9.2 C 91 % 7.81 C
922 09-06-2019 04:45:00 9.1 C 91 % 7.71 C
923 09-06-2019 04:50:00 9 C 91 % 7.61 C
924 09-06-2019 04:55:00 8.9 C 91 % 7.51 C
925 09-06-2019 05:00:00 8.9 C 91 % 7.51 C
Sensor: Nr:Datum:Temp:Feuchte:Taupunkt:
Aussen-T/F 926 09-06-2019 05:05:00 8.8 C 92 % 7.57 C
927 09-06-2019 05:10:00 8.8 C 92 % 7.57 C
928 09-06-2019 05:15:00 8.7 C 92 % 7.47 C
929 09-06-2019 05:20:00 8.7 C 92 % 7.47 C
930 09-06-2019 05:25:00 8.6 C 92 % 7.38 C
931 09-06-2019 05:30:00 8.6 C 92 % 7.38 C
932 09-06-2019 05:35:00 8.6 C 93 % 7.53 C
933 09-06-2019 05:40:00 8.6 C 93 % 7.53 C
934 09-06-2019 05:45:00 8.6 C 93 % 7.53 C
935 09-06-2019 05:50:00 8.6 C 93 % 7.53 C
936 09-06-2019 05:55:00 8.6 C 93 % 7.53 C
937 09-06-2019 06:00:00 8.6 C 93 % 7.53 C
938 09-06-2019 06:05:00 8.6 C 93 % 7.53 C
939 09-06-2019 06:10:00 8.5 C 93 % 7.43 C
940 09-06-2019 06:15:00 8.5 C 93 % 7.43 C
941 09-06-2019 06:20:00 8.4 C 93 % 7.34 C
942 09-06-2019 06:25:00 8.5 C 93 % 7.43 C
943 09-06-2019 06:30:00 8.6 C 93 % 7.53 C
944 09-06-2019 06:35:00 8.6 C 94 % 7.69 C
945 09-06-2019 06:40:00 8.7 C 94 % 7.79 C
946 09-06-2019 06:45:00 8.8 C 94 % 7.89 C
947 09-06-2019 06:50:00 8.8 C 94 % 7.89 C
948 09-06-2019 06:55:00 9 C 94 % 8.09 C
949 09-06-2019 07:00:00 9.2 C 94 % 8.29 C
950 09-06-2019 07:05:00 9.3 C 95 % 8.54 C
Sensor: Nr:Datum:Temp:Feuchte:Taupunkt:
Aussen-T/F 951 09-06-2019 07:10:00 9.3 C 95 % 8.54 C
952 09-06-2019 07:15:00 9.4 C 94 % 8.48 C
953 09-06-2019 07:20:00 9.6 C 94 % 8.68 C
954 09-06-2019 07:25:00 9.6 C 95 % 8.84 C
955 09-06-2019 07:30:00 9.7 C 95 % 8.94 C
956 09-06-2019 07:35:00 9.8 C 94 % 8.88 C
957 09-06-2019 07:40:00 9.9 C 95 % 9.14 C
958 09-06-2019 07:45:00 10.1 C 94 % 9.18 C
959 09-06-2019 07:50:00 10.1 C 94 % 9.18 C
960 09-06-2019 07:55:00 10.2 C 94 % 9.28 C
961 09-06-2019 08:00:00 10.3 C 94 % 9.38 C
962 09-06-2019 08:05:00 10.4 C 94 % 9.48 C
963 09-06-2019 08:10:00 10.5 C 94 % 9.58 C
964 09-06-2019 08:15:00 10.6 C 94 % 9.68 C
965 09-06-2019 08:20:00 10.7 C 94 % 9.77 C
966 09-06-2019 08:25:00 10.8 C 94 % 9.87 C
967 09-06-2019 08:30:00 11 C 95 % 10.23 C
968 09-06-2019 08:35:00 11.2 C 95 % 10.43 C
969 09-06-2019 08:40:00 11.4 C 95 % 10.63 C
970 09-06-2019 08:45:00 11.7 C 94 % 10.77 C
971 09-06-2019 08:50:00 11.8 C 94 % 10.87 C
972 09-06-2019 08:55:00 12 C 94 % 11.07 C
973 09-06-2019 09:00:00 12.1 C 93 % 11 C
974 09-06-2019 09:05:00 12.2 C 93 % 11.1 C
975 09-06-2019 09:10:00 12.3 C 92 % 11.04 C
Sensor: Nr:Datum:Temp:Feuchte:Taupunkt:
Aussen-T/F 976 09-06-2019 09:15:00 12.4 C 92 % 11.14 C
977 09-06-2019 09:20:00 12.5 C 91 % 11.07 C
978 09-06-2019 09:25:00 12.7 C 91 % 11.27 C
979 09-06-2019 09:30:00 12.8 C 91 % 11.37 C
980 09-06-2019 09:35:00 12.9 C 90 % 11.3 C
981 09-06-2019 09:40:00 13.1 C 90 % 11.5 C
982 09-06-2019 09:45:00 13.3 C 90 % 11.7 C
983 09-06-2019 09:50:00 13.6 C 89 % 11.82 C
984 09-06-2019 09:55:00 13.8 C 88 % 11.85 C
985 09-06-2019 10:00:00 14.1 C 88 % 12.14 C
986 09-06-2019 10:05:00 14.3 C 86 % 11.99 C
987 09-06-2019 10:10:00 14.6 C 83 % 11.75 C
988 09-06-2019 10:15:00 15.2 C 80 % 11.78 C
989 09-06-2019 10:20:00 15.9 C 76 % 11.68 C
990 09-06-2019 10:25:00 16.6 C 72 % 11.54 C
991 09-06-2019 10:30:00 17.3 C 68 % 11.34 C
992 09-06-2019 10:35:00 17.7 C 66 % 11.27 C
993 09-06-2019 10:40:00 18 C 65 % 11.33 C
994 09-06-2019 10:45:00 18.2 C 65 % 11.52 C
995 09-06-2019 10:50:00 18.3 C 64 % 11.38 C
996 09-06-2019 10:55:00 18.4 C 63 % 11.23 C
997 09-06-2019 11:00:00 18.6 C 62 % 11.18 C
998 09-06-2019 11:05:00 18.6 C 60 % 10.69 C
999 09-06-2019 11:10:00 18.7 C 59 % 10.53 C
1000 09-06-2019 11:15:00 18.8 C 58 % 10.37 C
Sensor: Nr:Datum:Temp:Feuchte:Taupunkt:
Aussen-T/F 1001 09-06-2019 11:20:00 18.9 C 58 % 10.46 C
1002 09-06-2019 11:25:00 18.9 C 56 % 9.94 C
1003 09-06-2019 11:30:00 18.9 C 57 % 10.2 C
1004 09-06-2019 11:35:00 19 C 56 % 10.03 C
1005 09-06-2019 11:40:00 19 C 55 % 9.76 C
1006 09-06-2019 11:45:00 19 C 56 % 10.03 C
1007 09-06-2019 11:50:00 19 C 56 % 10.03 C
1008 09-06-2019 11:55:00 19 C 58 % 10.56 C
1009 09-06-2019 12:00:00 19 C 57 % 10.3 C
1010 09-06-2019 12:05:00 19.2 C 56 % 10.22 C
1011 09-06-2019 12:10:00 19.5 C 56 % 10.5 C
1012 09-06-2019 12:15:00 19.7 C 55 % 10.41 C
1013 09-06-2019 12:20:00 19.8 C 54 % 10.23 C
1014 09-06-2019 12:25:00 19.8 C 52 % 9.67 C
1015 09-06-2019 12:30:00 19.8 C 53 % 9.95 C
1016 09-06-2019 12:35:00 19.9 C 52 % 9.76 C
1017 09-06-2019 12:40:00 20.1 C 53 % 10.23 C
1018 09-06-2019 12:45:00 20.2 C 52 % 10.04 C
1019 09-06-2019 12:50:00 20.1 C 52 % 9.94 C
1020 09-06-2019 12:55:00 20.1 C 52 % 9.94 C
1021 09-06-2019 13:00:00 20.1 C 52 % 9.94 C
1022 09-06-2019 13:05:00 20.2 C 52 % 10.04 C
1023 09-06-2019 13:10:00 20.3 C 53 % 10.41 C
1024 09-06-2019 13:15:00 20.3 C 52 % 10.13 C
1025 09-06-2019 13:20:00 20.5 C 51 % 10.02 C
Sensor: Nr:Datum:Temp:Feuchte:Taupunkt:
Aussen-T/F 1026 09-06-2019 13:25:00 20.6 C 51 % 10.12 C
1027 09-06-2019 13:30:00 20.7 C 51 % 10.21 C
1028 09-06-2019 13:35:00 20.8 C 52 % 10.59 C
1029 09-06-2019 13:40:00 20.9 C 52 % 10.68 C
1030 09-06-2019 13:45:00 21.2 C 50 % 10.37 C
1031 09-06-2019 13:50:00 21.4 C 52 % 11.14 C
1032 09-06-2019 13:55:00 21.6 C 52 % 11.33 C
1033 09-06-2019 14:00:00 21.7 C 49 % 10.53 C
1034 09-06-2019 14:05:00 21.8 C 50 % 10.92 C
1035 09-06-2019 14:10:00 21.8 C 49 % 10.62 C
1036 09-06-2019 14:15:00 21.8 C 49 % 10.62 C
1037 09-06-2019 14:20:00 21.9 C 48 % 10.4 C
1038 09-06-2019 14:25:00 21.9 C 49 % 10.71 C
1039 09-06-2019 14:30:00 21.9 C 49 % 10.71 C
1040 09-06-2019 14:35:00 22 C 52 % 11.7 C
1041 09-06-2019 14:40:00 22.1 C 58 % 13.45 C
1042 09-06-2019 14:45:00 22.1 C 50 % 11.2 C
1043 09-06-2019 14:50:00 22 C 52 % 11.7 C
1044 09-06-2019 14:55:00 22.1 C 51 % 11.5 C
1045 09-06-2019 15:00:00 22.2 C 50 % 11.29 C
1046 09-06-2019 15:05:00 22.2 C 49 % 10.98 C
1047 09-06-2019 15:10:00 22.1 C 52 % 11.79 C
1048 09-06-2019 15:15:00 22.1 C 51 % 11.5 C
1049 09-06-2019 15:20:00 22.2 C 52 % 11.88 C
1050 09-06-2019 15:25:00 22.4 C 49 % 11.17 C
Sensor: Nr:Datum:Temp:Feuchte:Taupunkt:
Aussen-T/F 1051 09-06-2019 15:30:00 22.4 C 50 % 11.47 C
1052 09-06-2019 15:35:00 22.6 C 51 % 11.96 C
1053 09-06-2019 15:40:00 22.7 C 50 % 11.75 C
1054 09-06-2019 15:45:00 22.8 C 51 % 12.14 C
1055 09-06-2019 15:50:00 22.9 C 50 % 11.93 C
1056 09-06-2019 15:55:00 22.9 C 49 % 11.63 C
1057 09-06-2019 16:00:00 22.9 C 50 % 11.93 C
1058 09-06-2019 16:05:00 22.9 C 50 % 11.93 C
1059 09-06-2019 16:10:00 22.9 C 51 % 12.23 C
1060 09-06-2019 16:15:00 22.9 C 50 % 11.93 C
1061 09-06-2019 16:20:00 22.7 C 51 % 12.05 C
1062 09-06-2019 16:25:00 22.8 C 50 % 11.84 C
1063 09-06-2019 16:30:00 22.8 C 50 % 11.84 C
1064 09-06-2019 16:35:00 22.8 C 51 % 12.14 C
1065 09-06-2019 16:40:00 22.8 C 51 % 12.14 C
1066 09-06-2019 16:45:00 22.7 C 50 % 11.75 C
1067 09-06-2019 16:50:00 22.6 C 52 % 12.25 C
1068 09-06-2019 16:55:00 22.7 C 52 % 12.34 C
1069 09-06-2019 17:00:00 22.6 C 52 % 12.25 C
1070 09-06-2019 17:05:00 22.6 C 52 % 12.25 C
1071 09-06-2019 17:10:00 22.6 C 51 % 11.96 C
1072 09-06-2019 17:15:00 22.7 C 51 % 12.05 C
1073 09-06-2019 17:20:00 22.8 C 52 % 12.43 C
1074 09-06-2019 17:25:00 22.9 C 52 % 12.53 C
1075 09-06-2019 17:30:00 22.8 C 51 % 12.14 C
Sensor: Nr:Datum:Temp:Feuchte:Taupunkt:
Aussen-T/F 1076 09-06-2019 17:35:00 22.8 C 50 % 11.84 C
1077 09-06-2019 17:40:00 22.8 C 52 % 12.43 C
1078 09-06-2019 17:45:00 22.7 C 52 % 12.34 C
1079 09-06-2019 17:50:00 22.6 C 51 % 11.96 C
1080 09-06-2019 17:55:00 22.5 C 53 % 12.45 C
1081 09-06-2019 18:00:00 22.6 C 52 % 12.25 C
1082 09-06-2019 18:05:00 22.7 C 50 % 11.75 C
1083 09-06-2019 18:10:00 22.8 C 51 % 12.14 C
1084 09-06-2019 18:15:00 23.1 C 49 % 11.81 C
1085 09-06-2019 18:20:00 23.4 C 50 % 12.39 C
1086 09-06-2019 18:25:00 23.9 C 48 % 12.23 C
1087 09-06-2019 18:30:00 23.8 C 47 % 11.82 C
1088 09-06-2019 18:35:00 23.6 C 48 % 11.95 C
1089 09-06-2019 18:40:00 23.1 C 49 % 11.81 C
1090 09-06-2019 18:45:00 22.8 C 51 % 12.14 C
1091 09-06-2019 18:50:00 22.7 C 54 % 12.92 C
1092 09-06-2019 18:55:00 22.6 C 56 % 13.38 C
1093 09-06-2019 19:00:00 22.6 C 57 % 13.65 C
1094 09-06-2019 19:05:00 22.4 C 58 % 13.73 C
1095 09-06-2019 19:10:00 22.3 C 62 % 14.67 C
1096 09-06-2019 19:15:00 22.2 C 63 % 14.82 C
1097 09-06-2019 19:20:00 22.1 C 64 % 14.97 C
1098 09-06-2019 19:25:00 21.8 C 64 % 14.69 C
1099 09-06-2019 19:30:00 21.6 C 65 % 14.74 C
1100 09-06-2019 19:35:00 21.4 C 65 % 14.55 C
Sensor: Nr:Datum:Temp:Feuchte:Taupunkt:
Aussen-T/F 1101 09-06-2019 19:40:00 21.2 C 65 % 14.36 C
1102 09-06-2019 19:45:00 20.9 C 66 % 14.31 C
1103 09-06-2019 19:50:00 20.7 C 66 % 14.12 C
1104 09-06-2019 19:55:00 20.5 C 67 % 14.16 C
1105 09-06-2019 20:00:00 20.3 C 67 % 13.97 C
1106 09-06-2019 20:05:00 20.2 C 68 % 14.11 C
1107 09-06-2019 20:10:00 20.1 C 69 % 14.24 C
1108 09-06-2019 20:15:00 19.9 C 68 % 13.82 C
1109 09-06-2019 20:20:00 19.8 C 69 % 13.95 C
1110 09-06-2019 20:25:00 19.8 C 69 % 13.95 C
1111 09-06-2019 20:30:00 19.7 C 70 % 14.08 C
1112 09-06-2019 20:35:00 19.6 C 70 % 13.98 C
1113 09-06-2019 20:40:00 19.5 C 69 % 13.66 C
1114 09-06-2019 20:45:00 19.4 C 70 % 13.79 C
1115 09-06-2019 20:50:00 19.3 C 70 % 13.69 C
1116 09-06-2019 20:55:00 19.3 C 70 % 13.69 C
1117 09-06-2019 21:00:00 19.2 C 70 % 13.6 C
1118 09-06-2019 21:05:00 19.1 C 71 % 13.72 C
1119 09-06-2019 21:10:00 19.1 C 71 % 13.72 C
1120 09-06-2019 21:15:00 19 C 72 % 13.84 C
1121 09-06-2019 21:20:00 18.9 C 72 % 13.74 C
1122 09-06-2019 21:25:00 18.9 C 72 % 13.74 C
1123 09-06-2019 21:30:00 18.8 C 73 % 13.86 C
1124 09-06-2019 21:35:00 18.8 C 73 % 13.86 C
1125 09-06-2019 21:40:00 18.7 C 73 % 13.76 C
Sensor: Nr:Datum:Temp:Feuchte:Taupunkt:
Aussen-T/F 1126 09-06-2019 21:45:00 18.7 C 73 % 13.76 C
1127 09-06-2019 21:50:00 18.6 C 73 % 13.67 C
1128 09-06-2019 21:55:00 18.6 C 73 % 13.67 C
1129 09-06-2019 22:00:00 18.6 C 74 % 13.88 C
1130 09-06-2019 22:05:00 18.5 C 74 % 13.78 C
1131 09-06-2019 22:10:00 18.5 C 74 % 13.78 C
1132 09-06-2019 22:15:00 18.4 C 74 % 13.68 C
1133 09-06-2019 22:20:00 18.4 C 74 % 13.68 C
1134 09-06-2019 22:25:00 18.4 C 74 % 13.68 C
1135 09-06-2019 22:30:00 18.4 C 74 % 13.68 C
1136 09-06-2019 22:35:00 18.3 C 76 % 14 C
1137 09-06-2019 22:40:00 18.3 C 75 % 13.79 C
1138 09-06-2019 22:45:00 18.2 C 75 % 13.7 C
1139 09-06-2019 22:50:00 18.2 C 75 % 13.7 C
1140 09-06-2019 22:55:00 18.2 C 76 % 13.9 C
1141 09-06-2019 23:00:00 18.1 C 76 % 13.81 C
1142 09-06-2019 23:05:00 18.1 C 76 % 13.81 C
1143 09-06-2019 23:10:00 18.1 C 75 % 13.6 C
1144 09-06-2019 23:15:00 18 C 76 % 13.71 C
1145 09-06-2019 23:20:00 17.9 C 76 % 13.61 C
1146 09-06-2019 23:25:00 17.9 C 76 % 13.61 C
1147 09-06-2019 23:30:00 17.9 C 76 % 13.61 C
1148 09-06-2019 23:35:00 17.9 C 76 % 13.61 C
1149 09-06-2019 23:40:00 17.9 C 76 % 13.61 C
1150 09-06-2019 23:45:00 17.9 C 76 % 13.61 C
Sensor: Nr:Datum:Temp:Feuchte:Taupunkt:
Aussen-T/F 1151 09-06-2019 23:50:00 17.9 C 77 % 13.81 C
1152 09-06-2019 23:55:00 17.8 C 78 % 13.91 C
1153 10-06-2019 00:00:00 17.8 C 77 % 13.72 C
1154 10-06-2019 00:05:00 17.8 C 77 % 13.72 C
1155 10-06-2019 00:10:00 17.7 C 77 % 13.62 C
1156 10-06-2019 00:15:00 17.7 C 78 % 13.82 C
1157 10-06-2019 00:20:00 17.6 C 78 % 13.72 C
1158 10-06-2019 00:25:00 17.5 C 78 % 13.62 C
1159 10-06-2019 00:30:00 17.4 C 78 % 13.53 C
1160 10-06-2019 00:35:00 17.4 C 78 % 13.53 C
1161 10-06-2019 00:40:00 17.4 C 78 % 13.53 C
1162 10-06-2019 00:45:00 17.4 C 78 % 13.53 C
1163 10-06-2019 00:50:00 17.3 C 78 % 13.43 C
1164 10-06-2019 00:55:00 17.3 C 79 % 13.63 C
1165 10-06-2019 01:00:00 17.3 C 78 % 13.43 C
1166 10-06-2019 01:05:00 17.3 C 77 % 13.23 C
1167 10-06-2019 01:10:00 17.2 C 77 % 13.14 C
1168 10-06-2019 01:15:00 17.2 C 77 % 13.14 C
1169 10-06-2019 01:20:00 17.1 C 77 % 13.04 C
1170 10-06-2019 01:25:00 17 C 78 % 13.14 C
1171 10-06-2019 01:30:00 16.9 C 78 % 13.04 C
1172 10-06-2019 01:35:00 16.8 C 78 % 12.94 C
1173 10-06-2019 01:40:00 16.8 C 78 % 12.94 C
1174 10-06-2019 01:45:00 16.7 C 78 % 12.85 C
1175 10-06-2019 01:50:00 16.6 C 78 % 12.75 C
Sensor: Nr:Datum:Temp:Feuchte:Taupunkt:
Aussen-T/F 1176 10-06-2019 01:55:00 16.6 C 78 % 12.75 C
1177 10-06-2019 02:00:00 16.6 C 79 % 12.95 C
1178 10-06-2019 02:05:00 16.5 C 79 % 12.85 C
1179 10-06-2019 02:10:00 16.4 C 79 % 12.75 C
1180 10-06-2019 02:15:00 16.4 C 79 % 12.75 C
1181 10-06-2019 02:20:00 16.3 C 80 % 12.85 C
1182 10-06-2019 02:25:00 16.3 C 79 % 12.65 C
1183 10-06-2019 02:30:00 16.1 C 80 % 12.65 C
1184 10-06-2019 02:35:00 15.9 C 80 % 12.46 C
1185 10-06-2019 02:40:00 15.8 C 80 % 12.36 C
1186 10-06-2019 02:45:00 15.7 C 80 % 12.26 C
1187 10-06-2019 02:50:00 15.6 C 81 % 12.35 C
1188 10-06-2019 02:55:00 15.4 C 81 % 12.16 C
1189 10-06-2019 03:00:00 15.3 C 82 % 12.25 C
1190 10-06-2019 03:05:00 15.1 C 83 % 12.24 C
1191 10-06-2019 03:10:00 15 C 84 % 12.32 C
1192 10-06-2019 03:15:00 15 C 84 % 12.32 C
1193 10-06-2019 03:20:00 14.9 C 85 % 12.4 C
1194 10-06-2019 03:25:00 14.9 C 85 % 12.4 C
1195 10-06-2019 03:30:00 14.9 C 85 % 12.4 C
1196 10-06-2019 03:35:00 14.9 C 86 % 12.58 C
1197 10-06-2019 03:40:00 14.9 C 86 % 12.58 C
1198 10-06-2019 03:45:00 14.8 C 86 % 12.48 C
1199 10-06-2019 03:50:00 14.8 C 86 % 12.48 C
1200 10-06-2019 03:55:00 14.8 C 85 % 12.3 C
Sensor: Nr:Datum:Temp:Feuchte:Taupunkt:
Aussen-T/F 1201 10-06-2019 04:00:00 14.7 C 86 % 12.38 C
1202 10-06-2019 04:05:00 14.7 C 86 % 12.38 C
1203 10-06-2019 04:10:00 14.7 C 86 % 12.38 C
1204 10-06-2019 04:15:00 14.6 C 86 % 12.29 C
1205 10-06-2019 04:20:00 14.5 C 86 % 12.19 C
1206 10-06-2019 04:25:00 14.4 C 86 % 12.09 C
1207 10-06-2019 04:30:00 14.5 C 87 % 12.36 C
1208 10-06-2019 04:35:00 14.6 C 87 % 12.46 C
1209 10-06-2019 04:40:00 14.7 C 87 % 12.56 C
1210 10-06-2019 04:45:00 14.7 C 87 % 12.56 C
1211 10-06-2019 04:50:00 14.7 C 87 % 12.56 C
1212 10-06-2019 04:55:00 14.7 C 87 % 12.56 C
1213 10-06-2019 05:00:00 14.7 C 87 % 12.56 C
1214 10-06-2019 05:05:00 14.8 C 87 % 12.66 C
1215 10-06-2019 05:10:00 14.8 C 87 % 12.66 C
1216 10-06-2019 05:15:00 14.8 C 87 % 12.66 C
1217 10-06-2019 05:20:00 14.8 C 87 % 12.66 C
1218 10-06-2019 05:25:00 14.8 C 87 % 12.66 C
1219 10-06-2019 05:30:00 14.8 C 88 % 12.83 C
1220 10-06-2019 05:35:00 14.7 C 88 % 12.73 C
1221 10-06-2019 05:40:00 14.7 C 88 % 12.73 C
1222 10-06-2019 05:45:00 14.8 C 88 % 12.83 C
1223 10-06-2019 05:50:00 14.8 C 88 % 12.83 C
1224 10-06-2019 05:55:00 14.8 C 88 % 12.83 C
1225 10-06-2019 06:00:00 14.8 C 88 % 12.83 C
Sensor: Nr:Datum:Temp:Feuchte:Taupunkt:
Aussen-T/F 1226 10-06-2019 06:05:00 14.8 C 88 % 12.83 C
1227 10-06-2019 06:10:00 14.8 C 88 % 12.83 C
1228 10-06-2019 06:15:00 14.8 C 88 % 12.83 C
1229 10-06-2019 06:20:00 14.8 C 88 % 12.83 C
1230 10-06-2019 06:25:00 14.8 C 89 % 13.01 C
1231 10-06-2019 06:30:00 14.8 C 89 % 13.01 C
1232 10-06-2019 06:35:00 14.8 C 88 % 12.83 C
1233 10-06-2019 06:40:00 14.8 C 89 % 13.01 C
1234 10-06-2019 06:45:00 14.9 C 89 % 13.1 C
1235 10-06-2019 06:50:00 14.9 C 89 % 13.1 C
1236 10-06-2019 06:55:00 14.9 C 89 % 13.1 C
1237 10-06-2019 07:00:00 14.9 C 89 % 13.1 C
1238 10-06-2019 07:05:00 14.9 C 89 % 13.1 C
1239 10-06-2019 07:10:00 15 C 90 % 13.37 C
1240 10-06-2019 07:15:00 15.1 C 89 % 13.3 C
1241 10-06-2019 07:20:00 15.2 C 89 % 13.4 C
1242 10-06-2019 07:25:00 15.4 C 88 % 13.42 C
1243 10-06-2019 07:30:00 15.5 C 87 % 13.35 C
1244 10-06-2019 07:35:00 15.7 C 87 % 13.54 C
1245 10-06-2019 07:40:00 15.8 C 86 % 13.46 C
1246 10-06-2019 07:45:00 16 C 86 % 13.66 C
1247 10-06-2019 07:50:00 16.2 C 85 % 13.68 C
1248 10-06-2019 07:55:00 16.3 C 84 % 13.59 C
1249 10-06-2019 08:00:00 16.5 C 83 % 13.6 C
1250 10-06-2019 08:05:00 16.7 C 82 % 13.61 C
Sensor: Nr:Datum:Temp:Feuchte:Taupunkt:
Aussen-T/F 1251 10-06-2019 08:10:00 16.9 C 83 % 14 C
1252 10-06-2019 08:15:00 17.2 C 83 % 14.29 C
1253 10-06-2019 08:20:00 17.4 C 83 % 14.48 C
1254 10-06-2019 08:25:00 17.8 C 81 % 14.5 C
1255 10-06-2019 08:30:00 18 C 79 % 14.31 C
1256 10-06-2019 08:35:00 18.2 C 79 % 14.5 C
1257 10-06-2019 08:40:00 18.3 C 78 % 14.4 C
1258 10-06-2019 08:45:00 18.4 C 77 % 14.3 C
1259 10-06-2019 08:50:00 18.6 C 78 % 14.69 C
1260 10-06-2019 08:55:00 18.7 C 77 % 14.59 C
1261 10-06-2019 09:00:00 18.8 C 77 % 14.68 C
1262 10-06-2019 09:05:00 18.8 C 76 % 14.48 C
1263 10-06-2019 09:10:00 18.8 C 76 % 14.48 C
1264 10-06-2019 09:15:00 18.8 C 76 % 14.48 C
1265 10-06-2019 09:20:00 18.8 C 77 % 14.68 C
1266 10-06-2019 09:25:00 18.8 C 77 % 14.68 C
1267 10-06-2019 09:30:00 19 C 76 % 14.68 C
1268 10-06-2019 09:35:00 19.1 C 75 % 14.57 C
1269 10-06-2019 09:40:00 19.1 C 75 % 14.57 C
1270 10-06-2019 09:45:00 19.1 C 75 % 14.57 C
1271 10-06-2019 09:50:00 19.1 C 75 % 14.57 C
1272 10-06-2019 09:55:00 19.1 C 75 % 14.57 C
1273 10-06-2019 10:00:00 19.2 C 75 % 14.66 C
1274 10-06-2019 10:05:00 19.3 C 74 % 14.55 C
1275 10-06-2019 10:10:00 19.4 C 74 % 14.65 C
Sensor: Nr:Datum:Temp:Feuchte:Taupunkt:
Aussen-T/F 1276 10-06-2019 10:15:00 19.4 C 75 % 14.86 C
1277 10-06-2019 10:20:00 19.6 C 75 % 15.05 C
1278 10-06-2019 10:25:00 19.7 C 74 % 14.94 C
1279 10-06-2019 10:30:00 19.9 C 74 % 15.13 C
1280 10-06-2019 10:35:00 20.1 C 72 % 14.9 C
1281 10-06-2019 10:40:00 20.2 C 71 % 14.78 C
1282 10-06-2019 10:45:00 20.3 C 72 % 15.09 C
1283 10-06-2019 10:50:00 20.5 C 71 % 15.06 C
1284 10-06-2019 10:55:00 20.6 C 71 % 15.16 C
1285 10-06-2019 11:00:00 20.7 C 70 % 15.03 C
1286 10-06-2019 11:05:00 20.7 C 71 % 15.25 C
1287 10-06-2019 11:10:00 20.8 C 70 % 15.13 C
1288 10-06-2019 11:15:00 20.9 C 69 % 15 C
1289 10-06-2019 11:20:00 21 C 69 % 15.1 C
1290 10-06-2019 11:25:00 21.1 C 68 % 14.97 C
1291 10-06-2019 11:30:00 21.2 C 69 % 15.29 C
1292 10-06-2019 11:35:00 21.3 C 69 % 15.38 C
1293 10-06-2019 11:40:00 21.4 C 67 % 15.02 C
1294 10-06-2019 11:45:00 21.5 C 67 % 15.12 C
1295 10-06-2019 11:50:00 21.6 C 66 % 14.98 C
1296 10-06-2019 11:55:00 21.7 C 67 % 15.31 C
1297 10-06-2019 12:00:00 21.9 C 65 % 15.02 C
1298 10-06-2019 12:05:00 22 C 65 % 15.12 C
1299 10-06-2019 12:10:00 22.1 C 65 % 15.21 C
1300 10-06-2019 12:15:00 22.1 C 64 % 14.97 C
Sensor: Nr:Datum:Temp:Feuchte:Taupunkt:
Aussen-T/F 1301 10-06-2019 12:20:00 22.2 C 62 % 14.58 C
1302 10-06-2019 12:25:00 22.3 C 63 % 14.92 C
1303 10-06-2019 12:30:00 22.3 C 64 % 15.16 C
1304 10-06-2019 12:35:00 22.4 C 65 % 15.5 C
1305 10-06-2019 12:40:00 22.5 C 65 % 15.59 C
1306 10-06-2019 12:45:00 22.6 C 63 % 15.2 C
1307 10-06-2019 12:50:00 22.8 C 62 % 15.14 C
1308 10-06-2019 12:55:00 22.9 C 61 % 14.98 C
1309 10-06-2019 13:00:00 23 C 60 % 14.82 C
1310 10-06-2019 13:05:00 23.1 C 61 % 15.17 C
1311 10-06-2019 13:10:00 23.1 C 62 % 15.42 C
1312 10-06-2019 13:15:00 23.1 C 61 % 15.17 C
1313 10-06-2019 13:20:00 23.1 C 61 % 15.17 C
1314 10-06-2019 13:25:00 23.1 C 64 % 15.92 C
1315 10-06-2019 13:30:00 23.1 C 61 % 15.17 C
1316 10-06-2019 13:35:00 23.1 C 61 % 15.17 C
1317 10-06-2019 13:40:00 23 C 63 % 15.58 C
1318 10-06-2019 13:45:00 22.9 C 63 % 15.48 C
1319 10-06-2019 13:50:00 23 C 61 % 15.08 C
1320 10-06-2019 13:55:00 23.2 C 61 % 15.26 C
1321 10-06-2019 14:00:00 23.2 C 63 % 15.77 C
1322 10-06-2019 14:05:00 23.2 C 62 % 15.52 C
1323 10-06-2019 14:10:00 23.1 C 62 % 15.42 C
1324 10-06-2019 14:15:00 23.2 C 62 % 15.52 C
1325 10-06-2019 14:20:00 23.2 C 62 % 15.52 C
Sensor: Nr:Datum:Temp:Feuchte:Taupunkt:
Aussen-T/F 1326 10-06-2019 14:25:00 23.2 C 62 % 15.52 C
1327 10-06-2019 14:30:00 23.2 C 63 % 15.77 C
1328 10-06-2019 14:35:00 23.2 C 64 % 16.01 C
1329 10-06-2019 14:40:00 23.3 C 64 % 16.11 C
1330 10-06-2019 14:45:00 23.3 C 61 % 15.36 C
1331 10-06-2019 14:50:00 23.3 C 62 % 15.61 C
1332 10-06-2019 14:55:00 23.3 C 64 % 16.11 C
1333 10-06-2019 15:00:00 23.3 C 63 % 15.86 C
1334 10-06-2019 15:05:00 23.3 C 63 % 15.86 C
1335 10-06-2019 15:10:00 23.3 C 63 % 15.86 C
1336 10-06-2019 15:15:00 23.3 C 63 % 15.86 C
1337 10-06-2019 15:20:00 23.2 C 63 % 15.77 C
1338 10-06-2019 15:25:00 23.2 C 63 % 15.77 C
1339 10-06-2019 15:30:00 23.1 C 65 % 16.16 C
1340 10-06-2019 15:35:00 23.2 C 62 % 15.52 C
1341 10-06-2019 15:40:00 23.3 C 62 % 15.61 C
1342 10-06-2019 15:45:00 23.2 C 62 % 15.52 C
1343 10-06-2019 15:50:00 23.1 C 63 % 15.67 C
1344 10-06-2019 15:55:00 23.2 C 63 % 15.77 C
1345 10-06-2019 16:00:00 23.4 C 62 % 15.71 C
1346 10-06-2019 16:05:00 23.9 C 61 % 15.92 C
1347 10-06-2019 16:10:00 24.3 C 59 % 15.78 C
1348 10-06-2019 16:15:00 24.3 C 59 % 15.78 C
1349 10-06-2019 16:20:00 24.3 C 60 % 16.04 C
1350 10-06-2019 16:25:00 24.4 C 60 % 16.13 C
Sensor: Nr:Datum:Temp:Feuchte:Taupunkt:
Aussen-T/F 1351 10-06-2019 16:30:00 24.4 C 59 % 15.87 C
1352 10-06-2019 16:35:00 24.4 C 59 % 15.87 C
1353 10-06-2019 16:40:00 24.1 C 59 % 15.59 C
1354 10-06-2019 16:45:00 23.9 C 60 % 15.66 C
1355 10-06-2019 16:50:00 23.8 C 60 % 15.57 C
1356 10-06-2019 16:55:00 23.6 C 60 % 15.38 C
1357 10-06-2019 17:00:00 23.4 C 61 % 15.45 C
1358 10-06-2019 17:05:00 23.3 C 61 % 15.36 C
1359 10-06-2019 17:10:00 23.3 C 62 % 15.61 C
1360 10-06-2019 17:15:00 23.4 C 62 % 15.71 C
1361 10-06-2019 17:20:00 23.7 C 59 % 15.21 C
1362 10-06-2019 17:25:00 23.8 C 59 % 15.31 C
1363 10-06-2019 17:30:00 23.8 C 63 % 16.33 C
1364 10-06-2019 17:35:00 23.9 C 60 % 15.66 C
1365 10-06-2019 17:40:00 23.8 C 59 % 15.31 C
1366 10-06-2019 17:45:00 23.8 C 62 % 16.08 C
1367 10-06-2019 17:50:00 23.8 C 61 % 15.83 C
1368 10-06-2019 17:55:00 23.8 C 60 % 15.57 C
1369 10-06-2019 18:00:00 23.8 C 60 % 15.57 C
1370 10-06-2019 18:05:00 23.6 C 60 % 15.38 C
1371 10-06-2019 18:10:00 23.6 C 61 % 15.64 C
1372 10-06-2019 18:15:00 23.7 C 62 % 15.99 C
1373 10-06-2019 18:20:00 23.7 C 61 % 15.73 C
1374 10-06-2019 18:25:00 23.6 C 60 % 15.38 C
1375 10-06-2019 18:30:00 23.2 C 62 % 15.52 C
Sensor: Nr:Datum:Temp:Feuchte:Taupunkt:
Aussen-T/F 1376 10-06-2019 18:35:00 22.9 C 62 % 15.23 C
1377 10-06-2019 18:40:00 22.8 C 63 % 15.39 C
1378 10-06-2019 18:45:00 22.6 C 64 % 15.45 C
1379 10-06-2019 18:50:00 22.4 C 63 % 15.01 C
1380 10-06-2019 18:55:00 22.4 C 65 % 15.5 C
1381 10-06-2019 19:00:00 22.3 C 65 % 15.4 C
1382 10-06-2019 19:05:00 22.2 C 64 % 15.07 C
1383 10-06-2019 19:10:00 22 C 62 % 14.39 C
1384 10-06-2019 19:15:00 21.8 C 63 % 14.45 C
1385 10-06-2019 19:20:00 21.7 C 64 % 14.6 C
1386 10-06-2019 19:25:00 21.6 C 64 % 14.5 C
1387 10-06-2019 19:30:00 21.6 C 65 % 14.74 C
1388 10-06-2019 19:35:00 21.6 C 66 % 14.98 C
1389 10-06-2019 19:40:00 21.6 C 65 % 14.74 C
1390 10-06-2019 19:45:00 21.4 C 65 % 14.55 C
1391 10-06-2019 19:50:00 21.3 C 65 % 14.46 C
1392 10-06-2019 19:55:00 21.3 C 68 % 15.16 C
1393 10-06-2019 20:00:00 21.2 C 67 % 14.83 C
1394 10-06-2019 20:05:00 21.1 C 66 % 14.5 C
1395 10-06-2019 20:10:00 20.9 C 69 % 15 C
1396 10-06-2019 20:15:00 20.8 C 69 % 14.91 C
1397 10-06-2019 20:20:00 20.7 C 69 % 14.81 C
1398 10-06-2019 20:25:00 20.6 C 70 % 14.94 C
1399 10-06-2019 20:30:00 20.6 C 70 % 14.94 C
1400 10-06-2019 20:35:00 20.4 C 70 % 14.75 C
Sensor: Nr:Datum:Temp:Feuchte:Taupunkt:
Aussen-T/F 1401 10-06-2019 20:40:00 20.4 C 72 % 15.18 C
1402 10-06-2019 20:45:00 20.3 C 72 % 15.09 C
1403 10-06-2019 20:50:00 20.2 C 72 % 14.99 C
1404 10-06-2019 20:55:00 20.2 C 73 % 15.21 C
1405 10-06-2019 21:00:00 20.1 C 75 % 15.53 C
1406 10-06-2019 21:05:00 19.9 C 75 % 15.34 C
1407 10-06-2019 21:10:00 19.7 C 75 % 15.15 C
1408 10-06-2019 21:15:00 19.6 C 74 % 14.84 C
1409 10-06-2019 21:20:00 19.4 C 74 % 14.65 C
1410 10-06-2019 21:25:00 19.3 C 74 % 14.55 C
1411 10-06-2019 21:30:00 19.3 C 74 % 14.55 C
1412 10-06-2019 21:35:00 19.3 C 74 % 14.55 C
1413 10-06-2019 21:40:00 19.2 C 75 % 14.66 C
1414 10-06-2019 21:45:00 19.1 C 75 % 14.57 C
1415 10-06-2019 21:50:00 18.9 C 75 % 14.37 C
1416 10-06-2019 21:55:00 18.8 C 76 % 14.48 C
1417 10-06-2019 22:00:00 18.6 C 77 % 14.49 C
1418 10-06-2019 22:05:00 18.4 C 77 % 14.3 C
1419 10-06-2019 22:10:00 18.3 C 78 % 14.4 C
1420 10-06-2019 22:15:00 18.2 C 79 % 14.5 C
1421 10-06-2019 22:20:00 18.1 C 79 % 14.4 C
1422 10-06-2019 22:25:00 18 C 80 % 14.5 C
1423 10-06-2019 22:30:00 17.9 C 79 % 14.21 C
1424 10-06-2019 22:35:00 17.8 C 80 % 14.31 C
1425 10-06-2019 22:40:00 17.7 C 80 % 14.21 C
Sensor: Nr:Datum:Temp:Feuchte:Taupunkt:
Aussen-T/F 1426 10-06-2019 22:45:00 17.7 C 81 % 14.4 C
1427 10-06-2019 22:50:00 17.6 C 82 % 14.49 C
1428 10-06-2019 22:55:00 17.4 C 82 % 14.3 C
1429 10-06-2019 23:00:00 17.3 C 82 % 14.2 C
1430 10-06-2019 23:05:00 17.2 C 82 % 14.1 C
1431 10-06-2019 23:10:00 17.2 C 82 % 14.1 C
1432 10-06-2019 23:15:00 17.1 C 82 % 14 C
1433 10-06-2019 23:20:00 17.1 C 82 % 14 C
1434 10-06-2019 23:25:00 17.1 C 82 % 14 C
1435 10-06-2019 23:30:00 17.1 C 82 % 14 C
1436 10-06-2019 23:35:00 17.1 C 83 % 14.19 C
1437 10-06-2019 23:40:00 17.1 C 83 % 14.19 C
1438 10-06-2019 23:45:00 17 C 83 % 14.09 C
1439 10-06-2019 23:50:00 16.9 C 83 % 14 C
1440 10-06-2019 23:55:00 16.9 C 84 % 14.18 C
1441 11-06-2019 00:00:00 16.8 C 84 % 14.08 C
1442 11-06-2019 00:05:00 16.7 C 85 % 14.17 C
1443 11-06-2019 00:10:00 16.7 C 85 % 14.17 C
1444 11-06-2019 00:15:00 16.6 C 85 % 14.07 C
1445 11-06-2019 00:20:00 16.6 C 85 % 14.07 C
1446 11-06-2019 00:25:00 16.5 C 86 % 14.15 C
1447 11-06-2019 00:30:00 16.5 C 86 % 14.15 C
1448 11-06-2019 00:35:00 16.5 C 86 % 14.15 C
1449 11-06-2019 00:40:00 16.5 C 86 % 14.15 C
1450 11-06-2019 00:45:00 16.5 C 86 % 14.15 C
Sensor: Nr:Datum:Temp:Feuchte:Taupunkt:
Aussen-T/F 1451 11-06-2019 00:50:00 16.4 C 86 % 14.05 C
1452 11-06-2019 00:55:00 16.4 C 86 % 14.05 C
1453 11-06-2019 01:00:00 16.4 C 86 % 14.05 C
1454 11-06-2019 01:05:00 16.4 C 87 % 14.23 C
1455 11-06-2019 01:10:00 16.4 C 87 % 14.23 C
1456 11-06-2019 01:15:00 16.4 C 87 % 14.23 C
1457 11-06-2019 01:20:00 16.4 C 87 % 14.23 C
1458 11-06-2019 01:25:00 16.4 C 87 % 14.23 C
1459 11-06-2019 01:30:00 16.4 C 87 % 14.23 C
1460 11-06-2019 01:35:00 16.4 C 87 % 14.23 C
1461 11-06-2019 01:40:00 16.4 C 87 % 14.23 C
1462 11-06-2019 01:45:00 16.4 C 87 % 14.23 C
1463 11-06-2019 01:50:00 16.3 C 86 % 13.95 C
1464 11-06-2019 01:55:00 16.3 C 87 % 14.13 C
1465 11-06-2019 02:00:00 16.3 C 86 % 13.95 C
1466 11-06-2019 02:05:00 16.3 C 86 % 13.95 C
1467 11-06-2019 02:10:00 16.3 C 86 % 13.95 C
1468 11-06-2019 02:15:00 16.2 C 86 % 13.86 C
1469 11-06-2019 02:20:00 16.2 C 86 % 13.86 C
1470 11-06-2019 02:25:00 16.2 C 86 % 13.86 C
1471 11-06-2019 02:30:00 16.2 C 86 % 13.86 C
1472 11-06-2019 02:35:00 16.1 C 86 % 13.76 C
1473 11-06-2019 02:40:00 16.1 C 86 % 13.76 C
1474 11-06-2019 02:45:00 16.1 C 86 % 13.76 C
1475 11-06-2019 02:50:00 16 C 87 % 13.84 C
Sensor: Nr:Datum:Temp:Feuchte:Taupunkt:
Aussen-T/F 1476 11-06-2019 02:55:00 15.9 C 88 % 13.92 C
1477 11-06-2019 03:00:00 15.8 C 89 % 13.99 C
1478 11-06-2019 03:05:00 15.7 C 89 % 13.89 C
1479 11-06-2019 03:10:00 15.6 C 89 % 13.79 C
1480 11-06-2019 03:15:00 15.4 C 90 % 13.77 C
1481 11-06-2019 03:20:00 15.3 C 90 % 13.67 C
1482 11-06-2019 03:25:00 15.3 C 91 % 13.84 C
1483 11-06-2019 03:30:00 15.2 C 91 % 13.74 C
1484 11-06-2019 03:35:00 15.1 C 91 % 13.64 C
1485 11-06-2019 03:40:00 15.1 C 92 % 13.81 C
1486 11-06-2019 03:45:00 15.1 C 92 % 13.81 C
1487 11-06-2019 03:50:00 15 C 92 % 13.71 C
1488 11-06-2019 03:55:00 14.9 C 92 % 13.61 C
1489 11-06-2019 04:00:00 14.8 C 92 % 13.51 C
1490 11-06-2019 04:05:00 14.8 C 93 % 13.68 C
1491 11-06-2019 04:10:00 14.7 C 93 % 13.58 C
1492 11-06-2019 04:15:00 14.7 C 93 % 13.58 C
1493 11-06-2019 04:20:00 14.7 C 93 % 13.58 C
1494 11-06-2019 04:25:00 14.6 C 93 % 13.48 C
1495 11-06-2019 04:30:00 14.6 C 93 % 13.48 C
1496 11-06-2019 04:35:00 14.6 C 93 % 13.48 C
1497 11-06-2019 04:40:00 14.5 C 93 % 13.38 C
1498 11-06-2019 04:45:00 14.4 C 93 % 13.28 C
1499 11-06-2019 04:50:00 14.4 C 94 % 13.45 C
1500 11-06-2019 04:55:00 14.4 C 94 % 13.45 C
Sensor: Nr:Datum:Temp:Feuchte:Taupunkt:
Aussen-T/F 1501 11-06-2019 05:00:00 14.3 C 94 % 13.35 C
1502 11-06-2019 05:05:00 14.3 C 94 % 13.35 C
1503 11-06-2019 05:10:00 14.3 C 94 % 13.35 C
1504 11-06-2019 05:15:00 14.3 C 94 % 13.35 C
1505 11-06-2019 05:20:00 14.2 C 94 % 13.25 C
1506 11-06-2019 05:25:00 14.2 C 94 % 13.25 C
1507 11-06-2019 05:30:00 14.2 C 94 % 13.25 C
1508 11-06-2019 05:35:00 14.2 C 94 % 13.25 C
1509 11-06-2019 05:40:00 14.2 C 94 % 13.25 C
1510 11-06-2019 05:45:00 14.2 C 94 % 13.25 C
1511 11-06-2019 05:50:00 14.1 C 94 % 13.15 C
1512 11-06-2019 05:55:00 14.1 C 94 % 13.15 C
1513 11-06-2019 06:00:00 14.1 C 94 % 13.15 C
1514 11-06-2019 06:05:00 14.1 C 94 % 13.15 C
1515 11-06-2019 06:10:00 14.1 C 95 % 13.31 C
1516 11-06-2019 06:15:00 14.1 C 95 % 13.31 C
1517 11-06-2019 06:20:00 14.1 C 95 % 13.31 C
1518 11-06-2019 06:25:00 14.1 C 95 % 13.31 C
1519 11-06-2019 06:30:00 14.1 C 95 % 13.31 C
1520 11-06-2019 06:35:00 14.2 C 95 % 13.41 C
1521 11-06-2019 06:40:00 14.2 C 95 % 13.41 C
1522 11-06-2019 06:45:00 14.2 C 95 % 13.41 C
1523 11-06-2019 06:50:00 14.3 C 95 % 13.51 C
1524 11-06-2019 06:55:00 14.3 C 95 % 13.51 C
1525 11-06-2019 07:00:00 14.3 C 95 % 13.51 C
Sensor: Nr:Datum:Temp:Feuchte:Taupunkt:
Aussen-T/F 1526 11-06-2019 07:05:00 14.3 C 95 % 13.51 C
1527 11-06-2019 07:10:00 14.3 C 95 % 13.51 C
1528 11-06-2019 07:15:00 14.4 C 95 % 13.61 C
1529 11-06-2019 07:20:00 14.4 C 96 % 13.77 C
1530 11-06-2019 07:25:00 14.6 C 96 % 13.97 C
1531 11-06-2019 07:30:00 14.6 C 96 % 13.97 C
1532 11-06-2019 07:35:00 14.6 C 95 % 13.81 C
1533 11-06-2019 07:40:00 14.6 C 95 % 13.81 C
1534 11-06-2019 07:45:00 14.6 C 95 % 13.81 C
1535 11-06-2019 07:50:00 14.6 C 95 % 13.81 C
1536 11-06-2019 07:55:00 14.7 C 96 % 14.07 C
1537 11-06-2019 08:00:00 14.8 C 96 % 14.17 C
1538 11-06-2019 08:05:00 14.9 C 96 % 14.27 C
1539 11-06-2019 08:10:00 14.9 C 95 % 14.11 C
1540 11-06-2019 08:15:00 14.9 C 96 % 14.27 C
1541 11-06-2019 08:20:00 15 C 96 % 14.37 C
1542 11-06-2019 08:25:00 15.1 C 96 % 14.47 C
1543 11-06-2019 08:30:00 15.1 C 96 % 14.47 C
1544 11-06-2019 08:35:00 15.1 C 96 % 14.47 C
1545 11-06-2019 08:40:00 15.1 C 95 % 14.31 C
1546 11-06-2019 08:45:00 15.1 C 95 % 14.31 C
1547 11-06-2019 08:50:00 15.1 C 95 % 14.31 C
1548 11-06-2019 08:55:00 15.1 C 95 % 14.31 C
1549 11-06-2019 09:00:00 15.2 C 95 % 14.4 C
1550 11-06-2019 09:05:00 15.2 C 95 % 14.4 C
Sensor: Nr:Datum:Temp:Feuchte:Taupunkt:
Aussen-T/F 1551 11-06-2019 09:10:00 15.3 C 95 % 14.5 C
1552 11-06-2019 09:15:00 15.3 C 95 % 14.5 C
1553 11-06-2019 09:20:00 15.3 C 95 % 14.5 C
1554 11-06-2019 09:25:00 15.3 C 95 % 14.5 C
1555 11-06-2019 09:30:00 15.3 C 93 % 14.18 C
1556 11-06-2019 09:35:00 15.3 C 93 % 14.18 C
1557 11-06-2019 09:40:00 15.4 C 93 % 14.27 C
1558 11-06-2019 09:45:00 15.4 C 92 % 14.11 C
1559 11-06-2019 09:50:00 15.5 C 93 % 14.37 C
1560 11-06-2019 09:55:00 15.6 C 92 % 14.31 C
1561 11-06-2019 10:00:00 15.8 C 92 % 14.5 C
1562 11-06-2019 10:05:00 16.1 C 93 % 14.97 C
1563 11-06-2019 10:10:00 16.3 C 93 % 15.17 C
1564 11-06-2019 10:15:00 16.3 C 91 % 14.83 C
1565 11-06-2019 10:20:00 16 C 87 % 13.84 C
1566 11-06-2019 10:25:00 15.9 C 87 % 13.74 C
1567 11-06-2019 10:30:00 16 C 89 % 14.19 C
1568 11-06-2019 10:35:00 16.2 C 91 % 14.73 C
1569 11-06-2019 10:40:00 16.2 C 91 % 14.73 C
1570 11-06-2019 10:45:00 16.3 C 91 % 14.83 C
1571 11-06-2019 10:50:00 16.4 C 92 % 15.1 C
1572 11-06-2019 10:55:00 16.5 C 92 % 15.2 C
1573 11-06-2019 11:00:00 16.7 C 92 % 15.39 C
1574 11-06-2019 11:05:00 16.6 C 90 % 14.95 C
1575 11-06-2019 11:10:00 16.5 C 89 % 14.68 C
Sensor: Nr:Datum:Temp:Feuchte:Taupunkt:
Aussen-T/F 1576 11-06-2019 11:15:00 16.4 C 86 % 14.05 C
1577 11-06-2019 11:20:00 16.6 C 83 % 13.7 C
1578 11-06-2019 11:25:00 16.8 C 83 % 13.9 C
1579 11-06-2019 11:30:00 16.9 C 82 % 13.81 C
1580 11-06-2019 11:35:00 17.1 C 80 % 13.62 C
1581 11-06-2019 11:40:00 17.3 C 80 % 13.82 C
1582 11-06-2019 11:45:00 17.4 C 85 % 14.85 C
1583 11-06-2019 11:50:00 17.4 C 86 % 15.03 C
1584 11-06-2019 11:55:00 17.4 C 87 % 15.21 C
1585 11-06-2019 12:00:00 17.4 C 87 % 15.21 C
1586 11-06-2019 12:05:00 17.4 C 87 % 15.21 C
1587 11-06-2019 12:10:00 17.3 C 84 % 14.57 C
1588 11-06-2019 12:15:00 17.4 C 80 % 13.92 C
1589 11-06-2019 12:20:00 17.5 C 79 % 13.82 C
1590 11-06-2019 12:25:00 17.7 C 77 % 13.62 C
1591 11-06-2019 12:30:00 17.9 C 77 % 13.81 C
1592 11-06-2019 12:35:00 18.1 C 75 % 13.6 C
1593 11-06-2019 12:40:00 18.2 C 74 % 13.49 C
1594 11-06-2019 12:45:00 18.3 C 74 % 13.59 C
1595 11-06-2019 12:50:00 18.3 C 75 % 13.79 C
1596 11-06-2019 12:55:00 18.3 C 74 % 13.59 C
1597 11-06-2019 13:00:00 18.5 C 75 % 13.99 C
1598 11-06-2019 13:05:00 18.7 C 74 % 13.97 C
1599 11-06-2019 13:10:00 18.8 C 74 % 14.07 C
1600 11-06-2019 13:15:00 18.8 C 72 % 13.65 C
Sensor: Nr:Datum:Temp:Feuchte:Taupunkt:
Aussen-T/F 1601 11-06-2019 13:20:00 18.9 C 75 % 14.37 C
1602 11-06-2019 13:25:00 18.9 C 74 % 14.17 C
1603 11-06-2019 13:30:00 19 C 70 % 13.41 C
1604 11-06-2019 13:35:00 19.2 C 71 % 13.82 C
1605 11-06-2019 13:40:00 19.3 C 71 % 13.91 C
1606 11-06-2019 13:45:00 19.6 C 71 % 14.2 C
1607 11-06-2019 13:50:00 19.7 C 68 % 13.63 C
1608 11-06-2019 13:55:00 19.7 C 68 % 13.63 C
1609 11-06-2019 14:00:00 19.8 C 67 % 13.5 C
1610 11-06-2019 14:05:00 19.9 C 67 % 13.59 C
1611 11-06-2019 14:10:00 20.1 C 66 % 13.55 C
1612 11-06-2019 14:15:00 20 C 67 % 13.69 C
1613 11-06-2019 14:20:00 19.9 C 66 % 13.36 C
1614 11-06-2019 14:25:00 19.9 C 66 % 13.36 C
1615 11-06-2019 14:30:00 20 C 67 % 13.69 C
1616 11-06-2019 14:35:00 20.2 C 66 % 13.65 C
1617 11-06-2019 14:40:00 20.5 C 69 % 14.62 C
1618 11-06-2019 14:45:00 20.8 C 66 % 14.22 C
1619 11-06-2019 14:50:00 20.8 C 65 % 13.98 C
1620 11-06-2019 14:55:00 21 C 61 % 13.2 C
1621 11-06-2019 15:00:00 20.9 C 65 % 14.08 C
1622 11-06-2019 15:05:00 21.1 C 66 % 14.5 C
1623 11-06-2019 15:10:00 21.2 C 62 % 13.63 C
1624 11-06-2019 15:15:00 21.2 C 60 % 13.13 C
1625 11-06-2019 15:20:00 21.2 C 61 % 13.38 C
Sensor: Nr:Datum:Temp:Feuchte:Taupunkt:
Aussen-T/F 1626 11-06-2019 15:25:00 21.2 C 62 % 13.63 C
1627 11-06-2019 15:30:00 21.4 C 65 % 14.55 C
1628 11-06-2019 15:35:00 21.6 C 60 % 13.51 C
1629 11-06-2019 15:40:00 21.4 C 59 % 13.06 C
1630 11-06-2019 15:45:00 21.2 C 60 % 13.13 C
1631 11-06-2019 15:50:00 21.6 C 64 % 14.5 C
1632 11-06-2019 15:55:00 21.8 C 58 % 13.17 C
1633 11-06-2019 16:00:00 21.8 C 60 % 13.69 C
1634 11-06-2019 16:05:00 21.7 C 58 % 13.08 C
1635 11-06-2019 16:10:00 21.5 C 59 % 13.15 C
1636 11-06-2019 16:15:00 21.3 C 60 % 13.22 C
1637 11-06-2019 16:20:00 21.1 C 60 % 13.04 C
1638 11-06-2019 16:25:00 20.9 C 61 % 13.1 C
1639 11-06-2019 16:30:00 20.8 C 63 % 13.5 C
1640 11-06-2019 16:35:00 20.8 C 72 % 15.57 C
1641 11-06-2019 16:40:00 20.6 C 74 % 15.8 C
1642 11-06-2019 16:45:00 20.4 C 76 % 16.03 C
1643 11-06-2019 16:50:00 20.3 C 77 % 16.14 C
1644 11-06-2019 16:55:00 20.1 C 78 % 16.14 C
1645 11-06-2019 17:00:00 20 C 78 % 16.05 C
1646 11-06-2019 17:05:00 19.8 C 78 % 15.85 C
1647 11-06-2019 17:10:00 19.7 C 78 % 15.76 C
1648 11-06-2019 17:15:00 19.6 C 78 % 15.66 C
1649 11-06-2019 17:20:00 19.4 C 78 % 15.47 C
1650 11-06-2019 17:25:00 19.2 C 79 % 15.47 C
Sensor: Nr:Datum:Temp:Feuchte:Taupunkt:
Aussen-T/F 1651 11-06-2019 17:30:00 19.2 C 79 % 15.47 C
1652 11-06-2019 17:35:00 19.1 C 80 % 15.57 C
1653 11-06-2019 17:40:00 18.9 C 80 % 15.38 C
1654 11-06-2019 17:45:00 18.9 C 81 % 15.57 C
1655 11-06-2019 17:50:00 18.8 C 81 % 15.47 C
1656 11-06-2019 17:55:00 18.8 C 82 % 15.66 C
1657 11-06-2019 18:00:00 18.8 C 82 % 15.66 C
1658 11-06-2019 18:05:00 18.8 C 82 % 15.66 C
1659 11-06-2019 18:10:00 18.8 C 82 % 15.66 C
1660 11-06-2019 18:15:00 18.8 C 82 % 15.66 C
1661 11-06-2019 18:20:00 18.8 C 82 % 15.66 C
1662 11-06-2019 18:25:00 18.7 C 83 % 15.75 C
1663 11-06-2019 18:30:00 18.7 C 83 % 15.75 C
1664 11-06-2019 18:35:00 18.6 C 83 % 15.66 C
1665 11-06-2019 18:40:00 18.6 C 82 % 15.47 C
1666 11-06-2019 18:45:00 18.6 C 78 % 14.69 C
1667 11-06-2019 18:50:00 18.8 C 83 % 15.85 C
1668 11-06-2019 18:55:00 19.1 C 84 % 16.33 C
1669 11-06-2019 19:00:00 19.2 C 81 % 15.86 C
1670 11-06-2019 19:05:00 19.4 C 78 % 15.47 C
1671 11-06-2019 19:10:00 19.7 C 72 % 14.51 C
1672 11-06-2019 19:15:00 20.2 C 71 % 14.78 C
1673 11-06-2019 19:20:00 20.7 C 69 % 14.81 C
1674 11-06-2019 19:25:00 21.1 C 66 % 14.5 C
1675 11-06-2019 19:30:00 21.1 C 65 % 14.27 C
Sensor: Nr:Datum:Temp:Feuchte:Taupunkt:
Aussen-T/F 1676 11-06-2019 19:35:00 20.8 C 66 % 14.22 C
1677 11-06-2019 19:40:00 20.7 C 67 % 14.36 C
1678 11-06-2019 19:45:00 20.5 C 67 % 14.16 C
1679 11-06-2019 19:50:00 20.5 C 74 % 15.71 C
1680 11-06-2019 19:55:00 20.3 C 76 % 15.93 C
1681 11-06-2019 20:00:00 20.1 C 76 % 15.74 C
1682 11-06-2019 20:05:00 19.9 C 78 % 15.95 C
1683 11-06-2019 20:10:00 19.7 C 78 % 15.76 C
1684 11-06-2019 20:15:00 19.4 C 79 % 15.66 C
1685 11-06-2019 20:20:00 19.2 C 80 % 15.67 C
1686 11-06-2019 20:25:00 19.1 C 81 % 15.76 C
1687 11-06-2019 20:30:00 19.1 C 81 % 15.76 C
1688 11-06-2019 20:35:00 18.9 C 81 % 15.57 C
1689 11-06-2019 20:40:00 18.9 C 81 % 15.57 C
1690 11-06-2019 20:45:00 18.8 C 81 % 15.47 C
1691 11-06-2019 20:50:00 18.7 C 81 % 15.37 C
1692 11-06-2019 20:55:00 18.5 C 81 % 15.18 C
1693 11-06-2019 21:00:00 18.4 C 82 % 15.27 C
1694 11-06-2019 21:05:00 18.3 C 82 % 15.17 C
1695 11-06-2019 21:10:00 18.2 C 82 % 15.08 C
1696 11-06-2019 21:15:00 18.1 C 82 % 14.98 C
1697 11-06-2019 21:20:00 17.9 C 83 % 14.97 C
1698 11-06-2019 21:25:00 17.8 C 83 % 14.88 C
1699 11-06-2019 21:30:00 17.7 C 84 % 14.96 C
1700 11-06-2019 21:35:00 17.6 C 84 % 14.87 C
Sensor: Nr:Datum:Temp:Feuchte:Taupunkt:
Aussen-T/F 1701 11-06-2019 21:40:00 17.4 C 84 % 14.67 C
1702 11-06-2019 21:45:00 17.3 C 84 % 14.57 C
1703 11-06-2019 21:50:00 17.3 C 84 % 14.57 C
1704 11-06-2019 21:55:00 17.2 C 84 % 14.47 C
1705 11-06-2019 22:00:00 17.2 C 85 % 14.66 C
1706 11-06-2019 22:05:00 17.2 C 85 % 14.66 C
1707 11-06-2019 22:10:00 17.1 C 84 % 14.38 C
1708 11-06-2019 22:15:00 17.1 C 85 % 14.56 C
1709 11-06-2019 22:20:00 17 C 85 % 14.46 C
1710 11-06-2019 22:25:00 16.9 C 85 % 14.36 C
1711 11-06-2019 22:30:00 16.8 C 85 % 14.26 C
1712 11-06-2019 22:35:00 16.7 C 84 % 13.98 C
1713 11-06-2019 22:40:00 16.6 C 84 % 13.89 C
1714 11-06-2019 22:45:00 16.4 C 85 % 13.87 C
1715 11-06-2019 22:50:00 16.3 C 85 % 13.77 C
1716 11-06-2019 22:55:00 16.2 C 85 % 13.68 C
1717 11-06-2019 23:00:00 16.1 C 85 % 13.58 C
1718 11-06-2019 23:05:00 15.9 C 85 % 13.38 C
1719 11-06-2019 23:10:00 15.9 C 86 % 13.56 C
1720 11-06-2019 23:15:00 15.8 C 86 % 13.46 C
1721 11-06-2019 23:20:00 15.8 C 87 % 13.64 C
1722 11-06-2019 23:25:00 15.7 C 87 % 13.54 C
1723 11-06-2019 23:30:00 15.7 C 87 % 13.54 C
1724 11-06-2019 23:35:00 15.6 C 87 % 13.45 C
1725 11-06-2019 23:40:00 15.6 C 87 % 13.45 C
Sensor: Nr:Datum:Temp:Feuchte:Taupunkt:
Aussen-T/F 1726 11-06-2019 23:45:00 15.5 C 87 % 13.35 C
1727 11-06-2019 23:50:00 15.5 C 87 % 13.35 C
1728 11-06-2019 23:55:00 15.4 C 87 % 13.25 C
1729 12-06-2019 00:00:00 15.4 C 87 % 13.25 C
1730 12-06-2019 00:05:00 15.4 C 87 % 13.25 C
1731 12-06-2019 00:10:00 15.4 C 87 % 13.25 C
1732 12-06-2019 00:15:00 15.3 C 87 % 13.15 C
1733 12-06-2019 00:20:00 15.3 C 87 % 13.15 C
1734 12-06-2019 00:25:00 15.2 C 87 % 13.05 C
1735 12-06-2019 00:30:00 15.2 C 87 % 13.05 C
1736 12-06-2019 00:35:00 15.1 C 87 % 12.95 C
1737 12-06-2019 00:40:00 15.1 C 87 % 12.95 C
1738 12-06-2019 00:45:00 14.9 C 87 % 12.76 C
1739 12-06-2019 00:50:00 14.9 C 87 % 12.76 C
1740 12-06-2019 00:55:00 14.8 C 87 % 12.66 C
1741 12-06-2019 01:00:00 14.7 C 87 % 12.56 C
1742 12-06-2019 01:05:00 14.6 C 87 % 12.46 C
1743 12-06-2019 01:10:00 14.5 C 88 % 12.54 C
1744 12-06-2019 01:15:00 14.4 C 88 % 12.44 C
1745 12-06-2019 01:20:00 14.3 C 89 % 12.51 C
1746 12-06-2019 01:25:00 14.3 C 89 % 12.51 C
1747 12-06-2019 01:30:00 14.2 C 89 % 12.41 C
1748 12-06-2019 01:35:00 14.2 C 89 % 12.41 C
1749 12-06-2019 01:40:00 14.3 C 90 % 12.68 C
1750 12-06-2019 01:45:00 14.3 C 90 % 12.68 C
Sensor: Nr:Datum:Temp:Feuchte:Taupunkt:
Aussen-T/F 1751 12-06-2019 01:50:00 14.4 C 90 % 12.78 C
1752 12-06-2019 01:55:00 14.5 C 90 % 12.88 C
1753 12-06-2019 02:00:00 14.5 C 90 % 12.88 C
1754 12-06-2019 02:05:00 14.6 C 90 % 12.98 C
1755 12-06-2019 02:10:00 14.6 C 90 % 12.98 C
1756 12-06-2019 02:15:00 14.6 C 90 % 12.98 C
1757 12-06-2019 02:20:00 14.6 C 90 % 12.98 C
1758 12-06-2019 02:25:00 14.6 C 90 % 12.98 C
1759 12-06-2019 02:30:00 14.6 C 90 % 12.98 C
1760 12-06-2019 02:35:00 14.6 C 90 % 12.98 C
1761 12-06-2019 02:40:00 14.6 C 90 % 12.98 C
1762 12-06-2019 02:45:00 14.6 C 90 % 12.98 C
1763 12-06-2019 02:50:00 14.6 C 90 % 12.98 C
1764 12-06-2019 02:55:00 14.6 C 90 % 12.98 C
1765 12-06-2019 03:00:00 14.6 C 90 % 12.98 C
1766 12-06-2019 03:05:00 14.6 C 90 % 12.98 C
1767 12-06-2019 03:10:00 14.6 C 90 % 12.98 C
1768 12-06-2019 03:15:00 14.5 C 91 % 13.05 C
1769 12-06-2019 03:20:00 14.5 C 91 % 13.05 C
1770 12-06-2019 03:25:00 14.5 C 91 % 13.05 C
1771 12-06-2019 03:30:00 14.5 C 91 % 13.05 C
1772 12-06-2019 03:35:00 14.5 C 91 % 13.05 C
1773 12-06-2019 03:40:00 14.5 C 91 % 13.05 C
1774 12-06-2019 03:45:00 14.5 C 91 % 13.05 C
1775 12-06-2019 03:50:00 14.5 C 91 % 13.05 C
Sensor: Nr:Datum:Temp:Feuchte:Taupunkt:
Aussen-T/F 1776 12-06-2019 03:55:00 14.5 C 91 % 13.05 C
1777 12-06-2019 04:00:00 14.4 C 91 % 12.95 C
1778 12-06-2019 04:05:00 14.4 C 91 % 12.95 C
1779 12-06-2019 04:10:00 14.4 C 91 % 12.95 C
1780 12-06-2019 04:15:00 14.4 C 91 % 12.95 C
1781 12-06-2019 04:20:00 14.4 C 91 % 12.95 C
1782 12-06-2019 04:25:00 14.4 C 91 % 12.95 C
1783 12-06-2019 04:30:00 14.4 C 91 % 12.95 C
1784 12-06-2019 04:35:00 14.4 C 91 % 12.95 C
1785 12-06-2019 04:40:00 14.4 C 91 % 12.95 C
1786 12-06-2019 04:45:00 14.4 C 91 % 12.95 C
1787 12-06-2019 04:50:00 14.4 C 91 % 12.95 C
1788 12-06-2019 04:55:00 14.3 C 91 % 12.85 C
1789 12-06-2019 05:00:00 14.3 C 91 % 12.85 C
1790 12-06-2019 05:05:00 14.2 C 91 % 12.75 C
1791 12-06-2019 05:10:00 14.1 C 91 % 12.65 C
1792 12-06-2019 05:15:00 14 C 92 % 12.72 C
1793 12-06-2019 05:20:00 14.1 C 92 % 12.82 C
1794 12-06-2019 05:25:00 14.1 C 92 % 12.82 C
1795 12-06-2019 05:30:00 14.1 C 92 % 12.82 C
1796 12-06-2019 05:35:00 14.1 C 92 % 12.82 C
1797 12-06-2019 05:40:00 14.1 C 92 % 12.82 C
1798 12-06-2019 05:45:00 14.1 C 92 % 12.82 C
1799 12-06-2019 05:50:00 14.2 C 92 % 12.92 C
1800 12-06-2019 05:55:00 14.1 C 92 % 12.82 C
Sensor: Nr:Datum:Temp:Feuchte:Taupunkt:
Aussen-T/F 1801 12-06-2019 06:00:00 14 C 92 % 12.72 C
1802 12-06-2019 06:05:00 13.9 C 92 % 12.62 C
1803 12-06-2019 06:10:00 13.8 C 92 % 12.52 C
1804 12-06-2019 06:15:00 13.8 C 92 % 12.52 C
1805 12-06-2019 06:20:00 13.8 C 92 % 12.52 C
1806 12-06-2019 06:25:00 13.8 C 92 % 12.52 C
1807 12-06-2019 06:30:00 13.9 C 93 % 12.79 C
1808 12-06-2019 06:35:00 13.9 C 93 % 12.79 C
1809 12-06-2019 06:40:00 14 C 93 % 12.89 C
1810 12-06-2019 06:45:00 14.1 C 93 % 12.99 C
1811 12-06-2019 06:50:00 14.2 C 93 % 13.08 C
1812 12-06-2019 06:55:00 14.3 C 92 % 13.02 C
1813 12-06-2019 07:00:00 14.4 C 92 % 13.12 C
1814 12-06-2019 07:05:00 14.6 C 92 % 13.32 C
1815 12-06-2019 07:10:00 14.7 C 91 % 13.25 C
1816 12-06-2019 07:15:00 14.7 C 91 % 13.25 C
1817 12-06-2019 07:20:00 14.8 C 91 % 13.35 C
1818 12-06-2019 07:25:00 14.8 C 92 % 13.51 C
1819 12-06-2019 07:30:00 14.9 C 92 % 13.61 C
1820 12-06-2019 07:35:00 15 C 91 % 13.54 C
1821 12-06-2019 07:40:00 15 C 91 % 13.54 C
1822 12-06-2019 07:45:00 15.1 C 91 % 13.64 C
1823 12-06-2019 07:50:00 15.2 C 91 % 13.74 C
1824 12-06-2019 07:55:00 15.3 C 91 % 13.84 C
1825 12-06-2019 08:00:00 15.4 C 91 % 13.94 C
Sensor: Nr:Datum:Temp:Feuchte:Taupunkt:
Aussen-T/F 1826 12-06-2019 08:05:00 15.4 C 90 % 13.77 C
1827 12-06-2019 08:10:00 15.4 C 89 % 13.6 C
1828 12-06-2019 08:15:00 15.5 C 89 % 13.7 C
1829 12-06-2019 08:20:00 15.6 C 89 % 13.79 C
1830 12-06-2019 08:25:00 15.7 C 89 % 13.89 C
1831 12-06-2019 08:30:00 15.8 C 89 % 13.99 C
1832 12-06-2019 08:35:00 15.9 C 88 % 13.92 C
1833 12-06-2019 08:40:00 16 C 88 % 14.01 C
1834 12-06-2019 08:45:00 16.2 C 88 % 14.21 C
1835 12-06-2019 08:50:00 16.3 C 88 % 14.31 C
1836 12-06-2019 08:55:00 16.6 C 86 % 14.25 C
1837 12-06-2019 09:00:00 16.7 C 85 % 14.17 C
1838 12-06-2019 09:05:00 16.8 C 84 % 14.08 C
1839 12-06-2019 09:10:00 16.8 C 84 % 14.08 C
1840 12-06-2019 09:15:00 16.7 C 84 % 13.98 C
1841 12-06-2019 09:20:00 16.7 C 85 % 14.17 C
1842 12-06-2019 09:25:00 16.6 C 85 % 14.07 C
1843 12-06-2019 09:30:00 16.6 C 86 % 14.25 C
1844 12-06-2019 09:35:00 16.5 C 86 % 14.15 C
1845 12-06-2019 09:40:00 16.4 C 87 % 14.23 C
1846 12-06-2019 09:45:00 16.3 C 87 % 14.13 C
1847 12-06-2019 09:50:00 16.2 C 88 % 14.21 C
1848 12-06-2019 09:55:00 16.1 C 89 % 14.29 C
1849 12-06-2019 10:00:00 15.9 C 89 % 14.09 C
1850 12-06-2019 10:05:00 15.7 C 90 % 14.06 C
Sensor: Nr:Datum:Temp:Feuchte:Taupunkt:
Aussen-T/F 1851 12-06-2019 10:10:00 15.6 C 91 % 14.14 C
1852 12-06-2019 10:15:00 15.5 C 92 % 14.21 C
1853 12-06-2019 10:20:00 15.4 C 92 % 14.11 C
1854 12-06-2019 10:25:00 15.2 C 92 % 13.91 C
1855 12-06-2019 10:30:00 15.1 C 93 % 13.98 C
1856 12-06-2019 10:35:00 14.9 C 92 % 13.61 C
1857 12-06-2019 10:40:00 14.8 C 93 % 13.68 C
1858 12-06-2019 10:45:00 14.7 C 93 % 13.58 C
1859 12-06-2019 10:50:00 14.6 C 93 % 13.48 C
1860 12-06-2019 10:55:00 14.4 C 93 % 13.28 C
1861 12-06-2019 11:00:00 14.4 C 94 % 13.45 C
1862 12-06-2019 11:05:00 14.3 C 93 % 13.18 C
1863 12-06-2019 11:10:00 14.2 C 93 % 13.08 C
1864 12-06-2019 11:15:00 14.1 C 93 % 12.99 C
1865 12-06-2019 11:20:00 14 C 93 % 12.89 C
1866 12-06-2019 11:25:00 13.8 C 93 % 12.69 C
1867 12-06-2019 11:30:00 13.8 C 93 % 12.69 C
1868 12-06-2019 11:35:00 13.8 C 93 % 12.69 C
1869 12-06-2019 11:40:00 13.8 C 94 % 12.85 C
1870 12-06-2019 11:45:00 13.8 C 94 % 12.85 C
1871 12-06-2019 11:50:00 13.8 C 94 % 12.85 C
1872 12-06-2019 11:55:00 13.9 C 94 % 12.95 C
1873 12-06-2019 12:00:00 13.9 C 95 % 13.11 C
1874 12-06-2019 12:05:00 14.2 C 95 % 13.41 C
1875 12-06-2019 12:10:00 14.2 C 95 % 13.41 C
Sensor: Nr:Datum:Temp:Feuchte:Taupunkt:
Aussen-T/F 1876 12-06-2019 12:15:00 14.3 C 95 % 13.51 C
1877 12-06-2019 12:20:00 14.4 C 95 % 13.61 C
1878 12-06-2019 12:25:00 14.4 C 95 % 13.61 C
1879 12-06-2019 12:30:00 14.4 C 95 % 13.61 C
1880 12-06-2019 12:35:00 14.4 C 95 % 13.61 C
1881 12-06-2019 12:40:00 14.6 C 95 % 13.81 C
1882 12-06-2019 12:45:00 14.7 C 95 % 13.91 C
1883 12-06-2019 12:50:00 14.7 C 95 % 13.91 C
1884 12-06-2019 12:55:00 14.7 C 95 % 13.91 C
1885 12-06-2019 13:00:00 14.7 C 94 % 13.74 C
1886 12-06-2019 13:05:00 14.7 C 95 % 13.91 C
1887 12-06-2019 13:10:00 14.8 C 94 % 13.84 C
1888 12-06-2019 13:15:00 14.9 C 95 % 14.11 C
1889 12-06-2019 13:20:00 14.8 C 94 % 13.84 C
1890 12-06-2019 13:25:00 14.9 C 93 % 13.78 C
1891 12-06-2019 13:30:00 15.3 C 94 % 14.34 C
1892 12-06-2019 13:35:00 15.5 C 93 % 14.37 C
1893 12-06-2019 13:40:00 15.8 C 93 % 14.67 C
1894 12-06-2019 13:45:00 16 C 91 % 14.53 C
1895 12-06-2019 13:50:00 16.2 C 92 % 14.9 C
1896 12-06-2019 13:55:00 16.3 C 88 % 14.31 C
1897 12-06-2019 14:00:00 16.4 C 89 % 14.58 C
1898 12-06-2019 14:05:00 16.7 C 89 % 14.88 C
1899 12-06-2019 14:10:00 16.8 C 87 % 14.62 C
1900 12-06-2019 14:15:00 16.8 C 86 % 14.45 C
Sensor: Nr:Datum:Temp:Feuchte:Taupunkt:
Aussen-T/F 1901 12-06-2019 14:20:00 17.1 C 88 % 15.1 C
1902 12-06-2019 14:25:00 17.2 C 86 % 14.84 C
1903 12-06-2019 14:30:00 17.4 C 83 % 14.48 C
1904 12-06-2019 14:35:00 17.6 C 79 % 13.92 C
1905 12-06-2019 14:40:00 17.7 C 80 % 14.21 C
1906 12-06-2019 14:45:00 17.7 C 80 % 14.21 C
1907 12-06-2019 14:50:00 17.5 C 79 % 13.82 C
1908 12-06-2019 14:55:00 17.2 C 81 % 13.91 C
1909 12-06-2019 15:00:00 17.1 C 82 % 14 C
1910 12-06-2019 15:05:00 17.1 C 83 % 14.19 C
1911 12-06-2019 15:10:00 17.3 C 81 % 14.01 C
1912 12-06-2019 15:15:00 17.7 C 80 % 14.21 C
1913 12-06-2019 15:20:00 18.1 C 83 % 15.17 C
1914 12-06-2019 15:25:00 18.3 C 79 % 14.6 C
1915 12-06-2019 15:30:00 18.7 C 77 % 14.59 C
1916 12-06-2019 15:35:00 19 C 77 % 14.88 C
1917 12-06-2019 15:40:00 19 C 72 % 13.84 C
1918 12-06-2019 15:45:00 18.9 C 72 % 13.74 C
1919 12-06-2019 15:50:00 18.6 C 75 % 14.08 C
1920 12-06-2019 15:55:00 18.6 C 74 % 13.88 C
1921 12-06-2019 16:00:00 19.1 C 70 % 13.5 C
1922 12-06-2019 16:05:00 19.5 C 70 % 13.89 C
1923 12-06-2019 16:10:00 19.8 C 69 % 13.95 C
1924 12-06-2019 16:15:00 20.1 C 67 % 13.78 C
1925 12-06-2019 16:20:00 20.1 C 66 % 13.55 C
Sensor: Nr:Datum:Temp:Feuchte:Taupunkt:
Aussen-T/F 1926 12-06-2019 16:25:00 20.2 C 66 % 13.65 C
1927 12-06-2019 16:30:00 20.5 C 64 % 13.46 C
1928 12-06-2019 16:35:00 20.3 C 65 % 13.51 C
1929 12-06-2019 16:40:00 20.1 C 67 % 13.78 C
1930 12-06-2019 16:45:00 20.2 C 66 % 13.65 C
1931 12-06-2019 16:50:00 20.7 C 65 % 13.89 C
1932 12-06-2019 16:55:00 20.9 C 64 % 13.84 C
1933 12-06-2019 17:00:00 21.3 C 61 % 13.48 C
1934 12-06-2019 17:05:00 21.4 C 64 % 14.31 C
1935 12-06-2019 17:10:00 21.7 C 60 % 13.6 C
1936 12-06-2019 17:15:00 21.8 C 62 % 14.2 C
1937 12-06-2019 17:20:00 21.9 C 62 % 14.29 C
1938 12-06-2019 17:25:00 22.1 C 58 % 13.45 C
1939 12-06-2019 17:30:00 22.1 C 57 % 13.19 C
1940 12-06-2019 17:35:00 22.1 C 54 % 12.36 C
1941 12-06-2019 17:40:00 22 C 58 % 13.36 C
1942 12-06-2019 17:45:00 21.9 C 55 % 12.46 C
1943 12-06-2019 17:50:00 21.7 C 58 % 13.08 C
1944 12-06-2019 17:55:00 21.8 C 59 % 13.44 C
1945 12-06-2019 18:00:00 22 C 58 % 13.36 C
1946 12-06-2019 18:05:00 22.3 C 59 % 13.9 C
1947 12-06-2019 18:10:00 22.3 C 53 % 12.26 C
1948 12-06-2019 18:15:00 22.4 C 56 % 13.2 C
1949 12-06-2019 18:20:00 22.7 C 55 % 13.2 C
1950 12-06-2019 18:25:00 22.9 C 53 % 12.82 C
Sensor: Nr:Datum:Temp:Feuchte:Taupunkt:
Aussen-T/F 1951 12-06-2019 18:30:00 23.1 C 54 % 13.29 C
1952 12-06-2019 18:35:00 23 C 52 % 12.62 C
1953 12-06-2019 18:40:00 22.9 C 52 % 12.53 C
1954 12-06-2019 18:45:00 22.8 C 53 % 12.73 C
1955 12-06-2019 18:50:00 22.7 C 52 % 12.34 C
1956 12-06-2019 18:55:00 22.6 C 50 % 11.66 C
1957 12-06-2019 19:00:00 22.4 C 52 % 12.07 C
1958 12-06-2019 19:05:00 22.3 C 51 % 11.68 C
1959 12-06-2019 19:10:00 22.2 C 52 % 11.88 C
1960 12-06-2019 19:15:00 22.3 C 52 % 11.97 C
1961 12-06-2019 19:20:00 22.3 C 51 % 11.68 C
1962 12-06-2019 19:25:00 22.1 C 54 % 12.36 C
1963 12-06-2019 19:30:00 21.9 C 52 % 11.61 C
1964 12-06-2019 19:35:00 21.7 C 53 % 11.71 C
1965 12-06-2019 19:40:00 21.7 C 54 % 11.99 C
1966 12-06-2019 19:45:00 21.4 C 55 % 11.99 C
1967 12-06-2019 19:50:00 21.4 C 55 % 11.99 C
1968 12-06-2019 19:55:00 21.4 C 56 % 12.27 C
1969 12-06-2019 20:00:00 21.3 C 55 % 11.9 C
1970 12-06-2019 20:05:00 21.2 C 55 % 11.81 C
1971 12-06-2019 20:10:00 21.3 C 55 % 11.9 C
1972 12-06-2019 20:15:00 21.4 C 65 % 14.55 C
1973 12-06-2019 20:20:00 21.5 C 60 % 13.41 C
1974 12-06-2019 20:25:00 21.6 C 66 % 14.98 C
1975 12-06-2019 20:30:00 21.5 C 63 % 14.16 C
Sensor: Nr:Datum:Temp:Feuchte:Taupunkt:
Aussen-T/F 1976 12-06-2019 20:35:00 21.4 C 65 % 14.55 C
1977 12-06-2019 20:40:00 21.3 C 67 % 14.93 C
1978 12-06-2019 20:45:00 21.1 C 67 % 14.74 C
1979 12-06-2019 20:50:00 20.8 C 67 % 14.45 C
1980 12-06-2019 20:55:00 20.4 C 69 % 14.52 C
1981 12-06-2019 21:00:00 20 C 69 % 14.14 C
1982 12-06-2019 21:05:00 19.6 C 70 % 13.98 C
1983 12-06-2019 21:10:00 19.2 C 71 % 13.82 C
1984 12-06-2019 21:15:00 18.8 C 72 % 13.65 C
1985 12-06-2019 21:20:00 18.3 C 73 % 13.38 C
1986 12-06-2019 21:25:00 17.9 C 73 % 12.99 C
1987 12-06-2019 21:30:00 17.6 C 74 % 12.91 C
1988 12-06-2019 21:35:00 17.2 C 76 % 12.94 C
1989 12-06-2019 21:40:00 16.9 C 77 % 12.84 C
1990 12-06-2019 21:45:00 16.5 C 79 % 12.85 C
1991 12-06-2019 21:50:00 16.2 C 80 % 12.75 C
1992 12-06-2019 21:55:00 15.8 C 80 % 12.36 C
1993 12-06-2019 22:00:00 15.5 C 81 % 12.26 C
1994 12-06-2019 22:05:00 15.2 C 82 % 12.15 C
1995 12-06-2019 22:10:00 14.9 C 83 % 12.04 C
1996 12-06-2019 22:15:00 14.7 C 83 % 11.85 C
1997 12-06-2019 22:20:00 14.6 C 84 % 11.93 C
1998 12-06-2019 22:25:00 14.4 C 85 % 11.91 C
1999 12-06-2019 22:30:00 14.2 C 85 % 11.72 C
2000 12-06-2019 22:35:00 14.1 C 86 % 11.8 C
Sensor: Nr:Datum:Temp:Feuchte:Taupunkt:
Aussen-T/F 2001 12-06-2019 22:40:00 13.9 C 86 % 11.6 C
2002 12-06-2019 22:45:00 13.8 C 87 % 11.68 C
2003 12-06-2019 22:50:00 13.7 C 87 % 11.58 C
2004 12-06-2019 22:55:00 13.6 C 88 % 11.65 C
2005 12-06-2019 23:00:00 13.6 C 88 % 11.65 C
2006 12-06-2019 23:05:00 13.5 C 88 % 11.55 C
2007 12-06-2019 23:10:00 13.4 C 88 % 11.45 C
2008 12-06-2019 23:15:00 13.3 C 88 % 11.36 C
2009 12-06-2019 23:20:00 13.2 C 88 % 11.26 C
2010 12-06-2019 23:25:00 13.2 C 88 % 11.26 C
2011 12-06-2019 23:30:00 13.1 C 88 % 11.16 C
2012 12-06-2019 23:35:00 13.1 C 89 % 11.33 C
2013 12-06-2019 23:40:00 13 C 88 % 11.06 C
2014 12-06-2019 23:45:00 12.9 C 88 % 10.96 C
2015 12-06-2019 23:50:00 12.8 C 89 % 11.03 C
2016 12-06-2019 23:55:00 12.8 C 89 % 11.03 C
2017 13-06-2019 00:00:00 12.8 C 89 % 11.03 C
2018 13-06-2019 00:05:00 12.7 C 89 % 10.94 C
2019 13-06-2019 00:10:00 12.7 C 89 % 10.94 C
2020 13-06-2019 00:15:00 12.7 C 89 % 10.94 C
2021 13-06-2019 00:20:00 12.6 C 89 % 10.84 C
2022 13-06-2019 00:25:00 12.6 C 90 % 11 C
2023 13-06-2019 00:30:00 12.6 C 90 % 11 C
2024 13-06-2019 00:35:00 12.6 C 90 % 11 C
2025 13-06-2019 00:40:00 12.5 C 90 % 10.91 C
Sensor: Nr:Datum:Temp:Feuchte:Taupunkt:
Aussen-T/F 2026 13-06-2019 00:45:00 12.4 C 90 % 10.81 C
2027 13-06-2019 00:50:00 12.3 C 90 % 10.71 C
2028 13-06-2019 00:55:00 12.2 C 90 % 10.61 C
2029 13-06-2019 01:00:00 12.2 C 90 % 10.61 C
2030 13-06-2019 01:05:00 12.1 C 90 % 10.51 C
2031 13-06-2019 01:10:00 11.9 C 90 % 10.31 C
2032 13-06-2019 01:15:00 11.8 C 90 % 10.21 C
2033 13-06-2019 01:20:00 11.8 C 91 % 10.38 C
2034 13-06-2019 01:25:00 11.7 C 91 % 10.28 C
2035 13-06-2019 01:30:00 11.6 C 91 % 10.18 C
2036 13-06-2019 01:35:00 11.6 C 91 % 10.18 C
2037 13-06-2019 01:40:00 11.5 C 91 % 10.08 C
2038 13-06-2019 01:45:00 11.4 C 91 % 9.98 C
2039 13-06-2019 01:50:00 11.3 C 91 % 9.89 C
2040 13-06-2019 01:55:00 11.3 C 92 % 10.05 C
2041 13-06-2019 02:00:00 11.2 C 92 % 9.95 C
2042 13-06-2019 02:05:00 11.2 C 92 % 9.95 C
2043 13-06-2019 02:10:00 11.1 C 92 % 9.85 C
2044 13-06-2019 02:15:00 11.1 C 92 % 9.85 C
2045 13-06-2019 02:20:00 10.9 C 92 % 9.65 C
2046 13-06-2019 02:25:00 10.9 C 92 % 9.65 C
2047 13-06-2019 02:30:00 10.8 C 92 % 9.55 C
2048 13-06-2019 02:35:00 10.8 C 93 % 9.71 C
2049 13-06-2019 02:40:00 10.8 C 93 % 9.71 C
2050 13-06-2019 02:45:00 10.7 C 93 % 9.62 C
Sensor: Nr:Datum:Temp:Feuchte:Taupunkt:
Aussen-T/F 2051 13-06-2019 02:50:00 10.7 C 93 % 9.62 C
2052 13-06-2019 02:55:00 10.6 C 93 % 9.52 C
2053 13-06-2019 03:00:00 10.6 C 93 % 9.52 C
2054 13-06-2019 03:05:00 10.5 C 93 % 9.42 C
2055 13-06-2019 03:10:00 10.4 C 93 % 9.32 C
2056 13-06-2019 03:15:00 10.4 C 93 % 9.32 C
2057 13-06-2019 03:20:00 10.4 C 93 % 9.32 C
2058 13-06-2019 03:25:00 10.3 C 94 % 9.38 C
2059 13-06-2019 03:30:00 10.3 C 94 % 9.38 C
2060 13-06-2019 03:35:00 10.2 C 94 % 9.28 C
2061 13-06-2019 03:40:00 10.2 C 94 % 9.28 C
2062 13-06-2019 03:45:00 10.1 C 94 % 9.18 C
2063 13-06-2019 03:50:00 10.1 C 94 % 9.18 C
2064 13-06-2019 03:55:00 10 C 94 % 9.08 C
2065 13-06-2019 04:00:00 9.9 C 94 % 8.98 C
2066 13-06-2019 04:05:00 9.9 C 94 % 8.98 C
2067 13-06-2019 04:10:00 9.9 C 94 % 8.98 C
2068 13-06-2019 04:15:00 9.8 C 94 % 8.88 C
2069 13-06-2019 04:20:00 9.8 C 94 % 8.88 C
2070 13-06-2019 04:25:00 9.8 C 94 % 8.88 C
2071 13-06-2019 04:30:00 9.8 C 94 % 8.88 C
2072 13-06-2019 04:35:00 9.8 C 94 % 8.88 C
2073 13-06-2019 04:40:00 9.7 C 94 % 8.78 C
2074 13-06-2019 04:45:00 9.7 C 94 % 8.78 C
2075 13-06-2019 04:50:00 9.6 C 94 % 8.68 C
Sensor: Nr:Datum:Temp:Feuchte:Taupunkt:
Aussen-T/F 2076 13-06-2019 04:55:00 9.6 C 94 % 8.68 C
2077 13-06-2019 05:00:00 9.6 C 94 % 8.68 C
2078 13-06-2019 05:05:00 9.5 C 95 % 8.74 C
2079 13-06-2019 05:10:00 9.5 C 95 % 8.74 C
2080 13-06-2019 05:15:00 9.5 C 95 % 8.74 C
2081 13-06-2019 05:20:00 9.5 C 95 % 8.74 C
2082 13-06-2019 05:25:00 9.5 C 95 % 8.74 C
2083 13-06-2019 05:30:00 9.4 C 95 % 8.64 C
2084 13-06-2019 05:35:00 9.4 C 95 % 8.64 C
2085 13-06-2019 05:40:00 9.4 C 95 % 8.64 C
2086 13-06-2019 05:45:00 9.4 C 95 % 8.64 C
2087 13-06-2019 05:50:00 9.4 C 95 % 8.64 C
2088 13-06-2019 05:55:00 9.4 C 95 % 8.64 C
2089 13-06-2019 06:00:00 9.4 C 95 % 8.64 C
2090 13-06-2019 06:05:00 9.4 C 95 % 8.64 C
2091 13-06-2019 06:10:00 9.4 C 95 % 8.64 C
2092 13-06-2019 06:15:00 9.4 C 95 % 8.64 C
2093 13-06-2019 06:20:00 9.4 C 95 % 8.64 C
2094 13-06-2019 06:25:00 9.4 C 95 % 8.64 C
2095 13-06-2019 06:30:00 9.5 C 95 % 8.74 C
2096 13-06-2019 06:35:00 9.5 C 95 % 8.74 C
2097 13-06-2019 06:40:00 9.6 C 96 % 8.99 C
2098 13-06-2019 06:45:00 9.6 C 96 % 8.99 C
2099 13-06-2019 06:50:00 9.7 C 96 % 9.09 C
2100 13-06-2019 06:55:00 9.8 C 96 % 9.19 C
Sensor: Nr:Datum:Temp:Feuchte:Taupunkt:
Aussen-T/F 2101 13-06-2019 07:00:00 9.8 C 96 % 9.19 C
2102 13-06-2019 07:05:00 9.9 C 96 % 9.29 C
2103 13-06-2019 07:10:00 10 C 96 % 9.39 C
2104 13-06-2019 07:15:00 10.1 C 96 % 9.49 C
2105 13-06-2019 07:20:00 10.2 C 96 % 9.59 C
2106 13-06-2019 07:25:00 10.3 C 96 % 9.69 C
2107 13-06-2019 07:30:00 10.3 C 96 % 9.69 C
2108 13-06-2019 07:35:00 10.4 C 96 % 9.79 C
2109 13-06-2019 07:40:00 10.6 C 96 % 9.99 C
2110 13-06-2019 07:45:00 10.7 C 96 % 10.09 C
2111 13-06-2019 07:50:00 10.7 C 96 % 10.09 C
2112 13-06-2019 07:55:00 10.8 C 96 % 10.19 C
2113 13-06-2019 08:00:00 10.9 C 96 % 10.29 C
2114 13-06-2019 08:05:00 11.1 C 96 % 10.49 C
2115 13-06-2019 08:10:00 11.2 C 96 % 10.59 C
2116 13-06-2019 08:15:00 11.4 C 96 % 10.79 C
2117 13-06-2019 08:20:00 11.6 C 96 % 10.98 C
2118 13-06-2019 08:25:00 11.7 C 96 % 11.08 C
2119 13-06-2019 08:30:00 11.8 C 96 % 11.18 C
2120 13-06-2019 08:35:00 11.9 C 96 % 11.28 C
2121 13-06-2019 08:40:00 12.1 C 96 % 11.48 C
2122 13-06-2019 08:45:00 12.2 C 95 % 11.42 C
2123 13-06-2019 08:50:00 12.4 C 95 % 11.62 C
2124 13-06-2019 08:55:00 12.7 C 94 % 11.76 C
2125 13-06-2019 09:00:00 12.9 C 93 % 11.8 C
Sensor: Nr:Datum:Temp:Feuchte:Taupunkt:
Aussen-T/F 2126 13-06-2019 09:05:00 13.2 C 92 % 11.93 C
2127 13-06-2019 09:10:00 13.7 C 85 % 11.23 C
2128 13-06-2019 09:15:00 14.4 C 82 % 11.37 C
2129 13-06-2019 09:20:00 15 C 80 % 11.58 C
2130 13-06-2019 09:25:00 15.3 C 80 % 11.87 C
2131 13-06-2019 09:30:00 15.6 C 75 % 11.19 C
2132 13-06-2019 09:35:00 15.9 C 74 % 11.28 C
2133 13-06-2019 09:40:00 16.2 C 73 % 11.36 C
2134 13-06-2019 09:45:00 16.4 C 73 % 11.55 C
2135 13-06-2019 09:50:00 16.6 C 71 % 11.32 C
2136 13-06-2019 09:55:00 16.7 C 71 % 11.42 C
2137 13-06-2019 10:00:00 16.8 C 70 % 11.3 C
2138 13-06-2019 10:05:00 17.1 C 67 % 10.93 C
2139 13-06-2019 10:10:00 17.3 C 67 % 11.12 C
2140 13-06-2019 10:15:00 17.4 C 70 % 11.88 C
2141 13-06-2019 10:20:00 17.7 C 67 % 11.5 C
2142 13-06-2019 10:25:00 18 C 65 % 11.33 C
2143 13-06-2019 10:30:00 18.2 C 62 % 10.81 C
2144 13-06-2019 10:35:00 18.3 C 64 % 11.38 C
2145 13-06-2019 10:40:00 18.4 C 64 % 11.47 C
2146 13-06-2019 10:45:00 18.7 C 62 % 11.28 C
2147 13-06-2019 10:50:00 18.6 C 61 % 10.94 C
2148 13-06-2019 10:55:00 18.5 C 62 % 11.09 C
2149 13-06-2019 11:00:00 18.7 C 62 % 11.28 C
2150 13-06-2019 11:05:00 18.8 C 63 % 11.61 C
Sensor: Nr:Datum:Temp:Feuchte:Taupunkt:
Aussen-T/F 2151 13-06-2019 11:10:00 18.8 C 60 % 10.88 C
2152 13-06-2019 11:15:00 18.8 C 61 % 11.13 C
2153 13-06-2019 11:20:00 18.8 C 61 % 11.13 C
2154 13-06-2019 11:25:00 18.8 C 61 % 11.13 C
2155 13-06-2019 11:30:00 19 C 61 % 11.31 C
2156 13-06-2019 11:35:00 19.3 C 60 % 11.35 C
2157 13-06-2019 11:40:00 19.6 C 61 % 11.88 C
2158 13-06-2019 11:45:00 19.7 C 61 % 11.97 C
2159 13-06-2019 11:50:00 19.7 C 59 % 11.47 C
2160 13-06-2019 11:55:00 19.8 C 60 % 11.82 C
2161 13-06-2019 12:00:00 19.8 C 59 % 11.56 C
2162 13-06-2019 12:05:00 19.7 C 57 % 10.95 C
2163 13-06-2019 12:10:00 19.4 C 58 % 10.93 C
2164 13-06-2019 12:15:00 19.3 C 57 % 10.58 C
2165 13-06-2019 12:20:00 19.2 C 58 % 10.74 C
2166 13-06-2019 12:25:00 19.2 C 59 % 11 C
2167 13-06-2019 12:30:00 19.2 C 56 % 10.22 C
2168 13-06-2019 12:35:00 19.3 C 55 % 10.04 C
2169 13-06-2019 12:40:00 19.3 C 55 % 10.04 C
2170 13-06-2019 12:45:00 19.3 C 57 % 10.58 C
2171 13-06-2019 12:50:00 19.5 C 57 % 10.76 C
2172 13-06-2019 12:55:00 19.8 C 56 % 10.78 C
2173 13-06-2019 13:00:00 20.1 C 54 % 10.51 C
2174 13-06-2019 13:05:00 20.3 C 57 % 11.51 C
2175 13-06-2019 13:10:00 20.4 C 54 % 10.79 C
Sensor: Nr:Datum:Temp:Feuchte:Taupunkt:
Aussen-T/F 2176 13-06-2019 13:15:00 20.7 C 53 % 10.78 C
2177 13-06-2019 13:20:00 20.9 C 54 % 11.25 C
2178 13-06-2019 13:25:00 21.1 C 53 % 11.15 C
2179 13-06-2019 13:30:00 21.1 C 53 % 11.15 C
2180 13-06-2019 13:35:00 21.2 C 55 % 11.81 C
2181 13-06-2019 13:40:00 21.2 C 49 % 10.07 C
2182 13-06-2019 13:45:00 21.1 C 50 % 10.28 C
2183 13-06-2019 13:50:00 21.2 C 53 % 11.25 C
2184 13-06-2019 13:55:00 21.2 C 55 % 11.81 C
2185 13-06-2019 14:00:00 21.3 C 50 % 10.46 C
2186 13-06-2019 14:05:00 21.5 C 52 % 11.24 C
2187 13-06-2019 14:10:00 21.6 C 50 % 10.74 C
2188 13-06-2019 14:15:00 21.3 C 50 % 10.46 C
2189 13-06-2019 14:20:00 21 C 52 % 10.78 C
2190 13-06-2019 14:25:00 20.7 C 53 % 10.78 C
2191 13-06-2019 14:30:00 20.7 C 54 % 11.07 C
2192 13-06-2019 14:35:00 21.1 C 52 % 10.87 C
2193 13-06-2019 14:40:00 21.4 C 50 % 10.55 C
2194 13-06-2019 14:45:00 21.5 C 49 % 10.34 C
2195 13-06-2019 14:50:00 21.6 C 52 % 11.33 C
2196 13-06-2019 14:55:00 21.5 C 50 % 10.65 C
2197 13-06-2019 15:00:00 21.3 C 53 % 11.34 C
2198 13-06-2019 15:05:00 21.4 C 53 % 11.43 C
2199 13-06-2019 15:10:00 21.7 C 52 % 11.42 C
2200 13-06-2019 15:15:00 22 C 48 % 10.49 C
Sensor: Nr:Datum:Temp:Feuchte:Taupunkt:
Aussen-T/F 2201 13-06-2019 15:20:00 22.1 C 47 % 10.27 C
2202 13-06-2019 15:25:00 22.4 C 46 % 10.22 C
2203 13-06-2019 15:30:00 22.3 C 47 % 10.45 C
2204 13-06-2019 15:35:00 22.2 C 46 % 10.04 C
2205 13-06-2019 15:40:00 21.9 C 49 % 10.71 C
2206 13-06-2019 15:45:00 22.4 C 48 % 10.86 C
2207 13-06-2019 15:50:00 22.8 C 46 % 10.58 C
2208 13-06-2019 15:55:00 23.1 C 49 % 11.81 C
2209 13-06-2019 16:00:00 23.5 C 45 % 10.89 C
2210 13-06-2019 16:05:00 23.7 C 43 % 10.39 C
2211 13-06-2019 16:10:00 23.4 C 41 % 9.41 C
2212 13-06-2019 16:15:00 23.6 C 44 % 10.64 C
2213 13-06-2019 16:20:00 23.7 C 42 % 10.03 C
2214 13-06-2019 16:25:00 23.9 C 43 % 10.57 C
2215 13-06-2019 16:30:00 24.3 C 42 % 10.57 C
2216 13-06-2019 16:35:00 24.2 C 41 % 10.12 C
2217 13-06-2019 16:40:00 24.2 C 40 % 9.75 C
2218 13-06-2019 16:45:00 23.9 C 43 % 10.57 C
2219 13-06-2019 16:50:00 23.9 C 41 % 9.85 C
2220 13-06-2019 16:55:00 24 C 42 % 10.3 C
2221 13-06-2019 17:00:00 24.2 C 43 % 10.84 C
2222 13-06-2019 17:05:00 24.4 C 43 % 11.02 C
2223 13-06-2019 17:10:00 24.6 C 42 % 10.84 C
2224 13-06-2019 17:15:00 24.5 C 42 % 10.75 C
2225 13-06-2019 17:20:00 24.5 C 42 % 10.75 C
Sensor: Nr:Datum:Temp:Feuchte:Taupunkt:
Aussen-T/F 2226 13-06-2019 17:25:00 24.4 C 39 % 9.56 C
2227 13-06-2019 17:30:00 23.9 C 43 % 10.57 C
2228 13-06-2019 17:35:00 23.9 C 42 % 10.21 C
2229 13-06-2019 17:40:00 24.3 C 41 % 10.21 C
2230 13-06-2019 17:45:00 24.6 C 42 % 10.84 C
2231 13-06-2019 17:50:00 24.8 C 40 % 10.29 C
2232 13-06-2019 17:55:00 24.9 C 40 % 10.38 C
2233 13-06-2019 18:00:00 24.9 C 38 % 9.61 C
2234 13-06-2019 18:05:00 24.8 C 42 % 11.02 C
2235 13-06-2019 18:10:00 24.9 C 41 % 10.75 C
2236 13-06-2019 18:15:00 24.8 C 41 % 10.66 C
2237 13-06-2019 18:20:00 24.7 C 41 % 10.57 C
2238 13-06-2019 18:25:00 24.7 C 40 % 10.2 C
2239 13-06-2019 18:30:00 24.8 C 41 % 10.66 C
2240 13-06-2019 18:35:00 24.4 C 42 % 10.66 C
2241 13-06-2019 18:40:00 23.9 C 47 % 11.91 C
2242 13-06-2019 18:45:00 23.4 C 48 % 11.77 C
2243 13-06-2019 18:50:00 23.3 C 45 % 10.71 C
2244 13-06-2019 18:55:00 23.3 C 51 % 12.6 C
2245 13-06-2019 19:00:00 23.2 C 50 % 12.21 C
2246 13-06-2019 19:05:00 22.9 C 53 % 12.82 C
2247 13-06-2019 19:10:00 22.7 C 56 % 13.47 C
2248 13-06-2019 19:15:00 22.4 C 60 % 14.26 C
2249 13-06-2019 19:20:00 22.2 C 60 % 14.07 C
2250 13-06-2019 19:25:00 21.8 C 62 % 14.2 C
Sensor: Nr:Datum:Temp:Feuchte:Taupunkt:
Aussen-T/F 2251 13-06-2019 19:30:00 21.2 C 59 % 12.87 C
2252 13-06-2019 19:35:00 19.8 C 63 % 12.56 C
2253 13-06-2019 19:40:00 18.4 C 75 % 13.89 C
2254 13-06-2019 19:45:00 17.4 C 79 % 13.72 C
2255 13-06-2019 19:50:00 16.7 C 82 % 13.61 C
2256 13-06-2019 19:55:00 16.2 C 85 % 13.68 C
2257 13-06-2019 20:00:00 15.8 C 86 % 13.46 C
2258 13-06-2019 20:05:00 15.6 C 87 % 13.45 C
2259 13-06-2019 20:10:00 15.4 C 89 % 13.6 C
2260 13-06-2019 20:15:00 15.4 C 89 % 13.6 C
2261 13-06-2019 20:20:00 15.6 C 91 % 14.14 C
2262 13-06-2019 20:25:00 15.9 C 92 % 14.6 C
2263 13-06-2019 20:30:00 16.1 C 91 % 14.63 C
2264 13-06-2019 20:35:00 16.3 C 91 % 14.83 C
2265 13-06-2019 20:40:00 16.4 C 90 % 14.76 C
2266 13-06-2019 20:45:00 16.4 C 90 % 14.76 C
2267 13-06-2019 20:50:00 16.4 C 89 % 14.58 C
2268 13-06-2019 20:55:00 16.4 C 89 % 14.58 C
2269 13-06-2019 21:00:00 16.3 C 89 % 14.48 C
2270 13-06-2019 21:05:00 16.2 C 89 % 14.39 C
2271 13-06-2019 21:10:00 15.9 C 88 % 13.92 C
2272 13-06-2019 21:15:00 15.7 C 89 % 13.89 C
2273 13-06-2019 21:20:00 15.5 C 89 % 13.7 C
2274 13-06-2019 21:25:00 15.2 C 89 % 13.4 C
2275 13-06-2019 21:30:00 15 C 89 % 13.2 C
Sensor: Nr:Datum:Temp:Feuchte:Taupunkt:
Aussen-T/F 2276 13-06-2019 21:35:00 14.8 C 89 % 13.01 C
2277 13-06-2019 21:40:00 14.5 C 89 % 12.71 C
2278 13-06-2019 21:45:00 14.3 C 89 % 12.51 C
2279 13-06-2019 21:50:00 14.1 C 89 % 12.32 C
2280 13-06-2019 21:55:00 13.9 C 90 % 12.29 C
2281 13-06-2019 22:00:00 13.7 C 90 % 12.09 C
2282 13-06-2019 22:05:00 13.7 C 91 % 12.26 C
2283 13-06-2019 22:10:00 13.5 C 91 % 12.06 C
2284 13-06-2019 22:15:00 13.4 C 91 % 11.96 C
2285 13-06-2019 22:20:00 13.3 C 91 % 11.86 C
2286 13-06-2019 22:25:00 13.2 C 92 % 11.93 C
2287 13-06-2019 22:30:00 13.2 C 92 % 11.93 C
2288 13-06-2019 22:35:00 13.1 C 92 % 11.83 C
2289 13-06-2019 22:40:00 13 C 92 % 11.73 C
2290 13-06-2019 22:45:00 12.9 C 92 % 11.63 C
2291 13-06-2019 22:50:00 12.8 C 93 % 11.7 C
2292 13-06-2019 22:55:00 12.8 C 93 % 11.7 C
2293 13-06-2019 23:00:00 12.8 C 93 % 11.7 C
2294 13-06-2019 23:05:00 12.8 C 93 % 11.7 C
2295 13-06-2019 23:10:00 12.8 C 94 % 11.86 C
2296 13-06-2019 23:15:00 12.8 C 94 % 11.86 C
2297 13-06-2019 23:20:00 12.9 C 94 % 11.96 C
2298 13-06-2019 23:25:00 12.9 C 94 % 11.96 C
2299 13-06-2019 23:30:00 12.9 C 94 % 11.96 C
2300 13-06-2019 23:35:00 12.9 C 94 % 11.96 C
Sensor: Nr:Datum:Temp:Feuchte:Taupunkt:
Aussen-T/F 2301 13-06-2019 23:40:00 12.8 C 94 % 11.86 C
2302 13-06-2019 23:45:00 12.7 C 94 % 11.76 C
2303 13-06-2019 23:50:00 12.6 C 94 % 11.66 C
2304 13-06-2019 23:55:00 12.5 C 94 % 11.56 C
2305 14-06-2019 00:00:00 12.4 C 94 % 11.46 C
2306 14-06-2019 00:05:00 12.4 C 94 % 11.46 C
2307 14-06-2019 00:10:00 12.3 C 94 % 11.36 C
2308 14-06-2019 00:15:00 12.2 C 94 % 11.26 C
2309 14-06-2019 00:20:00 12.2 C 94 % 11.26 C
2310 14-06-2019 00:25:00 12.1 C 94 % 11.16 C
2311 14-06-2019 00:30:00 12 C 94 % 11.07 C
2312 14-06-2019 00:35:00 11.9 C 94 % 10.97 C
2313 14-06-2019 00:40:00 11.9 C 94 % 10.97 C
2314 14-06-2019 00:45:00 11.8 C 94 % 10.87 C
2315 14-06-2019 00:50:00 11.8 C 95 % 11.03 C
2316 14-06-2019 00:55:00 11.8 C 95 % 11.03 C
2317 14-06-2019 01:00:00 11.7 C 95 % 10.93 C
2318 14-06-2019 01:05:00 11.7 C 95 % 10.93 C
2319 14-06-2019 01:10:00 11.7 C 95 % 10.93 C
2320 14-06-2019 01:15:00 11.7 C 95 % 10.93 C
2321 14-06-2019 01:20:00 11.7 C 95 % 10.93 C
2322 14-06-2019 01:25:00 11.7 C 95 % 10.93 C
2323 14-06-2019 01:30:00 11.8 C 95 % 11.03 C
2324 14-06-2019 01:35:00 11.8 C 95 % 11.03 C
2325 14-06-2019 01:40:00 11.7 C 95 % 10.93 C
Sensor: Nr:Datum:Temp:Feuchte:Taupunkt:
Aussen-T/F 2326 14-06-2019 01:45:00 11.7 C 95 % 10.93 C
2327 14-06-2019 01:50:00 11.8 C 96 % 11.18 C
2328 14-06-2019 01:55:00 11.8 C 96 % 11.18 C
2329 14-06-2019 02:00:00 11.9 C 96 % 11.28 C
2330 14-06-2019 02:05:00 11.9 C 96 % 11.28 C
2331 14-06-2019 02:10:00 12 C 96 % 11.38 C
2332 14-06-2019 02:15:00 12.1 C 96 % 11.48 C
2333 14-06-2019 02:20:00 12.2 C 96 % 11.58 C
2334 14-06-2019 02:25:00 12.2 C 96 % 11.58 C
2335 14-06-2019 02:30:00 12.3 C 96 % 11.68 C
2336 14-06-2019 02:35:00 12.3 C 96 % 11.68 C
2337 14-06-2019 02:40:00 12.3 C 96 % 11.68 C
2338 14-06-2019 02:45:00 12.3 C 96 % 11.68 C
2339 14-06-2019 02:50:00 12.3 C 96 % 11.68 C
2340 14-06-2019 02:55:00 12.2 C 96 % 11.58 C
2341 14-06-2019 03:00:00 12.1 C 96 % 11.48 C
2342 14-06-2019 03:05:00 12.1 C 96 % 11.48 C
2343 14-06-2019 03:10:00 12 C 96 % 11.38 C
2344 14-06-2019 03:15:00 12.1 C 96 % 11.48 C
2345 14-06-2019 03:20:00 12.1 C 96 % 11.48 C
2346 14-06-2019 03:25:00 12.1 C 96 % 11.48 C
2347 14-06-2019 03:30:00 12.1 C 96 % 11.48 C
2348 14-06-2019 03:35:00 12 C 96 % 11.38 C
2349 14-06-2019 03:40:00 12 C 96 % 11.38 C
2350 14-06-2019 03:45:00 11.9 C 96 % 11.28 C
Sensor: Nr:Datum:Temp:Feuchte:Taupunkt:
Aussen-T/F 2351 14-06-2019 03:50:00 11.8 C 96 % 11.18 C
2352 14-06-2019 03:55:00 11.8 C 96 % 11.18 C
2353 14-06-2019 04:00:00 11.7 C 96 % 11.08 C
2354 14-06-2019 04:05:00 11.6 C 96 % 10.98 C
2355 14-06-2019 04:10:00 11.6 C 96 % 10.98 C
2356 14-06-2019 04:15:00 11.5 C 96 % 10.88 C
2357 14-06-2019 04:20:00 11.5 C 96 % 10.88 C
2358 14-06-2019 04:25:00 11.6 C 96 % 10.98 C
2359 14-06-2019 04:30:00 11.6 C 96 % 10.98 C
2360 14-06-2019 04:35:00 11.6 C 96 % 10.98 C
2361 14-06-2019 04:40:00 11.6 C 96 % 10.98 C
2362 14-06-2019 04:45:00 11.6 C 96 % 10.98 C
2363 14-06-2019 04:50:00 11.6 C 96 % 10.98 C
2364 14-06-2019 04:55:00 11.6 C 96 % 10.98 C
2365 14-06-2019 05:00:00 11.6 C 96 % 10.98 C
2366 14-06-2019 05:05:00 11.6 C 96 % 10.98 C
2367 14-06-2019 05:10:00 11.5 C 96 % 10.88 C
2368 14-06-2019 05:15:00 11.4 C 96 % 10.79 C
2369 14-06-2019 05:20:00 11.4 C 96 % 10.79 C
2370 14-06-2019 05:25:00 11.4 C 96 % 10.79 C
2371 14-06-2019 05:30:00 11.3 C 96 % 10.69 C
2372 14-06-2019 05:35:00 11.4 C 97 % 10.94 C
2373 14-06-2019 05:40:00 11.4 C 97 % 10.94 C
2374 14-06-2019 05:45:00 11.4 C 97 % 10.94 C
2375 14-06-2019 05:50:00 11.3 C 97 % 10.84 C
Sensor: Nr:Datum:Temp:Feuchte:Taupunkt:
Aussen-T/F 2376 14-06-2019 05:55:00 11.3 C 97 % 10.84 C
2377 14-06-2019 06:00:00 11.3 C 96 % 10.69 C
2378 14-06-2019 06:05:00 11.4 C 96 % 10.79 C
2379 14-06-2019 06:10:00 11.3 C 97 % 10.84 C
2380 14-06-2019 06:15:00 11.3 C 96 % 10.69 C
2381 14-06-2019 06:20:00 11.3 C 97 % 10.84 C
2382 14-06-2019 06:25:00 11.3 C 97 % 10.84 C
2383 14-06-2019 06:30:00 11.3 C 97 % 10.84 C
2384 14-06-2019 06:35:00 11.4 C 97 % 10.94 C
2385 14-06-2019 06:40:00 11.4 C 97 % 10.94 C
2386 14-06-2019 06:45:00 11.4 C 97 % 10.94 C
2387 14-06-2019 06:50:00 11.3 C 97 % 10.84 C
2388 14-06-2019 06:55:00 11.3 C 97 % 10.84 C
2389 14-06-2019 07:00:00 11.3 C 97 % 10.84 C
2390 14-06-2019 07:05:00 11.3 C 97 % 10.84 C
2391 14-06-2019 07:10:00 11.3 C 97 % 10.84 C
2392 14-06-2019 07:15:00 11.3 C 97 % 10.84 C
2393 14-06-2019 07:20:00 11.4 C 97 % 10.94 C
2394 14-06-2019 07:25:00 11.4 C 97 % 10.94 C
2395 14-06-2019 07:30:00 11.4 C 97 % 10.94 C
2396 14-06-2019 07:35:00 11.4 C 97 % 10.94 C
2397 14-06-2019 07:40:00 11.5 C 97 % 11.04 C
2398 14-06-2019 07:45:00 11.6 C 97 % 11.14 C
2399 14-06-2019 07:50:00 11.6 C 97 % 11.14 C
2400 14-06-2019 07:55:00 11.7 C 97 % 11.24 C
Sensor: Nr:Datum:Temp:Feuchte:Taupunkt:
Aussen-T/F 2401 14-06-2019 08:00:00 11.7 C 97 % 11.24 C
2402 14-06-2019 08:05:00 11.7 C 97 % 11.24 C
2403 14-06-2019 08:10:00 11.8 C 97 % 11.34 C
2404 14-06-2019 08:15:00 11.8 C 97 % 11.34 C
2405 14-06-2019 08:20:00 11.9 C 97 % 11.44 C
2406 14-06-2019 08:25:00 12 C 97 % 11.54 C
2407 14-06-2019 08:30:00 12.1 C 97 % 11.64 C
2408 14-06-2019 08:35:00 12.3 C 97 % 11.84 C
2409 14-06-2019 08:40:00 12.4 C 97 % 11.94 C
2410 14-06-2019 08:45:00 12.6 C 97 % 12.14 C
2411 14-06-2019 08:50:00 12.7 C 97 % 12.24 C
2412 14-06-2019 08:55:00 12.8 C 97 % 12.34 C
2413 14-06-2019 09:00:00 13.1 C 97 % 12.63 C
2414 14-06-2019 09:05:00 13.2 C 98 % 12.89 C
2415 14-06-2019 09:10:00 13.4 C 98 % 13.09 C
2416 14-06-2019 09:15:00 13.6 C 97 % 13.13 C
2417 14-06-2019 09:20:00 13.8 C 98 % 13.49 C
2418 14-06-2019 09:25:00 14.1 C 98 % 13.79 C
2419 14-06-2019 09:30:00 14.4 C 98 % 14.09 C
2420 14-06-2019 09:35:00 14.7 C 98 % 14.39 C
2421 14-06-2019 09:40:00 15 C 98 % 14.69 C
2422 14-06-2019 09:45:00 15.2 C 98 % 14.89 C
2423 14-06-2019 09:50:00 15.4 C 98 % 15.09 C
2424 14-06-2019 09:55:00 15.6 C 98 % 15.29 C
2425 14-06-2019 10:00:00 15.8 C 98 % 15.48 C
Sensor: Nr:Datum:Temp:Feuchte:Taupunkt:
Aussen-T/F 2426 14-06-2019 10:05:00 16.2 C 98 % 15.88 C
2427 14-06-2019 10:10:00 16.4 C 98 % 16.08 C
2428 14-06-2019 10:15:00 16.7 C 98 % 16.38 C
2429 14-06-2019 10:20:00 16.9 C 98 % 16.58 C
2430 14-06-2019 10:25:00 17.2 C 98 % 16.88 C
2431 14-06-2019 10:30:00 17.4 C 98 % 17.08 C
2432 14-06-2019 10:35:00 17.6 C 98 % 17.28 C
2433 14-06-2019 10:40:00 17.7 C 98 % 17.38 C
2434 14-06-2019 10:45:00 17.9 C 98 % 17.58 C
2435 14-06-2019 10:50:00 18 C 98 % 17.68 C
2436 14-06-2019 10:55:00 18.2 C 98 % 17.88 C
2437 14-06-2019 11:00:00 18.1 C 97 % 17.62 C
2438 14-06-2019 11:05:00 18.1 C 97 % 17.62 C
2439 14-06-2019 11:10:00 18.2 C 97 % 17.72 C
2440 14-06-2019 11:15:00 18.3 C 97 % 17.82 C
2441 14-06-2019 11:20:00 18.3 C 97 % 17.82 C
2442 14-06-2019 11:25:00 18.3 C 96 % 17.65 C
2443 14-06-2019 11:30:00 18.5 C 97 % 18.01 C
2444 14-06-2019 11:35:00 18.7 C 96 % 18.05 C
2445 14-06-2019 11:40:00 18.8 C 96 % 18.15 C
2446 14-06-2019 11:45:00 18.9 C 94 % 17.91 C
2447 14-06-2019 11:50:00 19.4 C 94 % 18.41 C
2448 14-06-2019 11:55:00 19.8 C 94 % 18.81 C
2449 14-06-2019 12:00:00 20 C 92 % 18.66 C
2450 14-06-2019 12:05:00 20.1 C 78 % 16.14 C
Sensor: Nr:Datum:Temp:Feuchte:Taupunkt:
Aussen-T/F 2451 14-06-2019 12:10:00 20.7 C 82 % 17.52 C
2452 14-06-2019 12:15:00 21.1 C 73 % 16.07 C
2453 14-06-2019 12:20:00 21.5 C 72 % 16.24 C
2454 14-06-2019 12:25:00 21.7 C 64 % 14.6 C
2455 14-06-2019 12:30:00 22.1 C 74 % 17.25 C
2456 14-06-2019 12:35:00 22.3 C 72 % 17.01 C
2457 14-06-2019 12:40:00 22.3 C 59 % 13.9 C
2458 14-06-2019 12:45:00 22.6 C 66 % 15.93 C
2459 14-06-2019 12:50:00 22.7 C 61 % 14.79 C
2460 14-06-2019 12:55:00 22.8 C 63 % 15.39 C
2461 14-06-2019 13:00:00 23.1 C 69 % 17.1 C
2462 14-06-2019 13:05:00 23.3 C 63 % 15.86 C
2463 14-06-2019 13:10:00 23.8 C 65 % 16.83 C
2464 14-06-2019 13:15:00 24 C 60 % 15.76 C
2465 14-06-2019 13:20:00 24.1 C 66 % 17.35 C
2466 14-06-2019 13:25:00 24.1 C 52 % 13.63 C
2467 14-06-2019 13:30:00 24.4 C 56 % 15.06 C
2468 14-06-2019 13:35:00 24.7 C 56 % 15.33 C
2469 14-06-2019 13:40:00 24.8 C 48 % 13.05 C
2470 14-06-2019 13:45:00 24.9 C 54 % 14.95 C
2471 14-06-2019 13:50:00 24.9 C 54 % 14.95 C
2472 14-06-2019 13:55:00 25.1 C 48 % 13.32 C
2473 14-06-2019 14:00:00 25.3 C 49 % 13.82 C
2474 14-06-2019 14:05:00 25.6 C 50 % 14.41 C
2475 14-06-2019 14:10:00 25.7 C 50 % 14.5 C
Sensor: Nr:Datum:Temp:Feuchte:Taupunkt:
Aussen-T/F 2476 14-06-2019 14:15:00 25.9 C 50 % 14.68 C
2477 14-06-2019 14:20:00 26.1 C 47 % 13.91 C
2478 14-06-2019 14:25:00 26.2 C 48 % 14.32 C
2479 14-06-2019 14:30:00 26.2 C 47 % 14 C
2480 14-06-2019 14:35:00 26.2 C 54 % 16.16 C
2481 14-06-2019 14:40:00 26.2 C 52 % 15.57 C
2482 14-06-2019 14:45:00 26.2 C 50 % 14.96 C
2483 14-06-2019 14:50:00 26.2 C 52 % 15.57 C
2484 14-06-2019 14:55:00 26.2 C 54 % 16.16 C
2485 14-06-2019 15:00:00 26.3 C 57 % 17.1 C
2486 14-06-2019 15:05:00 26.2 C 50 % 14.96 C
2487 14-06-2019 15:10:00 26.2 C 57 % 17.01 C
2488 14-06-2019 15:15:00 26.3 C 49 % 14.74 C
2489 14-06-2019 15:20:00 26.4 C 53 % 16.05 C
2490 14-06-2019 15:25:00 26.5 C 49 % 14.92 C
2491 14-06-2019 15:30:00 26.4 C 49 % 14.83 C
2492 14-06-2019 15:35:00 26.4 C 45 % 13.51 C
2493 14-06-2019 15:40:00 26.4 C 43 % 12.82 C
2494 14-06-2019 15:45:00 26.4 C 55 % 16.63 C
2495 14-06-2019 15:50:00 26.3 C 46 % 13.76 C
2496 14-06-2019 15:55:00 26.4 C 55 % 16.63 C
2497 14-06-2019 16:00:00 26.3 C 53 % 15.96 C
2498 14-06-2019 16:05:00 26.3 C 56 % 16.82 C
2499 14-06-2019 16:10:00 26.2 C 53 % 15.87 C
2500 14-06-2019 16:15:00 26.1 C 60 % 17.73 C
Sensor: Nr:Datum:Temp:Feuchte:Taupunkt:
Aussen-T/F 2501 14-06-2019 16:20:00 26.1 C 64 % 18.76 C
2502 14-06-2019 16:25:00 26 C 59 % 17.37 C
2503 14-06-2019 16:30:00 25.9 C 64 % 18.57 C
2504 14-06-2019 16:35:00 25.8 C 56 % 16.36 C
2505 14-06-2019 16:40:00 25.8 C 54 % 15.79 C
2506 14-06-2019 16:45:00 25.8 C 63 % 18.22 C
2507 14-06-2019 16:50:00 25.6 C 52 % 15.02 C
2508 14-06-2019 16:55:00 25.5 C 56 % 16.08 C
2509 14-06-2019 17:00:00 25.4 C 66 % 18.58 C
2510 14-06-2019 17:05:00 25.4 C 68 % 19.06 C
2511 14-06-2019 17:10:00 25.3 C 65 % 18.25 C
2512 14-06-2019 17:15:00 25.3 C 65 % 18.25 C
2513 14-06-2019 17:20:00 25.4 C 63 % 17.84 C
2514 14-06-2019 17:25:00 25.3 C 60 % 16.98 C
2515 14-06-2019 17:30:00 25.4 C 69 % 19.3 C
2516 14-06-2019 17:35:00 25.3 C 69 % 19.2 C
2517 14-06-2019 17:40:00 25.1 C 57 % 15.98 C
2518 14-06-2019 17:45:00 25.1 C 67 % 18.54 C
2519 14-06-2019 17:50:00 25 C 71 % 19.37 C
2520 14-06-2019 17:55:00 24.8 C 69 % 18.72 C
2521 14-06-2019 18:00:00 24.6 C 63 % 17.09 C
2522 14-06-2019 18:05:00 24.4 C 70 % 18.57 C
2523 14-06-2019 18:10:00 24.4 C 64 % 17.15 C
2524 14-06-2019 18:15:00 24.6 C 68 % 18.3 C
2525 14-06-2019 18:20:00 24.8 C 66 % 18.01 C
Sensor: Nr:Datum:Temp:Feuchte:Taupunkt:
Aussen-T/F 2526 14-06-2019 18:25:00 24.8 C 69 % 18.72 C
2527 14-06-2019 18:30:00 24.7 C 68 % 18.4 C
2528 14-06-2019 18:35:00 24.7 C 73 % 19.53 C
2529 14-06-2019 18:40:00 24.6 C 73 % 19.44 C
2530 14-06-2019 18:45:00 24.3 C 68 % 18.01 C
2531 14-06-2019 18:50:00 24.1 C 69 % 18.06 C
2532 14-06-2019 18:55:00 23.9 C 74 % 18.98 C
2533 14-06-2019 19:00:00 23.7 C 74 % 18.79 C
2534 14-06-2019 19:05:00 23.4 C 72 % 18.06 C
2535 14-06-2019 19:10:00 23.2 C 74 % 18.31 C
2536 14-06-2019 19:15:00 22.8 C 72 % 17.49 C
2537 14-06-2019 19:20:00 22.7 C 72 % 17.39 C
2538 14-06-2019 19:25:00 22.6 C 75 % 17.94 C
2539 14-06-2019 19:30:00 22.6 C 75 % 17.94 C
2540 14-06-2019 19:35:00 22.4 C 75 % 17.75 C
2541 14-06-2019 19:40:00 22.2 C 75 % 17.56 C
2542 14-06-2019 19:45:00 21.9 C 75 % 17.27 C
2543 14-06-2019 19:50:00 21.7 C 76 % 17.28 C
2544 14-06-2019 19:55:00 21.4 C 76 % 16.99 C
2545 14-06-2019 20:00:00 21.2 C 77 % 17.01 C
2546 14-06-2019 20:05:00 21 C 76 % 16.61 C
2547 14-06-2019 20:10:00 20.8 C 77 % 16.62 C
2548 14-06-2019 20:15:00 20.6 C 77 % 16.43 C
2549 14-06-2019 20:20:00 20.4 C 78 % 16.44 C
2550 14-06-2019 20:25:00 20.3 C 78 % 16.34 C
Sensor: Nr:Datum:Temp:Feuchte:Taupunkt:
Aussen-T/F 2551 14-06-2019 20:30:00 20.2 C 79 % 16.44 C
2552 14-06-2019 20:35:00 20.1 C 79 % 16.34 C
2553 14-06-2019 20:40:00 19.9 C 79 % 16.15 C
2554 14-06-2019 20:45:00 19.8 C 79 % 16.05 C
2555 14-06-2019 20:50:00 19.6 C 80 % 16.06 C
2556 14-06-2019 20:55:00 19.6 C 81 % 16.25 C
2557 14-06-2019 21:00:00 19.4 C 81 % 16.06 C
2558 14-06-2019 21:05:00 19.3 C 81 % 15.96 C
2559 14-06-2019 21:10:00 19.3 C 82 % 16.15 C
2560 14-06-2019 21:15:00 19.3 C 83 % 16.34 C
2561 14-06-2019 21:20:00 19.3 C 83 % 16.34 C
2562 14-06-2019 21:25:00 19.2 C 83 % 16.24 C
2563 14-06-2019 21:30:00 19.1 C 84 % 16.33 C
2564 14-06-2019 21:35:00 19 C 85 % 16.42 C
2565 14-06-2019 21:40:00 18.9 C 85 % 16.32 C
2566 14-06-2019 21:45:00 18.8 C 85 % 16.23 C
2567 14-06-2019 21:50:00 18.7 C 85 % 16.13 C
2568 14-06-2019 21:55:00 18.7 C 85 % 16.13 C
2569 14-06-2019 22:00:00 18.6 C 84 % 15.84 C
2570 14-06-2019 22:05:00 18.5 C 84 % 15.75 C
2571 14-06-2019 22:10:00 18.6 C 84 % 15.84 C
2572 14-06-2019 22:15:00 18.7 C 84 % 15.94 C
2573 14-06-2019 22:20:00 18.7 C 83 % 15.75 C
2574 14-06-2019 22:25:00 18.8 C 83 % 15.85 C
2575 14-06-2019 22:30:00 18.9 C 83 % 15.95 C
Sensor: Nr:Datum:Temp:Feuchte:Taupunkt:
Aussen-T/F 2576 14-06-2019 22:35:00 18.9 C 84 % 16.14 C
2577 14-06-2019 22:40:00 19 C 84 % 16.24 C
2578 14-06-2019 22:45:00 19 C 84 % 16.24 C
2579 14-06-2019 22:50:00 18.9 C 84 % 16.14 C
2580 14-06-2019 22:55:00 18.9 C 84 % 16.14 C
2581 14-06-2019 23:00:00 18.9 C 84 % 16.14 C
2582 14-06-2019 23:05:00 18.8 C 85 % 16.23 C
2583 14-06-2019 23:10:00 18.8 C 85 % 16.23 C
2584 14-06-2019 23:15:00 18.7 C 86 % 16.31 C
2585 14-06-2019 23:20:00 18.7 C 86 % 16.31 C
2586 14-06-2019 23:25:00 18.7 C 86 % 16.31 C
2587 14-06-2019 23:30:00 18.6 C 87 % 16.39 C
2588 14-06-2019 23:35:00 18.5 C 87 % 16.3 C
2589 14-06-2019 23:40:00 18.4 C 87 % 16.2 C
2590 14-06-2019 23:45:00 18.4 C 88 % 16.38 C
2591 14-06-2019 23:50:00 18.4 C 88 % 16.38 C
2592 14-06-2019 23:55:00 18.3 C 89 % 16.46 C
2593 15-06-2019 00:00:00 18.2 C 90 % 16.53 C
2594 15-06-2019 00:05:00 18.1 C 90 % 16.43 C
2595 15-06-2019 00:10:00 18 C 91 % 16.51 C
2596 15-06-2019 00:15:00 17.9 C 91 % 16.41 C
2597 15-06-2019 00:20:00 17.8 C 91 % 16.31 C
2598 15-06-2019 00:25:00 17.6 C 92 % 16.28 C
2599 15-06-2019 00:30:00 17.5 C 92 % 16.19 C
2600 15-06-2019 00:35:00 17.4 C 92 % 16.09 C
Sensor: Nr:Datum:Temp:Feuchte:Taupunkt:
Aussen-T/F 2601 15-06-2019 00:40:00 17.3 C 92 % 15.99 C
2602 15-06-2019 00:45:00 17.2 C 92 % 15.89 C
2603 15-06-2019 00:50:00 17.1 C 93 % 15.96 C
2604 15-06-2019 00:55:00 17 C 93 % 15.86 C
2605 15-06-2019 01:00:00 16.9 C 93 % 15.76 C
2606 15-06-2019 01:05:00 16.8 C 93 % 15.66 C
2607 15-06-2019 01:10:00 16.8 C 93 % 15.66 C
2608 15-06-2019 01:15:00 16.7 C 93 % 15.56 C
2609 15-06-2019 01:20:00 16.6 C 93 % 15.46 C
2610 15-06-2019 01:25:00 16.5 C 93 % 15.36 C
2611 15-06-2019 01:30:00 16.4 C 93 % 15.27 C
2612 15-06-2019 01:35:00 16.4 C 93 % 15.27 C
2613 15-06-2019 01:40:00 16.3 C 93 % 15.17 C
2614 15-06-2019 01:45:00 16.2 C 94 % 15.23 C
2615 15-06-2019 01:50:00 16.2 C 93 % 15.07 C
2616 15-06-2019 01:55:00 16.1 C 94 % 15.13 C
2617 15-06-2019 02:00:00 16 C 94 % 15.03 C
2618 15-06-2019 02:05:00 15.9 C 94 % 14.94 C
2619 15-06-2019 02:10:00 15.9 C 94 % 14.94 C
2620 15-06-2019 02:15:00 15.8 C 94 % 14.84 C
2621 15-06-2019 02:20:00 15.8 C 94 % 14.84 C
2622 15-06-2019 02:25:00 15.7 C 94 % 14.74 C
2623 15-06-2019 02:30:00 15.7 C 94 % 14.74 C
2624 15-06-2019 02:35:00 15.6 C 94 % 14.64 C
2625 15-06-2019 02:40:00 15.5 C 94 % 14.54 C
Sensor: Nr:Datum:Temp:Feuchte:Taupunkt:
Aussen-T/F 2626 15-06-2019 02:45:00 15.4 C 94 % 14.44 C
2627 15-06-2019 02:50:00 15.5 C 95 % 14.7 C
2628 15-06-2019 02:55:00 15.4 C 95 % 14.6 C
2629 15-06-2019 03:00:00 15.4 C 95 % 14.6 C
2630 15-06-2019 03:05:00 15.3 C 95 % 14.5 C
2631 15-06-2019 03:10:00 15.2 C 94 % 14.24 C
2632 15-06-2019 03:15:00 15.1 C 94 % 14.14 C
2633 15-06-2019 03:20:00 15.1 C 95 % 14.31 C
2634 15-06-2019 03:25:00 15.1 C 95 % 14.31 C
2635 15-06-2019 03:30:00 15 C 95 % 14.21 C
2636 15-06-2019 03:35:00 15.1 C 95 % 14.31 C
2637 15-06-2019 03:40:00 15.1 C 96 % 14.47 C
2638 15-06-2019 03:45:00 15.2 C 96 % 14.57 C
2639 15-06-2019 03:50:00 15.2 C 96 % 14.57 C
2640 15-06-2019 03:55:00 15.2 C 95 % 14.4 C
2641 15-06-2019 04:00:00 15.2 C 95 % 14.4 C
2642 15-06-2019 04:05:00 15.2 C 95 % 14.4 C
2643 15-06-2019 04:10:00 15.2 C 96 % 14.57 C
2644 15-06-2019 04:15:00 15.1 C 96 % 14.47 C
2645 15-06-2019 04:20:00 15.1 C 95 % 14.31 C
2646 15-06-2019 04:25:00 15 C 95 % 14.21 C
2647 15-06-2019 04:30:00 15.2 C 96 % 14.57 C
2648 15-06-2019 04:35:00 15.2 C 96 % 14.57 C
2649 15-06-2019 04:40:00 15.2 C 96 % 14.57 C
2650 15-06-2019 04:45:00 15.1 C 96 % 14.47 C
Sensor: Nr:Datum:Temp:Feuchte:Taupunkt:
Aussen-T/F 2651 15-06-2019 04:50:00 15.1 C 96 % 14.47 C
2652 15-06-2019 04:55:00 15.1 C 96 % 14.47 C
2653 15-06-2019 05:00:00 15.1 C 96 % 14.47 C
2654 15-06-2019 05:05:00 15 C 96 % 14.37 C
2655 15-06-2019 05:10:00 14.9 C 96 % 14.27 C
2656 15-06-2019 05:15:00 14.8 C 96 % 14.17 C
2657 15-06-2019 05:20:00 14.7 C 96 % 14.07 C
2658 15-06-2019 05:25:00 14.6 C 95 % 13.81 C
2659 15-06-2019 05:30:00 14.8 C 96 % 14.17 C
2660 15-06-2019 05:35:00 15.1 C 96 % 14.47 C
2661 15-06-2019 05:40:00 15.2 C 97 % 14.73 C
2662 15-06-2019 05:45:00 15.3 C 97 % 14.83 C
2663 15-06-2019 05:50:00 15.3 C 96 % 14.67 C
2664 15-06-2019 05:55:00 15.4 C 96 % 14.77 C
2665 15-06-2019 06:00:00 15.4 C 96 % 14.77 C
2666 15-06-2019 06:05:00 15.4 C 96 % 14.77 C
2667 15-06-2019 06:10:00 15.4 C 96 % 14.77 C
2668 15-06-2019 06:15:00 15.4 C 96 % 14.77 C
2669 15-06-2019 06:20:00 15.4 C 96 % 14.77 C
2670 15-06-2019 06:25:00 15.4 C 96 % 14.77 C
2671 15-06-2019 06:30:00 15.5 C 96 % 14.86 C
2672 15-06-2019 06:35:00 15.6 C 97 % 15.13 C
2673 15-06-2019 06:40:00 15.7 C 97 % 15.23 C
2674 15-06-2019 06:45:00 15.7 C 97 % 15.23 C
2675 15-06-2019 06:50:00 15.8 C 97 % 15.32 C
Sensor: Nr:Datum:Temp:Feuchte:Taupunkt:
Aussen-T/F 2676 15-06-2019 06:55:00 15.8 C 97 % 15.32 C
2677 15-06-2019 07:00:00 15.8 C 97 % 15.32 C
2678 15-06-2019 07:05:00 15.9 C 97 % 15.42 C
2679 15-06-2019 07:10:00 15.9 C 97 % 15.42 C
2680 15-06-2019 07:15:00 16 C 97 % 15.52 C
2681 15-06-2019 07:20:00 16 C 97 % 15.52 C
2682 15-06-2019 07:25:00 16.1 C 97 % 15.62 C
2683 15-06-2019 07:30:00 16.2 C 97 % 15.72 C
2684 15-06-2019 07:35:00 16.2 C 97 % 15.72 C
2685 15-06-2019 07:40:00 16.3 C 97 % 15.82 C
2686 15-06-2019 07:45:00 16.4 C 97 % 15.92 C
2687 15-06-2019 07:50:00 16.6 C 97 % 16.12 C
2688 15-06-2019 07:55:00 16.7 C 97 % 16.22 C
2689 15-06-2019 08:00:00 16.7 C 97 % 16.22 C
2690 15-06-2019 08:05:00 16.8 C 97 % 16.32 C
2691 15-06-2019 08:10:00 16.7 C 97 % 16.22 C
2692 15-06-2019 08:15:00 16.7 C 97 % 16.22 C
2693 15-06-2019 08:20:00 16.8 C 97 % 16.32 C
2694 15-06-2019 08:25:00 17 C 97 % 16.52 C
2695 15-06-2019 08:30:00 17.1 C 97 % 16.62 C
2696 15-06-2019 08:35:00 17.1 C 97 % 16.62 C
2697 15-06-2019 08:40:00 17 C 96 % 16.36 C
2698 15-06-2019 08:45:00 17 C 96 % 16.36 C
2699 15-06-2019 08:50:00 17.1 C 95 % 16.29 C
2700 15-06-2019 08:55:00 17.3 C 94 % 16.33 C
Sensor: Nr:Datum:Temp:Feuchte:Taupunkt:
Aussen-T/F 2701 15-06-2019 09:00:00 17.6 C 94 % 16.62 C
2702 15-06-2019 09:05:00 17.8 C 93 % 16.65 C
2703 15-06-2019 09:10:00 17.9 C 92 % 16.58 C
2704 15-06-2019 09:15:00 18.1 C 92 % 16.78 C
2705 15-06-2019 09:20:00 18.2 C 91 % 16.71 C
2706 15-06-2019 09:25:00 18.4 C 90 % 16.73 C
2707 15-06-2019 09:30:00 18.5 C 89 % 16.65 C
2708 15-06-2019 09:35:00 18.6 C 90 % 16.93 C
2709 15-06-2019 09:40:00 18.8 C 88 % 16.77 C
2710 15-06-2019 09:45:00 19.1 C 87 % 16.89 C
2711 15-06-2019 09:50:00 19.2 C 87 % 16.98 C
2712 15-06-2019 09:55:00 19.3 C 86 % 16.9 C
2713 15-06-2019 10:00:00 19.4 C 85 % 16.81 C
2714 15-06-2019 10:05:00 19.4 C 85 % 16.81 C
2715 15-06-2019 10:10:00 19.6 C 83 % 16.63 C
2716 15-06-2019 10:15:00 19.7 C 84 % 16.92 C
2717 15-06-2019 10:20:00 19.8 C 82 % 16.64 C
2718 15-06-2019 10:25:00 19.8 C 82 % 16.64 C
2719 15-06-2019 10:30:00 19.9 C 81 % 16.54 C
2720 15-06-2019 10:35:00 20.1 C 82 % 16.93 C
2721 15-06-2019 10:40:00 20.3 C 81 % 16.93 C
2722 15-06-2019 10:45:00 20.5 C 79 % 16.73 C
2723 15-06-2019 10:50:00 20.4 C 78 % 16.44 C
2724 15-06-2019 10:55:00 20.3 C 80 % 16.74 C
2725 15-06-2019 11:00:00 20.3 C 79 % 16.54 C
Sensor: Nr:Datum:Temp:Feuchte:Taupunkt:
Aussen-T/F 2726 15-06-2019 11:05:00 20.3 C 75 % 15.72 C
2727 15-06-2019 11:10:00 20.4 C 75 % 15.82 C
2728 15-06-2019 11:15:00 20.4 C 73 % 15.4 C
2729 15-06-2019 11:20:00 20.6 C 73 % 15.59 C
2730 15-06-2019 11:25:00 20.7 C 73 % 15.69 C
2731 15-06-2019 11:30:00 20.8 C 71 % 15.35 C
2732 15-06-2019 11:35:00 21 C 71 % 15.54 C
2733 15-06-2019 11:40:00 21.1 C 71 % 15.64 C
2734 15-06-2019 11:45:00 21.2 C 69 % 15.29 C
2735 15-06-2019 11:50:00 21.4 C 69 % 15.48 C
2736 15-06-2019 11:55:00 21.4 C 70 % 15.7 C
2737 15-06-2019 12:00:00 21.5 C 69 % 15.57 C
2738 15-06-2019 12:05:00 21.6 C 69 % 15.67 C
2739 15-06-2019 12:10:00 21.7 C 68 % 15.54 C
2740 15-06-2019 12:15:00 21.7 C 67 % 15.31 C
2741 15-06-2019 12:20:00 21.7 C 68 % 15.54 C
2742 15-06-2019 12:25:00 21.5 C 67 % 15.12 C
2743 15-06-2019 12:30:00 21.5 C 70 % 15.8 C
2744 15-06-2019 12:35:00 21.7 C 69 % 15.77 C
2745 15-06-2019 12:40:00 21.7 C 70 % 15.99 C
2746 15-06-2019 12:45:00 21.7 C 74 % 16.86 C
2747 15-06-2019 12:50:00 21.6 C 72 % 16.34 C
2748 15-06-2019 12:55:00 21.4 C 72 % 16.14 C
2749 15-06-2019 13:00:00 21.3 C 72 % 16.05 C
2750 15-06-2019 13:05:00 21 C 72 % 15.76 C
Sensor: Nr:Datum:Temp:Feuchte:Taupunkt:
Aussen-T/F 2751 15-06-2019 13:10:00 20.9 C 74 % 16.09 C
2752 15-06-2019 13:15:00 20.8 C 75 % 16.21 C
2753 15-06-2019 13:20:00 20.7 C 76 % 16.32 C
2754 15-06-2019 13:25:00 20.8 C 75 % 16.21 C
2755 15-06-2019 13:30:00 21.1 C 76 % 16.7 C
2756 15-06-2019 13:35:00 21.3 C 73 % 16.26 C
2757 15-06-2019 13:40:00 21.7 C 73 % 16.65 C
2758 15-06-2019 13:45:00 21.9 C 72 % 16.62 C
2759 15-06-2019 13:50:00 22 C 74 % 17.15 C
2760 15-06-2019 13:55:00 21.9 C 75 % 17.27 C
2761 15-06-2019 14:00:00 21.8 C 77 % 17.59 C
2762 15-06-2019 14:05:00 21.8 C 78 % 17.79 C
2763 15-06-2019 14:10:00 21.7 C 79 % 17.9 C
2764 15-06-2019 14:15:00 21.8 C 71 % 16.31 C
2765 15-06-2019 14:20:00 21.9 C 70 % 16.18 C
2766 15-06-2019 14:25:00 21.9 C 72 % 16.62 C
2767 15-06-2019 14:30:00 21.9 C 74 % 17.06 C
2768 15-06-2019 14:35:00 21.8 C 73 % 16.75 C
2769 15-06-2019 14:40:00 21.7 C 71 % 16.21 C
2770 15-06-2019 14:45:00 21.4 C 71 % 15.93 C
2771 15-06-2019 14:50:00 21.1 C 72 % 15.86 C
2772 15-06-2019 14:55:00 21.1 C 74 % 16.29 C
2773 15-06-2019 15:00:00 21.1 C 73 % 16.07 C
2774 15-06-2019 15:05:00 21.1 C 73 % 16.07 C
2775 15-06-2019 15:10:00 21.3 C 73 % 16.26 C
Sensor: Nr:Datum:Temp:Feuchte:Taupunkt:
Aussen-T/F 2776 15-06-2019 15:15:00 21.7 C 72 % 16.43 C
2777 15-06-2019 15:20:00 22.1 C 71 % 16.6 C
2778 15-06-2019 15:25:00 22.2 C 69 % 16.24 C
2779 15-06-2019 15:30:00 22.2 C 70 % 16.47 C
2780 15-06-2019 15:35:00 22.5 C 68 % 16.3 C
2781 15-06-2019 15:40:00 22.8 C 68 % 16.59 C
2782 15-06-2019 15:45:00 22.9 C 66 % 16.21 C
2783 15-06-2019 15:50:00 22.8 C 66 % 16.12 C
2784 15-06-2019 15:55:00 22.7 C 67 % 16.26 C
2785 15-06-2019 16:00:00 22.7 C 66 % 16.02 C
2786 15-06-2019 16:05:00 22.8 C 69 % 16.82 C
2787 15-06-2019 16:10:00 23.2 C 67 % 16.73 C
2788 15-06-2019 16:15:00 23.6 C 64 % 16.39 C
2789 15-06-2019 16:20:00 23.7 C 62 % 15.99 C
2790 15-06-2019 16:25:00 23.6 C 68 % 17.35 C
2791 15-06-2019 16:30:00 23.7 C 69 % 17.67 C
2792 15-06-2019 16:35:00 23.9 C 65 % 16.92 C
2793 15-06-2019 16:40:00 24.3 C 62 % 16.55 C
2794 15-06-2019 16:45:00 24.6 C 58 % 15.79 C
2795 15-06-2019 16:50:00 24.5 C 58 % 15.7 C
2796 15-06-2019 16:55:00 24.7 C 56 % 15.33 C
2797 15-06-2019 17:00:00 25 C 55 % 15.33 C
2798 15-06-2019 17:05:00 25.4 C 57 % 16.26 C
2799 15-06-2019 17:10:00 25.5 C 56 % 16.08 C
2800 15-06-2019 17:15:00 25.5 C 54 % 15.51 C
Sensor: Nr:Datum:Temp:Feuchte:Taupunkt:
Aussen-T/F 2801 15-06-2019 17:20:00 25.3 C 56 % 15.89 C
2802 15-06-2019 17:25:00 25.5 C 55 % 15.8 C
2803 15-06-2019 17:30:00 25.4 C 55 % 15.7 C
2804 15-06-2019 17:35:00 25.3 C 53 % 15.03 C
2805 15-06-2019 17:40:00 25.2 C 54 % 15.23 C
2806 15-06-2019 17:45:00 25.2 C 54 % 15.23 C
2807 15-06-2019 17:50:00 25.3 C 54 % 15.33 C
2808 15-06-2019 17:55:00 25.7 C 54 % 15.7 C
2809 15-06-2019 18:00:00 25.8 C 54 % 15.79 C
2810 15-06-2019 18:05:00 26 C 56 % 16.54 C
2811 15-06-2019 18:10:00 26.3 C 52 % 15.66 C
2812 15-06-2019 18:15:00 26.4 C 52 % 15.75 C
2813 15-06-2019 18:20:00 26.3 C 45 % 13.42 C
2814 15-06-2019 18:25:00 26.5 C 54 % 16.44 C
2815 15-06-2019 18:30:00 26.7 C 43 % 13.09 C
2816 15-06-2019 18:35:00 26.8 C 44 % 13.53 C
2817 15-06-2019 18:40:00 26.4 C 45 % 13.51 C
2818 15-06-2019 18:45:00 25.9 C 49 % 14.37 C
2819 15-06-2019 18:50:00 25.7 C 45 % 12.88 C
2820 15-06-2019 18:55:00 26.1 C 47 % 13.91 C
2821 15-06-2019 19:00:00 26.5 C 44 % 13.26 C
2822 15-06-2019 19:05:00 26.4 C 44 % 13.17 C
2823 15-06-2019 19:10:00 26.1 C 46 % 13.58 C
2824 15-06-2019 19:15:00 25.8 C 47 % 13.64 C
2825 15-06-2019 19:20:00 25.8 C 56 % 16.36 C
Sensor: Nr:Datum:Temp:Feuchte:Taupunkt:
Aussen-T/F 2826 15-06-2019 19:25:00 25.7 C 51 % 14.81 C
2827 15-06-2019 19:30:00 25.4 C 54 % 15.42 C
2828 15-06-2019 19:35:00 25.2 C 59 % 16.62 C
2829 15-06-2019 19:40:00 24.8 C 60 % 16.51 C
2830 15-06-2019 19:45:00 24.4 C 61 % 16.39 C
2831 15-06-2019 19:50:00 24.2 C 62 % 16.46 C
2832 15-06-2019 19:55:00 24 C 65 % 17.01 C
2833 15-06-2019 20:00:00 23.9 C 65 % 16.92 C
2834 15-06-2019 20:05:00 23.9 C 64 % 16.68 C
2835 15-06-2019 20:10:00 23.8 C 64 % 16.58 C
2836 15-06-2019 20:15:00 23.6 C 65 % 16.64 C
2837 15-06-2019 20:20:00 23.5 C 65 % 16.54 C
2838 15-06-2019 20:25:00 23.4 C 62 % 15.71 C
2839 15-06-2019 20:30:00 23.3 C 66 % 16.59 C
2840 15-06-2019 20:35:00 23.3 C 66 % 16.59 C
2841 15-06-2019 20:40:00 23.2 C 66 % 16.5 C
2842 15-06-2019 20:45:00 23.2 C 67 % 16.73 C
2843 15-06-2019 20:50:00 23.2 C 68 % 16.97 C
2844 15-06-2019 20:55:00 22.9 C 68 % 16.68 C
2845 15-06-2019 21:00:00 22.8 C 69 % 16.82 C
2846 15-06-2019 21:05:00 22.4 C 69 % 16.43 C
2847 15-06-2019 21:10:00 22.1 C 69 % 16.15 C
2848 15-06-2019 21:15:00 21.7 C 70 % 15.99 C
2849 15-06-2019 21:20:00 21.3 C 71 % 15.83 C
2850 15-06-2019 21:25:00 21.1 C 71 % 15.64 C
Sensor: Nr:Datum:Temp:Feuchte:Taupunkt:
Aussen-T/F 2851 15-06-2019 21:30:00 20.7 C 71 % 15.25 C
2852 15-06-2019 21:35:00 20.4 C 71 % 14.97 C
2853 15-06-2019 21:40:00 20.2 C 71 % 14.78 C
2854 15-06-2019 21:45:00 20.1 C 72 % 14.9 C
2855 15-06-2019 21:50:00 19.8 C 74 % 15.03 C
2856 15-06-2019 21:55:00 19.6 C 75 % 15.05 C
2857 15-06-2019 22:00:00 19.3 C 75 % 14.76 C
2858 15-06-2019 22:05:00 19.1 C 76 % 14.77 C
2859 15-06-2019 22:10:00 18.9 C 77 % 14.78 C
2860 15-06-2019 22:15:00 18.7 C 78 % 14.79 C
2861 15-06-2019 22:20:00 18.6 C 79 % 14.89 C
2862 15-06-2019 22:25:00 18.4 C 79 % 14.69 C
2863 15-06-2019 22:30:00 18.3 C 79 % 14.6 C
2864 15-06-2019 22:35:00 18.2 C 80 % 14.69 C
2865 15-06-2019 22:40:00 18.1 C 80 % 14.6 C
2866 15-06-2019 22:45:00 18.1 C 80 % 14.6 C
2867 15-06-2019 22:50:00 18.1 C 80 % 14.6 C
2868 15-06-2019 22:55:00 18 C 81 % 14.69 C
2869 15-06-2019 23:00:00 17.9 C 81 % 14.59 C
2870 15-06-2019 23:05:00 17.9 C 80 % 14.4 C
2871 15-06-2019 23:10:00 17.9 C 81 % 14.59 C
2872 15-06-2019 23:15:00 17.8 C 81 % 14.5 C
2873 15-06-2019 23:20:00 17.7 C 82 % 14.59 C
2874 15-06-2019 23:25:00 17.7 C 82 % 14.59 C
2875 15-06-2019 23:30:00 17.6 C 82 % 14.49 C
Sensor: Nr:Datum:Temp:Feuchte:Taupunkt:
Aussen-T/F 2876 15-06-2019 23:35:00 17.5 C 82 % 14.39 C
2877 15-06-2019 23:40:00 17.5 C 83 % 14.58 C
2878 15-06-2019 23:45:00 17.4 C 82 % 14.3 C
2879 15-06-2019 23:50:00 17.3 C 83 % 14.39 C
2880 15-06-2019 23:55:00 17.3 C 82 % 14.2 C
2881 16-06-2019 00:00:00 17.2 C 83 % 14.29 C
2882 16-06-2019 00:05:00 17.2 C 84 % 14.47 C
2883 16-06-2019 00:10:00 17.2 C 84 % 14.47 C
2884 16-06-2019 00:15:00 17.3 C 84 % 14.57 C
2885 16-06-2019 00:20:00 17.3 C 84 % 14.57 C
2886 16-06-2019 00:25:00 17.3 C 84 % 14.57 C
2887 16-06-2019 00:30:00 17.3 C 83 % 14.39 C
2888 16-06-2019 00:35:00 17.3 C 83 % 14.39 C
2889 16-06-2019 00:40:00 17.4 C 82 % 14.3 C
2890 16-06-2019 00:45:00 17.3 C 82 % 14.2 C
2891 16-06-2019 00:50:00 17.4 C 83 % 14.48 C
2892 16-06-2019 00:55:00 17.4 C 83 % 14.48 C
2893 16-06-2019 01:00:00 17.4 C 83 % 14.48 C
2894 16-06-2019 01:05:00 17.4 C 83 % 14.48 C
2895 16-06-2019 01:10:00 17.4 C 83 % 14.48 C
2896 16-06-2019 01:15:00 17.4 C 84 % 14.67 C
2897 16-06-2019 01:20:00 17.4 C 83 % 14.48 C
2898 16-06-2019 01:25:00 17.4 C 83 % 14.48 C
2899 16-06-2019 01:30:00 17.4 C 83 % 14.48 C
2900 16-06-2019 01:35:00 17.4 C 83 % 14.48 C
Sensor: Nr:Datum:Temp:Feuchte:Taupunkt:
Aussen-T/F 2901 16-06-2019 01:40:00 17.4 C 83 % 14.48 C
2902 16-06-2019 01:45:00 17.4 C 83 % 14.48 C
2903 16-06-2019 01:50:00 17.4 C 83 % 14.48 C
2904 16-06-2019 01:55:00 17.4 C 83 % 14.48 C
2905 16-06-2019 02:00:00 17.4 C 83 % 14.48 C
2906 16-06-2019 02:05:00 17.3 C 83 % 14.39 C
2907 16-06-2019 02:10:00 17.3 C 84 % 14.57 C
2908 16-06-2019 02:15:00 17.2 C 84 % 14.47 C
2909 16-06-2019 02:20:00 17.2 C 83 % 14.29 C
2910 16-06-2019 02:25:00 17.2 C 84 % 14.47 C
2911 16-06-2019 02:30:00 17.2 C 84 % 14.47 C
2912 16-06-2019 02:35:00 17.1 C 84 % 14.38 C
2913 16-06-2019 02:40:00 17.1 C 84 % 14.38 C
2914 16-06-2019 02:45:00 17.1 C 84 % 14.38 C
2915 16-06-2019 02:50:00 17.1 C 85 % 14.56 C
2916 16-06-2019 02:55:00 17.1 C 85 % 14.56 C
2917 16-06-2019 03:00:00 17 C 85 % 14.46 C
2918 16-06-2019 03:05:00 17 C 85 % 14.46 C
2919 16-06-2019 03:10:00 16.9 C 85 % 14.36 C
2920 16-06-2019 03:15:00 16.9 C 85 % 14.36 C
2921 16-06-2019 03:20:00 16.9 C 85 % 14.36 C
2922 16-06-2019 03:25:00 16.9 C 85 % 14.36 C
2923 16-06-2019 03:30:00 16.9 C 85 % 14.36 C
2924 16-06-2019 03:35:00 16.8 C 85 % 14.26 C
2925 16-06-2019 03:40:00 16.8 C 84 % 14.08 C
Sensor: Nr:Datum:Temp:Feuchte:Taupunkt:
Aussen-T/F 2926 16-06-2019 03:45:00 16.9 C 84 % 14.18 C
2927 16-06-2019 03:50:00 16.9 C 83 % 14 C
2928 16-06-2019 03:55:00 16.9 C 83 % 14 C
2929 16-06-2019 04:00:00 17.1 C 82 % 14 C
2930 16-06-2019 04:05:00 17.2 C 82 % 14.1 C
2931 16-06-2019 04:10:00 17.2 C 81 % 13.91 C
2932 16-06-2019 04:15:00 17.3 C 81 % 14.01 C
2933 16-06-2019 04:20:00 17.3 C 82 % 14.2 C
2934 16-06-2019 04:25:00 17.2 C 82 % 14.1 C
2935 16-06-2019 04:30:00 17.2 C 82 % 14.1 C
2936 16-06-2019 04:35:00 17.1 C 83 % 14.19 C
2937 16-06-2019 04:40:00 17 C 83 % 14.09 C
2938 16-06-2019 04:45:00 16.9 C 83 % 14 C
2939 16-06-2019 04:50:00 16.8 C 84 % 14.08 C
2940 16-06-2019 04:55:00 16.7 C 84 % 13.98 C
2941 16-06-2019 05:00:00 16.7 C 84 % 13.98 C
2942 16-06-2019 05:05:00 16.6 C 84 % 13.89 C
2943 16-06-2019 05:10:00 16.5 C 84 % 13.79 C
2944 16-06-2019 05:15:00 16.4 C 85 % 13.87 C
2945 16-06-2019 05:20:00 16.3 C 85 % 13.77 C
2946 16-06-2019 05:25:00 16.3 C 85 % 13.77 C
2947 16-06-2019 05:30:00 16.3 C 85 % 13.77 C
2948 16-06-2019 05:35:00 16.2 C 84 % 13.5 C
2949 16-06-2019 05:40:00 16.2 C 86 % 13.86 C
2950 16-06-2019 05:45:00 16.1 C 86 % 13.76 C
Sensor: Nr:Datum:Temp:Feuchte:Taupunkt:
Aussen-T/F 2951 16-06-2019 05:50:00 16.1 C 87 % 13.94 C
2952 16-06-2019 05:55:00 15.9 C 87 % 13.74 C
2953 16-06-2019 06:00:00 15.8 C 87 % 13.64 C
2954 16-06-2019 06:05:00 15.7 C 88 % 13.72 C
2955 16-06-2019 06:10:00 15.7 C 88 % 13.72 C
2956 16-06-2019 06:15:00 15.6 C 88 % 13.62 C
2957 16-06-2019 06:20:00 15.4 C 89 % 13.6 C
2958 16-06-2019 06:25:00 15.4 C 89 % 13.6 C
2959 16-06-2019 06:30:00 15.4 C 90 % 13.77 C
2960 16-06-2019 06:35:00 15.4 C 90 % 13.77 C
2961 16-06-2019 06:40:00 15.3 C 91 % 13.84 C
2962 16-06-2019 06:45:00 15.3 C 91 % 13.84 C
2963 16-06-2019 06:50:00 15.3 C 91 % 13.84 C
2964 16-06-2019 06:55:00 15.3 C 91 % 13.84 C
2965 16-06-2019 07:00:00 15.3 C 91 % 13.84 C
2966 16-06-2019 07:05:00 15.3 C 92 % 14.01 C
2967 16-06-2019 07:10:00 15.3 C 92 % 14.01 C
2968 16-06-2019 07:15:00 15.4 C 92 % 14.11 C
2969 16-06-2019 07:20:00 15.5 C 92 % 14.21 C
2970 16-06-2019 07:25:00 15.5 C 92 % 14.21 C
2971 16-06-2019 07:30:00 15.6 C 92 % 14.31 C
2972 16-06-2019 07:35:00 15.6 C 91 % 14.14 C
2973 16-06-2019 07:40:00 15.6 C 91 % 14.14 C
2974 16-06-2019 07:45:00 15.7 C 90 % 14.06 C
2975 16-06-2019 07:50:00 15.8 C 90 % 14.16 C
Sensor: Nr:Datum:Temp:Feuchte:Taupunkt:
Aussen-T/F 2976 16-06-2019 07:55:00 16 C 91 % 14.53 C
2977 16-06-2019 08:00:00 16.1 C 91 % 14.63 C
2978 16-06-2019 08:05:00 16.2 C 91 % 14.73 C
2979 16-06-2019 08:10:00 16.2 C 91 % 14.73 C
2980 16-06-2019 08:15:00 16.1 C 89 % 14.29 C
2981 16-06-2019 08:20:00 16.1 C 90 % 14.46 C
2982 16-06-2019 08:25:00 16.1 C 90 % 14.46 C
2983 16-06-2019 08:30:00 16.1 C 90 % 14.46 C
2984 16-06-2019 08:35:00 16.1 C 90 % 14.46 C
2985 16-06-2019 08:40:00 15.9 C 89 % 14.09 C
2986 16-06-2019 08:45:00 15.9 C 89 % 14.09 C
2987 16-06-2019 08:50:00 15.8 C 88 % 13.82 C
2988 16-06-2019 08:55:00 15.9 C 89 % 14.09 C
2989 16-06-2019 09:00:00 16.1 C 89 % 14.29 C
2990 16-06-2019 09:05:00 16.2 C 87 % 14.03 C
2991 16-06-2019 09:10:00 16.3 C 84 % 13.59 C
2992 16-06-2019 09:15:00 16.6 C 85 % 14.07 C
2993 16-06-2019 09:20:00 16.6 C 83 % 13.7 C
2994 16-06-2019 09:25:00 16.9 C 80 % 13.43 C
2995 16-06-2019 09:30:00 17.2 C 79 % 13.53 C
2996 16-06-2019 09:35:00 17.4 C 78 % 13.53 C
2997 16-06-2019 09:40:00 17.6 C 77 % 13.52 C
2998 16-06-2019 09:45:00 17.8 C 79 % 14.11 C
2999 16-06-2019 09:50:00 17.8 C 77 % 13.72 C
3000 16-06-2019 09:55:00 18 C 77 % 13.91 C
Sensor: Nr:Datum:Temp:Feuchte:Taupunkt:
Aussen-T/F 3001 16-06-2019 10:00:00 18.1 C 77 % 14.01 C
3002 16-06-2019 10:05:00 18.2 C 74 % 13.49 C
3003 16-06-2019 10:10:00 18.4 C 73 % 13.48 C
3004 16-06-2019 10:15:00 18.7 C 73 % 13.76 C
3005 16-06-2019 10:20:00 19.1 C 71 % 13.72 C
3006 16-06-2019 10:25:00 19.4 C 71 % 14.01 C
3007 16-06-2019 10:30:00 19.7 C 67 % 13.4 C
3008 16-06-2019 10:35:00 19.8 C 72 % 14.61 C
3009 16-06-2019 10:40:00 19.9 C 67 % 13.59 C
3010 16-06-2019 10:45:00 19.9 C 64 % 12.89 C
3011 16-06-2019 10:50:00 20.1 C 64 % 13.08 C
3012 16-06-2019 10:55:00 20.3 C 64 % 13.27 C
3013 16-06-2019 11:00:00 20.6 C 63 % 13.31 C
3014 16-06-2019 11:05:00 20.7 C 61 % 12.91 C
3015 16-06-2019 11:10:00 20.7 C 63 % 13.41 C
3016 16-06-2019 11:15:00 20.7 C 64 % 13.65 C
3017 16-06-2019 11:20:00 20.8 C 57 % 11.97 C
3018 16-06-2019 11:25:00 21.1 C 57 % 12.25 C
3019 16-06-2019 11:30:00 21.2 C 59 % 12.87 C
3020 16-06-2019 11:35:00 21.1 C 58 % 12.52 C
3021 16-06-2019 11:40:00 21 C 61 % 13.2 C
3022 16-06-2019 11:45:00 20.8 C 62 % 13.26 C
3023 16-06-2019 11:50:00 20.7 C 62 % 13.16 C
3024 16-06-2019 11:55:00 20.7 C 61 % 12.91 C
3025 16-06-2019 12:00:00 20.7 C 61 % 12.91 C
Sensor: Nr:Datum:Temp:Feuchte:Taupunkt:
Aussen-T/F 3026 16-06-2019 12:05:00 20.8 C 61 % 13.01 C
3027 16-06-2019 12:10:00 20.9 C 61 % 13.1 C
3028 16-06-2019 12:15:00 21.1 C 61 % 13.29 C
3029 16-06-2019 12:20:00 21.3 C 57 % 12.44 C
3030 16-06-2019 12:25:00 21.6 C 59 % 13.25 C
3031 16-06-2019 12:30:00 21.7 C 56 % 12.54 C
3032 16-06-2019 12:35:00 21.5 C 59 % 13.15 C
3033 16-06-2019 12:40:00 21.6 C 60 % 13.51 C
3034 16-06-2019 12:45:00 21.6 C 59 % 13.25 C
3035 16-06-2019 12:50:00 21.6 C 58 % 12.99 C
3036 16-06-2019 12:55:00 21.7 C 58 % 13.08 C
3037 16-06-2019 13:00:00 21.8 C 54 % 12.08 C
3038 16-06-2019 13:05:00 22.1 C 55 % 12.64 C
3039 16-06-2019 13:10:00 22.2 C 51 % 11.59 C
3040 16-06-2019 13:15:00 22.2 C 55 % 12.73 C
3041 16-06-2019 13:20:00 22.4 C 56 % 13.2 C
3042 16-06-2019 13:25:00 22.6 C 55 % 13.11 C
3043 16-06-2019 13:30:00 22.5 C 54 % 12.73 C
3044 16-06-2019 13:35:00 22.6 C 57 % 13.65 C
3045 16-06-2019 13:40:00 22.5 C 56 % 13.29 C
3046 16-06-2019 13:45:00 22.5 C 53 % 12.45 C
3047 16-06-2019 13:50:00 22.4 C 57 % 13.47 C
3048 16-06-2019 13:55:00 22.4 C 54 % 12.64 C
3049 16-06-2019 14:00:00 22.4 C 57 % 13.47 C
3050 16-06-2019 14:05:00 22.3 C 55 % 12.83 C
Sensor: Nr:Datum:Temp:Feuchte:Taupunkt:
Aussen-T/F 3051 16-06-2019 14:10:00 22.3 C 55 % 12.83 C
3052 16-06-2019 14:15:00 22.4 C 58 % 13.73 C
3053 16-06-2019 14:20:00 22.5 C 57 % 13.56 C
3054 16-06-2019 14:25:00 22.7 C 56 % 13.47 C
3055 16-06-2019 14:30:00 22.9 C 54 % 13.1 C
3056 16-06-2019 14:35:00 22.9 C 55 % 13.38 C
3057 16-06-2019 14:40:00 22.8 C 57 % 13.84 C
3058 16-06-2019 14:45:00 22.7 C 55 % 13.2 C
3059 16-06-2019 14:50:00 22.6 C 55 % 13.11 C
3060 16-06-2019 14:55:00 22.3 C 57 % 13.37 C
3061 16-06-2019 15:00:00 22.1 C 59 % 13.72 C
3062 16-06-2019 15:05:00 22 C 57 % 13.09 C
3063 16-06-2019 15:10:00 22.1 C 57 % 13.19 C
3064 16-06-2019 15:15:00 22.4 C 58 % 13.73 C
3065 16-06-2019 15:20:00 22.6 C 55 % 13.11 C
3066 16-06-2019 15:25:00 22.8 C 56 % 13.57 C
3067 16-06-2019 15:30:00 23.2 C 55 % 13.66 C
3068 16-06-2019 15:35:00 23.3 C 52 % 12.9 C
3069 16-06-2019 15:40:00 23.8 C 53 % 13.65 C
3070 16-06-2019 15:45:00 24.1 C 53 % 13.93 C
3071 16-06-2019 15:50:00 24.1 C 52 % 13.63 C
3072 16-06-2019 15:55:00 23.9 C 52 % 13.45 C
3073 16-06-2019 16:00:00 23.7 C 53 % 13.56 C
3074 16-06-2019 16:05:00 23.4 C 55 % 13.85 C
3075 16-06-2019 16:10:00 23.5 C 54 % 13.66 C
Sensor: Nr:Datum:Temp:Feuchte:Taupunkt:
Aussen-T/F 3076 16-06-2019 16:15:00 23.6 C 53 % 13.46 C
3077 16-06-2019 16:20:00 23.3 C 54 % 13.47 C
3078 16-06-2019 16:25:00 23.3 C 55 % 13.76 C
3079 16-06-2019 16:30:00 23.2 C 56 % 13.94 C
3080 16-06-2019 16:35:00 23.1 C 55 % 13.57 C
3081 16-06-2019 16:40:00 23 C 55 % 13.48 C
3082 16-06-2019 16:45:00 22.9 C 58 % 14.2 C
3083 16-06-2019 16:50:00 22.9 C 56 % 13.66 C
3084 16-06-2019 16:55:00 22.8 C 57 % 13.84 C
3085 16-06-2019 17:00:00 22.7 C 59 % 14.28 C
3086 16-06-2019 17:05:00 22.5 C 57 % 13.56 C
3087 16-06-2019 17:10:00 22.3 C 58 % 13.64 C
3088 16-06-2019 17:15:00 22.2 C 59 % 13.81 C
3089 16-06-2019 17:20:00 22.1 C 59 % 13.72 C
3090 16-06-2019 17:25:00 22.1 C 61 % 14.23 C
3091 16-06-2019 17:30:00 22.1 C 59 % 13.72 C
3092 16-06-2019 17:35:00 22.1 C 60 % 13.98 C
3093 16-06-2019 17:40:00 22.1 C 59 % 13.72 C
3094 16-06-2019 17:45:00 22.2 C 60 % 14.07 C
3095 16-06-2019 17:50:00 22.3 C 56 % 13.1 C
3096 16-06-2019 17:55:00 22.6 C 56 % 13.38 C
3097 16-06-2019 18:00:00 22.8 C 54 % 13.01 C
3098 16-06-2019 18:05:00 23 C 56 % 13.75 C
3099 16-06-2019 18:10:00 22.9 C 54 % 13.1 C
3100 16-06-2019 18:15:00 23.2 C 54 % 13.38 C
Sensor: Nr:Datum:Temp:Feuchte:Taupunkt:
Aussen-T/F 3101 16-06-2019 18:20:00 23.6 C 53 % 13.46 C
3102 16-06-2019 18:25:00 24.1 C 53 % 13.93 C
3103 16-06-2019 18:30:00 24.6 C 51 % 13.79 C
3104 16-06-2019 18:35:00 24.6 C 50 % 13.49 C
3105 16-06-2019 18:40:00 24.7 C 50 % 13.58 C
3106 16-06-2019 18:45:00 24.9 C 49 % 13.46 C
3107 16-06-2019 18:50:00 25 C 49 % 13.55 C
3108 16-06-2019 18:55:00 25.1 C 48 % 13.32 C
3109 16-06-2019 19:00:00 25.1 C 49 % 13.64 C
3110 16-06-2019 19:05:00 25.1 C 49 % 13.64 C
3111 16-06-2019 19:10:00 25.1 C 47 % 13 C
3112 16-06-2019 19:15:00 25.1 C 48 % 13.32 C
3113 16-06-2019 19:20:00 24.7 C 48 % 12.96 C
3114 16-06-2019 19:25:00 23.8 C 50 % 12.76 C
3115 16-06-2019 19:30:00 23.1 C 53 % 13 C
3116 16-06-2019 19:35:00 22.6 C 59 % 14.18 C
3117 16-06-2019 19:40:00 22.3 C 60 % 14.16 C
3118 16-06-2019 19:45:00 22.1 C 63 % 14.73 C
3119 16-06-2019 19:50:00 21.8 C 65 % 14.93 C
3120 16-06-2019 19:55:00 21.8 C 65 % 14.93 C
3121 16-06-2019 20:00:00 21.9 C 65 % 15.02 C
3122 16-06-2019 20:05:00 22 C 65 % 15.12 C
3123 16-06-2019 20:10:00 22.2 C 65 % 15.31 C
3124 16-06-2019 20:15:00 22.6 C 54 % 12.83 C
3125 16-06-2019 20:20:00 22.9 C 55 % 13.38 C
Sensor: Nr:Datum:Temp:Feuchte:Taupunkt:
Aussen-T/F 3126 16-06-2019 20:25:00 23.1 C 54 % 13.29 C
3127 16-06-2019 20:30:00 23.1 C 53 % 13 C
3128 16-06-2019 20:35:00 22.9 C 54 % 13.1 C
3129 16-06-2019 20:40:00 22.8 C 54 % 13.01 C
3130 16-06-2019 20:45:00 22.7 C 56 % 13.47 C
3131 16-06-2019 20:50:00 22.7 C 57 % 13.75 C
3132 16-06-2019 20:55:00 22.5 C 62 % 14.86 C
3133 16-06-2019 21:00:00 22.3 C 64 % 15.16 C
3134 16-06-2019 21:05:00 21.9 C 65 % 15.02 C
3135 16-06-2019 21:10:00 21.6 C 65 % 14.74 C
3136 16-06-2019 21:15:00 21.2 C 65 % 14.36 C
3137 16-06-2019 21:20:00 20.8 C 67 % 14.45 C
3138 16-06-2019 21:25:00 20.4 C 67 % 14.07 C
3139 16-06-2019 21:30:00 20 C 68 % 13.92 C
3140 16-06-2019 21:35:00 19.6 C 69 % 13.76 C
3141 16-06-2019 21:40:00 19.3 C 70 % 13.69 C
3142 16-06-2019 21:45:00 19.1 C 70 % 13.5 C
3143 16-06-2019 21:50:00 18.8 C 71 % 13.43 C
3144 16-06-2019 21:55:00 18.5 C 72 % 13.36 C
3145 16-06-2019 22:00:00 18.3 C 72 % 13.17 C
3146 16-06-2019 22:05:00 18.1 C 73 % 13.19 C
3147 16-06-2019 22:10:00 17.8 C 74 % 13.11 C
3148 16-06-2019 22:15:00 17.7 C 75 % 13.22 C
3149 16-06-2019 22:20:00 17.5 C 76 % 13.23 C
3150 16-06-2019 22:25:00 17.3 C 76 % 13.03 C
Sensor: Nr:Datum:Temp:Feuchte:Taupunkt:
Aussen-T/F 3151 16-06-2019 22:30:00 17.2 C 77 % 13.14 C
3152 16-06-2019 22:35:00 17 C 78 % 13.14 C
3153 16-06-2019 22:40:00 16.8 C 78 % 12.94 C
3154 16-06-2019 22:45:00 16.5 C 79 % 12.85 C
3155 16-06-2019 22:50:00 16.3 C 80 % 12.85 C
3156 16-06-2019 22:55:00 16.1 C 81 % 12.84 C
3157 16-06-2019 23:00:00 15.9 C 81 % 12.65 C
3158 16-06-2019 23:05:00 15.8 C 82 % 12.74 C
3159 16-06-2019 23:10:00 15.7 C 82 % 12.64 C
3160 16-06-2019 23:15:00 15.6 C 83 % 12.72 C
3161 16-06-2019 23:20:00 15.4 C 83 % 12.53 C
3162 16-06-2019 23:25:00 15.3 C 83 % 12.43 C
3163 16-06-2019 23:30:00 15.3 C 83 % 12.43 C
3164 16-06-2019 23:35:00 15.2 C 83 % 12.33 C
3165 16-06-2019 23:40:00 15.1 C 84 % 12.42 C
3166 16-06-2019 23:45:00 15 C 83 % 12.14 C
3167 16-06-2019 23:50:00 15 C 83 % 12.14 C
3168 16-06-2019 23:55:00 14.9 C 83 % 12.04 C
3169 17-06-2019 00:00:00 14.7 C 84 % 12.03 C
3170 17-06-2019 00:05:00 14.6 C 84 % 11.93 C
3171 17-06-2019 00:10:00 14.4 C 85 % 11.91 C
3172 17-06-2019 00:15:00 14.3 C 85 % 11.81 C
3173 17-06-2019 00:20:00 14.2 C 85 % 11.72 C
3174 17-06-2019 00:25:00 14.2 C 86 % 11.89 C
3175 17-06-2019 00:30:00 14.1 C 86 % 11.8 C
Sensor: Nr:Datum:Temp:Feuchte:Taupunkt:
Aussen-T/F 3176 17-06-2019 00:35:00 14 C 86 % 11.7 C
3177 17-06-2019 00:40:00 13.9 C 86 % 11.6 C
3178 17-06-2019 00:45:00 13.8 C 87 % 11.68 C
3179 17-06-2019 00:50:00 13.8 C 87 % 11.68 C
3180 17-06-2019 00:55:00 13.7 C 87 % 11.58 C
3181 17-06-2019 01:00:00 13.7 C 87 % 11.58 C
3182 17-06-2019 01:05:00 13.7 C 88 % 11.75 C
3183 17-06-2019 01:10:00 13.6 C 88 % 11.65 C
3184 17-06-2019 01:15:00 13.5 C 88 % 11.55 C
3185 17-06-2019 01:20:00 13.4 C 88 % 11.45 C
3186 17-06-2019 01:25:00 13.4 C 88 % 11.45 C
3187 17-06-2019 01:30:00 13.3 C 88 % 11.36 C
3188 17-06-2019 01:35:00 13.2 C 88 % 11.26 C
3189 17-06-2019 01:40:00 13.1 C 89 % 11.33 C
3190 17-06-2019 01:45:00 13.1 C 89 % 11.33 C
3191 17-06-2019 01:50:00 12.9 C 89 % 11.13 C
3192 17-06-2019 01:55:00 12.9 C 89 % 11.13 C
3193 17-06-2019 02:00:00 12.8 C 90 % 11.2 C
3194 17-06-2019 02:05:00 12.8 C 90 % 11.2 C
3195 17-06-2019 02:10:00 12.8 C 90 % 11.2 C
3196 17-06-2019 02:15:00 12.8 C 90 % 11.2 C
3197 17-06-2019 02:20:00 12.7 C 90 % 11.1 C
3198 17-06-2019 02:25:00 12.7 C 90 % 11.1 C
3199 17-06-2019 02:30:00 12.7 C 90 % 11.1 C
3200 17-06-2019 02:35:00 12.6 C 91 % 11.17 C
Sensor: Nr:Datum:Temp:Feuchte:Taupunkt:
Aussen-T/F 3201 17-06-2019 02:40:00 12.5 C 91 % 11.07 C
3202 17-06-2019 02:45:00 12.4 C 91 % 10.97 C
3203 17-06-2019 02:50:00 12.4 C 91 % 10.97 C
3204 17-06-2019 02:55:00 12.3 C 91 % 10.87 C
3205 17-06-2019 03:00:00 12.3 C 91 % 10.87 C
3206 17-06-2019 03:05:00 12.2 C 91 % 10.78 C
3207 17-06-2019 03:10:00 12.1 C 91 % 10.68 C
3208 17-06-2019 03:15:00 12.1 C 92 % 10.84 C
3209 17-06-2019 03:20:00 12.1 C 92 % 10.84 C
3210 17-06-2019 03:25:00 11.9 C 92 % 10.64 C
3211 17-06-2019 03:30:00 11.9 C 92 % 10.64 C
3212 17-06-2019 03:35:00 11.9 C 92 % 10.64 C
3213 17-06-2019 03:40:00 11.8 C 92 % 10.54 C
3214 17-06-2019 03:45:00 11.8 C 92 % 10.54 C
3215 17-06-2019 03:50:00 11.7 C 92 % 10.44 C
3216 17-06-2019 03:55:00 11.7 C 93 % 10.61 C
3217 17-06-2019 04:00:00 11.7 C 93 % 10.61 C
3218 17-06-2019 04:05:00 11.6 C 93 % 10.51 C
3219 17-06-2019 04:10:00 11.6 C 93 % 10.51 C
3220 17-06-2019 04:15:00 11.6 C 93 % 10.51 C
3221 17-06-2019 04:20:00 11.5 C 93 % 10.41 C
3222 17-06-2019 04:25:00 11.4 C 93 % 10.31 C
3223 17-06-2019 04:30:00 11.4 C 93 % 10.31 C
3224 17-06-2019 04:35:00 11.3 C 93 % 10.21 C
3225 17-06-2019 04:40:00 11.3 C 93 % 10.21 C
Sensor: Nr:Datum:Temp:Feuchte:Taupunkt:
Aussen-T/F 3226 17-06-2019 04:45:00 11.3 C 93 % 10.21 C
3227 17-06-2019 04:50:00 11.3 C 93 % 10.21 C
3228 17-06-2019 04:55:00 11.2 C 93 % 10.11 C
3229 17-06-2019 05:00:00 11.1 C 94 % 10.17 C
3230 17-06-2019 05:05:00 11.1 C 93 % 10.01 C
3231 17-06-2019 05:10:00 11.1 C 94 % 10.17 C
3232 17-06-2019 05:15:00 11.1 C 94 % 10.17 C
3233 17-06-2019 05:20:00 11.1 C 94 % 10.17 C
3234 17-06-2019 05:25:00 11.1 C 94 % 10.17 C
3235 17-06-2019 05:30:00 11.1 C 94 % 10.17 C
3236 17-06-2019 05:35:00 11.1 C 94 % 10.17 C
3237 17-06-2019 05:40:00 11.1 C 94 % 10.17 C
3238 17-06-2019 05:45:00 11.1 C 94 % 10.17 C
3239 17-06-2019 05:50:00 11 C 94 % 10.07 C
3240 17-06-2019 05:55:00 10.9 C 94 % 9.97 C
3241 17-06-2019 06:00:00 10.9 C 95 % 10.13 C
3242 17-06-2019 06:05:00 11 C 95 % 10.23 C
3243 17-06-2019 06:10:00 11.1 C 95 % 10.33 C
3244 17-06-2019 06:15:00 11.1 C 95 % 10.33 C
3245 17-06-2019 06:20:00 11 C 95 % 10.23 C
3246 17-06-2019 06:25:00 11.1 C 95 % 10.33 C
3247 17-06-2019 06:30:00 11.1 C 95 % 10.33 C
3248 17-06-2019 06:35:00 11.1 C 95 % 10.33 C
3249 17-06-2019 06:40:00 11.1 C 95 % 10.33 C
3250 17-06-2019 06:45:00 11.1 C 95 % 10.33 C
Sensor: Nr:Datum:Temp:Feuchte:Taupunkt:
Aussen-T/F 3251 17-06-2019 06:50:00 11.2 C 95 % 10.43 C
3252 17-06-2019 06:55:00 11.2 C 95 % 10.43 C
3253 17-06-2019 07:00:00 11.2 C 95 % 10.43 C
3254 17-06-2019 07:05:00 11.3 C 95 % 10.53 C
3255 17-06-2019 07:10:00 11.3 C 95 % 10.53 C
3256 17-06-2019 07:15:00 11.4 C 95 % 10.63 C
3257 17-06-2019 07:20:00 11.4 C 95 % 10.63 C
3258 17-06-2019 07:25:00 11.6 C 95 % 10.83 C
3259 17-06-2019 07:30:00 11.6 C 95 % 10.83 C
3260 17-06-2019 07:35:00 11.7 C 96 % 11.08 C
3261 17-06-2019 07:40:00 11.7 C 95 % 10.93 C
3262 17-06-2019 07:45:00 11.8 C 95 % 11.03 C
3263 17-06-2019 07:50:00 11.9 C 96 % 11.28 C
3264 17-06-2019 07:55:00 12 C 96 % 11.38 C
3265 17-06-2019 08:00:00 12.1 C 96 % 11.48 C
3266 17-06-2019 08:05:00 12.2 C 96 % 11.58 C
3267 17-06-2019 08:10:00 12.3 C 96 % 11.68 C
3268 17-06-2019 08:15:00 12.3 C 96 % 11.68 C
3269 17-06-2019 08:20:00 12.4 C 96 % 11.78 C
3270 17-06-2019 08:25:00 12.6 C 96 % 11.98 C
3271 17-06-2019 08:30:00 12.7 C 96 % 12.08 C
3272 17-06-2019 08:35:00 12.8 C 96 % 12.18 C
3273 17-06-2019 08:40:00 12.9 C 96 % 12.28 C
3274 17-06-2019 08:45:00 13.1 C 96 % 12.48 C
3275 17-06-2019 08:50:00 13.2 C 96 % 12.58 C
Sensor: Nr:Datum:Temp:Feuchte:Taupunkt:
Aussen-T/F 3276 17-06-2019 08:55:00 13.4 C 96 % 12.78 C
3277 17-06-2019 09:00:00 13.5 C 96 % 12.87 C
3278 17-06-2019 09:05:00 13.7 C 96 % 13.07 C
3279 17-06-2019 09:10:00 13.8 C 96 % 13.17 C
3280 17-06-2019 09:15:00 14 C 96 % 13.37 C
3281 17-06-2019 09:20:00 14.2 C 95 % 13.41 C
3282 17-06-2019 09:25:00 14.3 C 95 % 13.51 C
3283 17-06-2019 09:30:00 14.4 C 95 % 13.61 C
3284 17-06-2019 09:35:00 14.7 C 95 % 13.91 C
3285 17-06-2019 09:40:00 14.9 C 94 % 13.94 C
3286 17-06-2019 09:45:00 15.1 C 94 % 14.14 C
3287 17-06-2019 09:50:00 15.4 C 93 % 14.27 C
3288 17-06-2019 09:55:00 15.6 C 93 % 14.47 C
3289 17-06-2019 10:00:00 15.8 C 93 % 14.67 C
3290 17-06-2019 10:05:00 16.1 C 92 % 14.8 C
3291 17-06-2019 10:10:00 16.4 C 91 % 14.93 C
3292 17-06-2019 10:15:00 16.9 C 90 % 15.25 C
3293 17-06-2019 10:20:00 17.4 C 87 % 15.21 C
3294 17-06-2019 10:25:00 18.1 C 84 % 15.35 C
3295 17-06-2019 10:30:00 18.9 C 82 % 15.76 C
3296 17-06-2019 10:35:00 19.6 C 79 % 15.86 C
3297 17-06-2019 10:40:00 20.2 C 75 % 15.63 C
3298 17-06-2019 10:45:00 20.9 C 75 % 16.3 C
3299 17-06-2019 10:50:00 21.3 C 70 % 15.61 C
3300 17-06-2019 10:55:00 21.5 C 67 % 15.12 C
Sensor: Nr:Datum:Temp:Feuchte:Taupunkt:
Aussen-T/F 3301 17-06-2019 11:00:00 21.7 C 65 % 14.84 C
3302 17-06-2019 11:05:00 21.7 C 65 % 14.84 C
3303 17-06-2019 11:10:00 21.9 C 69 % 15.96 C
3304 17-06-2019 11:15:00 22.1 C 64 % 14.97 C
3305 17-06-2019 11:20:00 22.2 C 63 % 14.82 C
3306 17-06-2019 11:25:00 22.4 C 62 % 14.76 C
3307 17-06-2019 11:30:00 22.4 C 61 % 14.51 C
3308 17-06-2019 11:35:00 22.5 C 64 % 15.35 C
3309 17-06-2019 11:40:00 22.6 C 62 % 14.95 C
3310 17-06-2019 11:45:00 22.7 C 61 % 14.79 C
3311 17-06-2019 11:50:00 22.8 C 60 % 14.63 C
3312 17-06-2019 11:55:00 22.8 C 60 % 14.63 C
3313 17-06-2019 12:00:00 23 C 58 % 14.29 C
3314 17-06-2019 12:05:00 23.2 C 59 % 14.75 C
3315 17-06-2019 12:10:00 23.3 C 59 % 14.84 C
3316 17-06-2019 12:15:00 23.4 C 59 % 14.93 C
3317 17-06-2019 12:20:00 23.4 C 61 % 15.45 C
3318 17-06-2019 12:25:00 23.5 C 57 % 14.49 C
3319 17-06-2019 12:30:00 23.4 C 57 % 14.4 C
3320 17-06-2019 12:35:00 23.4 C 58 % 14.67 C
3321 17-06-2019 12:40:00 23.6 C 59 % 15.12 C
3322 17-06-2019 12:45:00 23.7 C 57 % 14.68 C
3323 17-06-2019 12:50:00 23.8 C 57 % 14.77 C
3324 17-06-2019 12:55:00 24 C 57 % 14.96 C
3325 17-06-2019 13:00:00 24 C 57 % 14.96 C
Sensor: Nr:Datum:Temp:Feuchte:Taupunkt:
Aussen-T/F 3326 17-06-2019 13:05:00 24.1 C 56 % 14.78 C
3327 17-06-2019 13:10:00 24.2 C 55 % 14.59 C
3328 17-06-2019 13:15:00 24.4 C 55 % 14.78 C
3329 17-06-2019 13:20:00 24.5 C 55 % 14.87 C
3330 17-06-2019 13:25:00 24.6 C 54 % 14.68 C
3331 17-06-2019 13:30:00 24.6 C 54 % 14.68 C
3332 17-06-2019 13:35:00 24.6 C 59 % 16.06 C
3333 17-06-2019 13:40:00 24.4 C 56 % 15.06 C
3334 17-06-2019 13:45:00 24.4 C 53 % 14.2 C
3335 17-06-2019 13:50:00 24.7 C 52 % 14.19 C
3336 17-06-2019 13:55:00 25 C 51 % 14.16 C
3337 17-06-2019 14:00:00 25.2 C 54 % 15.23 C
3338 17-06-2019 14:05:00 25.1 C 52 % 14.55 C
3339 17-06-2019 14:10:00 25 C 55 % 15.33 C
3340 17-06-2019 14:15:00 25.1 C 51 % 14.25 C
3341 17-06-2019 14:20:00 25.2 C 49 % 13.73 C
3342 17-06-2019 14:25:00 25.4 C 50 % 14.22 C
3343 17-06-2019 14:30:00 25.3 C 50 % 14.13 C
3344 17-06-2019 14:35:00 25.2 C 49 % 13.73 C
3345 17-06-2019 14:40:00 25.1 C 49 % 13.64 C
3346 17-06-2019 14:45:00 25 C 49 % 13.55 C
3347 17-06-2019 14:50:00 25.1 C 51 % 14.25 C
3348 17-06-2019 14:55:00 25.2 C 50 % 14.04 C
3349 17-06-2019 15:00:00 25.3 C 49 % 13.82 C
3350 17-06-2019 15:05:00 25.2 C 51 % 14.35 C
Sensor: Nr:Datum:Temp:Feuchte:Taupunkt:
Aussen-T/F 3351 17-06-2019 15:10:00 25.1 C 51 % 14.25 C
3352 17-06-2019 15:15:00 25.2 C 50 % 14.04 C
3353 17-06-2019 15:20:00 25.4 C 49 % 13.91 C
3354 17-06-2019 15:25:00 25.4 C 52 % 14.83 C
3355 17-06-2019 15:30:00 25.3 C 48 % 13.5 C
3356 17-06-2019 15:35:00 25.3 C 51 % 14.44 C
3357 17-06-2019 15:40:00 25.2 C 51 % 14.35 C
3358 17-06-2019 15:45:00 25.1 C 57 % 15.98 C
3359 17-06-2019 15:50:00 25.3 C 49 % 13.82 C
3360 17-06-2019 15:55:00 25.4 C 50 % 14.22 C
3361 17-06-2019 16:00:00 25.7 C 48 % 13.87 C
3362 17-06-2019 16:05:00 26.4 C 51 % 15.45 C
3363 17-06-2019 16:10:00 27.2 C 46 % 14.58 C
3364 17-06-2019 16:15:00 27.3 C 44 % 13.98 C
3365 17-06-2019 16:20:00 27.1 C 42 % 13.09 C
3366 17-06-2019 16:25:00 26.8 C 46 % 14.21 C
3367 17-06-2019 16:30:00 26.5 C 49 % 14.92 C
3368 17-06-2019 16:35:00 26.3 C 58 % 17.38 C
3369 17-06-2019 16:40:00 26.4 C 46 % 13.85 C
3370 17-06-2019 16:45:00 26.6 C 59 % 17.93 C
3371 17-06-2019 16:50:00 27 C 59 % 18.3 C
3372 17-06-2019 16:55:00 27.3 C 48 % 15.33 C
3373 17-06-2019 17:00:00 27.6 C 54 % 17.45 C
3374 17-06-2019 17:05:00 27.9 C 46 % 15.21 C
3375 17-06-2019 17:10:00 28.2 C 42 % 14.07 C
Sensor: Nr:Datum:Temp:Feuchte:Taupunkt:
Aussen-T/F 3376 17-06-2019 17:15:00 28.4 C 42 % 14.25 C
3377 17-06-2019 17:20:00 28.8 C 44 % 15.33 C
3378 17-06-2019 17:25:00 29.1 C 39 % 13.73 C
3379 17-06-2019 17:30:00 29.1 C 38 % 13.34 C
3380 17-06-2019 17:35:00 28.9 C 40 % 13.95 C
3381 17-06-2019 17:40:00 28.9 C 40 % 13.95 C
3382 17-06-2019 17:45:00 28.6 C 39 % 13.29 C
3383 17-06-2019 17:50:00 28.1 C 40 % 13.23 C
3384 17-06-2019 17:55:00 27.6 C 42 % 13.53 C
3385 17-06-2019 18:00:00 27.1 C 43 % 13.45 C
3386 17-06-2019 18:05:00 26.8 C 45 % 13.87 C
3387 17-06-2019 18:10:00 26.5 C 55 % 16.72 C
3388 17-06-2019 18:15:00 26.4 C 57 % 17.19 C
3389 17-06-2019 18:20:00 26.8 C 48 % 14.87 C
3390 17-06-2019 18:25:00 27.4 C 51 % 16.37 C
3391 17-06-2019 18:30:00 28 C 43 % 14.26 C
3392 17-06-2019 18:35:00 28.6 C 50 % 17.16 C
3393 17-06-2019 18:40:00 29.1 C 45 % 15.95 C
3394 17-06-2019 18:45:00 29.3 C 40 % 14.3 C
3395 17-06-2019 18:50:00 29.5 C 39 % 14.09 C
3396 17-06-2019 18:55:00 29.4 C 40 % 14.39 C
3397 17-06-2019 19:00:00 29.5 C 41 % 14.86 C
3398 17-06-2019 19:05:00 29.4 C 39 % 14 C
3399 17-06-2019 19:10:00 28.9 C 39 % 13.56 C
3400 17-06-2019 19:15:00 28.6 C 39 % 13.29 C
Sensor: Nr:Datum:Temp:Feuchte:Taupunkt:
Aussen-T/F 3401 17-06-2019 19:20:00 28.2 C 40 % 13.32 C
3402 17-06-2019 19:25:00 27.8 C 47 % 15.45 C
3403 17-06-2019 19:30:00 27.4 C 52 % 16.67 C
3404 17-06-2019 19:35:00 27.1 C 53 % 16.7 C
3405 17-06-2019 19:40:00 26.7 C 55 % 16.91 C
3406 17-06-2019 19:45:00 26.4 C 55 % 16.63 C
3407 17-06-2019 19:50:00 26.1 C 56 % 16.64 C
3408 17-06-2019 19:55:00 25.6 C 55 % 15.89 C
3409 17-06-2019 20:00:00 25.1 C 57 % 15.98 C
3410 17-06-2019 20:05:00 24.7 C 58 % 15.88 C
3411 17-06-2019 20:10:00 24.4 C 58 % 15.6 C
3412 17-06-2019 20:15:00 24.2 C 60 % 15.95 C
3413 17-06-2019 20:20:00 24.1 C 61 % 16.11 C
3414 17-06-2019 20:25:00 23.8 C 61 % 15.83 C
3415 17-06-2019 20:30:00 23.6 C 61 % 15.64 C
3416 17-06-2019 20:35:00 23.2 C 63 % 15.77 C
3417 17-06-2019 20:40:00 22.9 C 63 % 15.48 C
3418 17-06-2019 20:45:00 22.6 C 63 % 15.2 C
3419 17-06-2019 20:50:00 22.3 C 64 % 15.16 C
3420 17-06-2019 20:55:00 22.1 C 65 % 15.21 C
3421 17-06-2019 21:00:00 21.8 C 66 % 15.17 C
3422 17-06-2019 21:05:00 21.6 C 67 % 15.21 C
3423 17-06-2019 21:10:00 21.3 C 66 % 14.69 C
3424 17-06-2019 21:15:00 21.2 C 67 % 14.83 C
3425 17-06-2019 21:20:00 21 C 67 % 14.64 C
Sensor: Nr:Datum:Temp:Feuchte:Taupunkt:
Aussen-T/F 3426 17-06-2019 21:25:00 20.8 C 68 % 14.68 C
3427 17-06-2019 21:30:00 20.7 C 68 % 14.58 C
3428 17-06-2019 21:35:00 20.5 C 69 % 14.62 C
3429 17-06-2019 21:40:00 20.3 C 69 % 14.43 C
3430 17-06-2019 21:45:00 20.2 C 70 % 14.56 C
3431 17-06-2019 21:50:00 20.1 C 70 % 14.46 C
3432 17-06-2019 21:55:00 19.9 C 70 % 14.27 C
3433 17-06-2019 22:00:00 19.8 C 72 % 14.61 C
3434 17-06-2019 22:05:00 19.7 C 73 % 14.73 C
3435 17-06-2019 22:10:00 19.3 C 73 % 14.34 C
3436 17-06-2019 22:15:00 19.1 C 74 % 14.36 C
3437 17-06-2019 22:20:00 18.9 C 74 % 14.17 C
3438 17-06-2019 22:25:00 18.7 C 75 % 14.18 C
3439 17-06-2019 22:30:00 18.6 C 76 % 14.29 C
3440 17-06-2019 22:35:00 18.4 C 76 % 14.1 C
3441 17-06-2019 22:40:00 18.3 C 77 % 14.2 C
3442 17-06-2019 22:45:00 18.2 C 77 % 14.1 C
3443 17-06-2019 22:50:00 18 C 78 % 14.11 C
3444 17-06-2019 22:55:00 17.8 C 78 % 13.91 C
3445 17-06-2019 23:00:00 17.7 C 79 % 14.01 C
3446 17-06-2019 23:05:00 17.5 C 79 % 13.82 C
3447 17-06-2019 23:10:00 17.4 C 79 % 13.72 C
3448 17-06-2019 23:15:00 17.3 C 80 % 13.82 C
3449 17-06-2019 23:20:00 17.2 C 81 % 13.91 C
3450 17-06-2019 23:25:00 17.1 C 81 % 13.82 C
Sensor: Nr:Datum:Temp:Feuchte:Taupunkt:
Aussen-T/F 3451 17-06-2019 23:30:00 17 C 81 % 13.72 C
3452 17-06-2019 23:35:00 16.9 C 82 % 13.81 C
3453 17-06-2019 23:40:00 16.8 C 82 % 13.71 C
3454 17-06-2019 23:45:00 16.7 C 82 % 13.61 C
3455 17-06-2019 23:50:00 16.6 C 82 % 13.52 C
3456 17-06-2019 23:55:00 16.6 C 82 % 13.52 C
3457 18-06-2019 00:00:00 16.4 C 83 % 13.51 C
3458 18-06-2019 00:05:00 16.3 C 83 % 13.41 C
3459 18-06-2019 00:10:00 16.2 C 83 % 13.31 C
3460 18-06-2019 00:15:00 16.1 C 84 % 13.4 C
3461 18-06-2019 00:20:00 16 C 84 % 13.3 C
3462 18-06-2019 00:25:00 15.9 C 85 % 13.38 C
3463 18-06-2019 00:30:00 15.8 C 85 % 13.28 C
3464 18-06-2019 00:35:00 15.7 C 85 % 13.19 C
3465 18-06-2019 00:40:00 15.6 C 85 % 13.09 C
3466 18-06-2019 00:45:00 15.6 C 85 % 13.09 C
3467 18-06-2019 00:50:00 15.4 C 86 % 13.07 C
3468 18-06-2019 00:55:00 15.4 C 86 % 13.07 C
3469 18-06-2019 01:00:00 15.3 C 86 % 12.97 C
3470 18-06-2019 01:05:00 15.3 C 86 % 12.97 C
3471 18-06-2019 01:10:00 15.3 C 87 % 13.15 C
3472 18-06-2019 01:15:00 15.2 C 87 % 13.05 C
3473 18-06-2019 01:20:00 15.2 C 87 % 13.05 C
3474 18-06-2019 01:25:00 15.2 C 87 % 13.05 C
3475 18-06-2019 01:30:00 15.1 C 87 % 12.95 C
Sensor: Nr:Datum:Temp:Feuchte:Taupunkt:
Aussen-T/F 3476 18-06-2019 01:35:00 15.1 C 87 % 12.95 C
3477 18-06-2019 01:40:00 14.9 C 88 % 12.93 C
3478 18-06-2019 01:45:00 14.9 C 88 % 12.93 C
3479 18-06-2019 01:50:00 14.8 C 88 % 12.83 C
3480 18-06-2019 01:55:00 14.8 C 89 % 13.01 C
3481 18-06-2019 02:00:00 14.8 C 89 % 13.01 C
3482 18-06-2019 02:05:00 14.8 C 88 % 12.83 C
3483 18-06-2019 02:10:00 14.7 C 88 % 12.73 C
3484 18-06-2019 02:15:00 14.6 C 89 % 12.81 C
3485 18-06-2019 02:20:00 14.6 C 89 % 12.81 C
3486 18-06-2019 02:25:00 14.4 C 89 % 12.61 C
3487 18-06-2019 02:30:00 14.3 C 89 % 12.51 C
3488 18-06-2019 02:35:00 14.3 C 89 % 12.51 C
3489 18-06-2019 02:40:00 14.3 C 90 % 12.68 C
3490 18-06-2019 02:45:00 14.2 C 90 % 12.58 C
3491 18-06-2019 02:50:00 14.1 C 90 % 12.49 C
3492 18-06-2019 02:55:00 14.1 C 90 % 12.49 C
3493 18-06-2019 03:00:00 14 C 90 % 12.39 C
3494 18-06-2019 03:05:00 13.9 C 91 % 12.46 C
3495 18-06-2019 03:10:00 13.9 C 90 % 12.29 C
3496 18-06-2019 03:15:00 13.8 C 91 % 12.36 C
3497 18-06-2019 03:20:00 13.8 C 91 % 12.36 C
3498 18-06-2019 03:25:00 13.7 C 91 % 12.26 C
3499 18-06-2019 03:30:00 13.7 C 92 % 12.42 C
3500 18-06-2019 03:35:00 13.7 C 92 % 12.42 C
Sensor: Nr:Datum:Temp:Feuchte:Taupunkt:
Aussen-T/F 3501 18-06-2019 03:40:00 13.7 C 92 % 12.42 C
3502 18-06-2019 03:45:00 13.8 C 92 % 12.52 C
3503 18-06-2019 03:50:00 13.8 C 92 % 12.52 C
3504 18-06-2019 03:55:00 13.8 C 92 % 12.52 C
3505 18-06-2019 04:00:00 13.8 C 92 % 12.52 C
3506 18-06-2019 04:05:00 13.8 C 92 % 12.52 C
3507 18-06-2019 04:10:00 13.8 C 92 % 12.52 C
3508 18-06-2019 04:15:00 13.8 C 92 % 12.52 C
3509 18-06-2019 04:20:00 13.8 C 92 % 12.52 C
3510 18-06-2019 04:25:00 13.8 C 92 % 12.52 C
3511 18-06-2019 04:30:00 13.8 C 93 % 12.69 C
3512 18-06-2019 04:35:00 13.8 C 92 % 12.52 C
3513 18-06-2019 04:40:00 13.8 C 92 % 12.52 C
3514 18-06-2019 04:45:00 13.8 C 92 % 12.52 C
3515 18-06-2019 04:50:00 13.8 C 93 % 12.69 C
3516 18-06-2019 04:55:00 13.8 C 93 % 12.69 C
3517 18-06-2019 05:00:00 13.8 C 92 % 12.52 C
3518 18-06-2019 05:05:00 13.8 C 93 % 12.69 C
3519 18-06-2019 05:10:00 13.8 C 93 % 12.69 C
3520 18-06-2019 05:15:00 13.8 C 93 % 12.69 C
3521 18-06-2019 05:20:00 13.8 C 92 % 12.52 C
3522 18-06-2019 05:25:00 13.7 C 92 % 12.42 C
3523 18-06-2019 05:30:00 13.6 C 92 % 12.33 C
3524 18-06-2019 05:35:00 13.6 C 92 % 12.33 C
3525 18-06-2019 05:40:00 13.5 C 92 % 12.23 C
Sensor: Nr:Datum:Temp:Feuchte:Taupunkt:
Aussen-T/F 3526 18-06-2019 05:45:00 13.4 C 92 % 12.13 C
3527 18-06-2019 05:50:00 13.4 C 93 % 12.29 C
3528 18-06-2019 05:55:00 13.3 C 93 % 12.19 C
3529 18-06-2019 06:00:00 13.3 C 93 % 12.19 C
3530 18-06-2019 06:05:00 13.3 C 93 % 12.19 C
3531 18-06-2019 06:10:00 13.3 C 93 % 12.19 C
3532 18-06-2019 06:15:00 13.3 C 94 % 12.36 C
3533 18-06-2019 06:20:00 13.4 C 94 % 12.45 C
3534 18-06-2019 06:25:00 13.6 C 94 % 12.65 C
3535 18-06-2019 06:30:00 13.7 C 94 % 12.75 C
3536 18-06-2019 06:35:00 13.8 C 94 % 12.85 C
3537 18-06-2019 06:40:00 13.9 C 94 % 12.95 C
3538 18-06-2019 06:45:00 14 C 94 % 13.05 C
3539 18-06-2019 06:50:00 14.1 C 94 % 13.15 C
3540 18-06-2019 06:55:00 14.1 C 94 % 13.15 C
3541 18-06-2019 07:00:00 14.2 C 94 % 13.25 C
3542 18-06-2019 07:05:00 14.3 C 94 % 13.35 C
3543 18-06-2019 07:10:00 14.3 C 93 % 13.18 C
3544 18-06-2019 07:15:00 14.5 C 94 % 13.55 C
3545 18-06-2019 07:20:00 14.6 C 93 % 13.48 C
3546 18-06-2019 07:25:00 14.7 C 92 % 13.41 C
3547 18-06-2019 07:30:00 14.8 C 92 % 13.51 C
3548 18-06-2019 07:35:00 14.9 C 91 % 13.44 C
3549 18-06-2019 07:40:00 15 C 91 % 13.54 C
3550 18-06-2019 07:45:00 15.1 C 91 % 13.64 C
Sensor: Nr:Datum:Temp:Feuchte:Taupunkt:
Aussen-T/F 3551 18-06-2019 07:50:00 15.3 C 91 % 13.84 C
3552 18-06-2019 07:55:00 15.3 C 90 % 13.67 C
3553 18-06-2019 08:00:00 15.4 C 89 % 13.6 C
3554 18-06-2019 08:05:00 15.6 C 89 % 13.79 C
3555 18-06-2019 08:10:00 15.7 C 90 % 14.06 C
3556 18-06-2019 08:15:00 15.8 C 90 % 14.16 C
3557 18-06-2019 08:20:00 15.9 C 90 % 14.26 C
3558 18-06-2019 08:25:00 16.1 C 91 % 14.63 C
3559 18-06-2019 08:30:00 16.1 C 90 % 14.46 C
3560 18-06-2019 08:35:00 16.2 C 90 % 14.56 C
3561 18-06-2019 08:40:00 16.2 C 90 % 14.56 C
3562 18-06-2019 08:45:00 16.3 C 91 % 14.83 C
3563 18-06-2019 08:50:00 16.4 C 90 % 14.76 C
3564 18-06-2019 08:55:00 16.5 C 90 % 14.85 C
3565 18-06-2019 09:00:00 16.6 C 90 % 14.95 C
3566 18-06-2019 09:05:00 16.7 C 91 % 15.22 C
3567 18-06-2019 09:10:00 16.8 C 90 % 15.15 C
3568 18-06-2019 09:15:00 17 C 90 % 15.35 C
3569 18-06-2019 09:20:00 17.2 C 89 % 15.37 C
3570 18-06-2019 09:25:00 17.4 C 89 % 15.57 C
3571 18-06-2019 09:30:00 17.8 C 88 % 15.79 C
3572 18-06-2019 09:35:00 18.1 C 87 % 15.9 C
3573 18-06-2019 09:40:00 18.2 C 87 % 16 C
3574 18-06-2019 09:45:00 18.4 C 86 % 16.02 C
3575 18-06-2019 09:50:00 18.7 C 86 % 16.31 C
Sensor: Nr:Datum:Temp:Feuchte:Taupunkt:
Aussen-T/F 3576 18-06-2019 09:55:00 18.9 C 86 % 16.51 C
3577 18-06-2019 10:00:00 19.1 C 86 % 16.7 C
3578 18-06-2019 10:05:00 19.2 C 86 % 16.8 C
3579 18-06-2019 10:10:00 19.3 C 86 % 16.9 C
3580 18-06-2019 10:15:00 19.6 C 85 % 17.01 C
3581 18-06-2019 10:20:00 19.9 C 85 % 17.3 C
3582 18-06-2019 10:25:00 20.3 C 84 % 17.51 C
3583 18-06-2019 10:30:00 20.9 C 82 % 17.71 C
3584 18-06-2019 10:35:00 21.4 C 82 % 18.2 C
3585 18-06-2019 10:40:00 21.8 C 79 % 18 C
3586 18-06-2019 10:45:00 22.4 C 79 % 18.58 C
3587 18-06-2019 10:50:00 22.8 C 78 % 18.76 C
3588 18-06-2019 10:55:00 23 C 76 % 18.54 C
3589 18-06-2019 11:00:00 23.1 C 74 % 18.21 C
3590 18-06-2019 11:05:00 23.1 C 73 % 17.99 C
3591 18-06-2019 11:10:00 23.3 C 72 % 17.97 C
3592 18-06-2019 11:15:00 23.7 C 70 % 17.9 C
3593 18-06-2019 11:20:00 24.1 C 67 % 17.59 C
3594 18-06-2019 11:25:00 24.3 C 66 % 17.54 C
3595 18-06-2019 11:30:00 24.6 C 71 % 18.99 C
3596 18-06-2019 11:35:00 24.6 C 70 % 18.76 C
3597 18-06-2019 11:40:00 24.7 C 65 % 17.68 C
3598 18-06-2019 11:45:00 24.9 C 64 % 17.62 C
3599 18-06-2019 11:50:00 25.2 C 63 % 17.65 C
3600 18-06-2019 11:55:00 25.6 C 59 % 16.99 C
Sensor: Nr:Datum:Temp:Feuchte:Taupunkt:
Aussen-T/F 3601 18-06-2019 12:00:00 25.9 C 58 % 17 C
3602 18-06-2019 12:05:00 26.3 C 62 % 18.44 C
3603 18-06-2019 12:10:00 26.4 C 65 % 19.29 C
3604 18-06-2019 12:15:00 26.4 C 61 % 18.27 C
3605 18-06-2019 12:20:00 26.4 C 56 % 16.92 C
3606 18-06-2019 12:25:00 26.4 C 61 % 18.27 C
3607 18-06-2019 12:30:00 26.5 C 56 % 17.01 C
3608 18-06-2019 12:35:00 26.8 C 47 % 14.55 C
3609 18-06-2019 12:40:00 27.2 C 45 % 14.24 C
3610 18-06-2019 12:45:00 27.5 C 46 % 14.85 C
3611 18-06-2019 12:50:00 27.8 C 46 % 15.12 C
3612 18-06-2019 12:55:00 27.8 C 44 % 14.43 C
3613 18-06-2019 13:00:00 27.9 C 46 % 15.21 C
3614 18-06-2019 13:05:00 28 C 45 % 14.96 C
3615 18-06-2019 13:10:00 28.1 C 48 % 16.06 C
3616 18-06-2019 13:15:00 28.2 C 50 % 16.79 C
3617 18-06-2019 13:20:00 28.1 C 45 % 15.05 C
3618 18-06-2019 13:25:00 28.1 C 51 % 17.01 C
3619 18-06-2019 13:30:00 28.1 C 51 % 17.01 C
3620 18-06-2019 13:35:00 28 C 47 % 15.64 C
3621 18-06-2019 13:40:00 28 C 46 % 15.3 C
3622 18-06-2019 13:45:00 28.2 C 46 % 15.48 C
3623 18-06-2019 13:50:00 28.3 C 45 % 15.23 C
3624 18-06-2019 13:55:00 28.5 C 44 % 15.06 C
3625 18-06-2019 14:00:00 28.6 C 44 % 15.15 C
Sensor: Nr:Datum:Temp:Feuchte:Taupunkt:
Aussen-T/F 3626 18-06-2019 14:05:00 28.6 C 46 % 15.85 C
3627 18-06-2019 14:10:00 28.6 C 47 % 16.18 C
3628 18-06-2019 14:15:00 28.6 C 45 % 15.5 C
3629 18-06-2019 14:20:00 28.6 C 45 % 15.5 C
3630 18-06-2019 14:25:00 28.7 C 47 % 16.27 C
3631 18-06-2019 14:30:00 28.8 C 44 % 15.33 C
3632 18-06-2019 14:35:00 28.9 C 46 % 16.12 C
3633 18-06-2019 14:40:00 28.9 C 45 % 15.77 C
3634 18-06-2019 14:45:00 29.1 C 44 % 15.6 C
3635 18-06-2019 14:50:00 29.2 C 43 % 15.33 C
3636 18-06-2019 14:55:00 29.3 C 48 % 17.15 C
3637 18-06-2019 15:00:00 29.4 C 44 % 15.87 C
3638 18-06-2019 15:05:00 29.4 C 47 % 16.91 C
3639 18-06-2019 15:10:00 29.6 C 43 % 15.69 C
3640 18-06-2019 15:15:00 29.7 C 42 % 15.42 C
3641 18-06-2019 15:20:00 29.7 C 45 % 16.5 C
3642 18-06-2019 15:25:00 29.9 C 46 % 17.02 C
3643 18-06-2019 15:30:00 30.1 C 44 % 16.5 C
3644 18-06-2019 15:35:00 30.3 C 42 % 15.95 C
3645 18-06-2019 15:40:00 30.3 C 43 % 16.32 C
3646 18-06-2019 15:45:00 30.1 C 42 % 15.77 C
3647 18-06-2019 15:50:00 29.8 C 42 % 15.51 C
3648 18-06-2019 15:55:00 29.6 C 42 % 15.33 C
3649 18-06-2019 16:00:00 29.3 C 45 % 16.13 C
3650 18-06-2019 16:05:00 29.2 C 43 % 15.33 C
Sensor: Nr:Datum:Temp:Feuchte:Taupunkt:
Aussen-T/F 3651 18-06-2019 16:10:00 29.1 C 47 % 16.64 C
3652 18-06-2019 16:15:00 29.1 C 52 % 18.24 C
3653 18-06-2019 16:20:00 29.2 C 46 % 16.39 C
3654 18-06-2019 16:25:00 29.4 C 48 % 17.24 C
3655 18-06-2019 16:30:00 29.6 C 49 % 17.75 C
3656 18-06-2019 16:35:00 29.8 C 44 % 16.23 C
3657 18-06-2019 16:40:00 30.1 C 43 % 16.14 C
3658 18-06-2019 16:45:00 30.2 C 51 % 18.94 C
3659 18-06-2019 16:50:00 30.1 C 43 % 16.14 C
3660 18-06-2019 16:55:00 29.8 C 42 % 15.51 C
3661 18-06-2019 17:00:00 29.7 C 55 % 19.69 C
3662 18-06-2019 17:05:00 29.5 C 56 % 19.79 C
3663 18-06-2019 17:10:00 29.4 C 51 % 18.2 C
3664 18-06-2019 17:15:00 29.4 C 54 % 19.12 C
3665 18-06-2019 17:20:00 29.6 C 57 % 20.17 C
3666 18-06-2019 17:25:00 29.6 C 50 % 18.07 C
3667 18-06-2019 17:30:00 29.6 C 54 % 19.3 C
3668 18-06-2019 17:35:00 29.6 C 59 % 20.73 C
3669 18-06-2019 17:40:00 29.4 C 54 % 19.12 C
3670 18-06-2019 17:45:00 29.4 C 61 % 21.09 C
3671 18-06-2019 17:50:00 29.3 C 62 % 21.26 C
3672 18-06-2019 17:55:00 29.3 C 64 % 21.78 C
3673 18-06-2019 18:00:00 29.2 C 60 % 20.63 C
3674 18-06-2019 18:05:00 29.2 C 63 % 21.43 C
3675 18-06-2019 18:10:00 29.1 C 50 % 17.61 C
Sensor: Nr:Datum:Temp:Feuchte:Taupunkt:
Aussen-T/F 3676 18-06-2019 18:15:00 29.3 C 57 % 19.89 C
3677 18-06-2019 18:20:00 29.4 C 55 % 19.41 C
3678 18-06-2019 18:25:00 29.6 C 59 % 20.73 C
3679 18-06-2019 18:30:00 29.7 C 58 % 20.55 C
3680 18-06-2019 18:35:00 29.8 C 49 % 17.93 C
3681 18-06-2019 18:40:00 30.2 C 55 % 20.15 C
3682 18-06-2019 18:45:00 30.5 C 53 % 19.83 C
3683 18-06-2019 18:50:00 30.4 C 48 % 18.15 C
3684 18-06-2019 18:55:00 30.3 C 55 % 20.25 C
3685 18-06-2019 19:00:00 29.9 C 56 % 20.17 C
3686 18-06-2019 19:05:00 29.6 C 58 % 20.46 C
3687 18-06-2019 19:10:00 29.2 C 58 % 20.08 C
3688 18-06-2019 19:15:00 28.8 C 59 % 19.99 C
3689 18-06-2019 19:20:00 28.4 C 60 % 19.88 C
3690 18-06-2019 19:25:00 28 C 60 % 19.51 C
3691 18-06-2019 19:30:00 27.7 C 61 % 19.49 C
3692 18-06-2019 19:35:00 27.3 C 61 % 19.12 C
3693 18-06-2019 19:40:00 26.9 C 62 % 19 C
3694 18-06-2019 19:45:00 26.7 C 63 % 19.07 C
3695 18-06-2019 19:50:00 26.5 C 64 % 19.13 C
3696 18-06-2019 19:55:00 26.4 C 65 % 19.29 C
3697 18-06-2019 20:00:00 26.3 C 64 % 18.94 C
3698 18-06-2019 20:05:00 26.3 C 65 % 19.19 C
3699 18-06-2019 20:10:00 26.3 C 64 % 18.94 C
3700 18-06-2019 20:15:00 26.2 C 64 % 18.85 C
Sensor: Nr:Datum:Temp:Feuchte:Taupunkt:
Aussen-T/F 3701 18-06-2019 20:20:00 26.1 C 64 % 18.76 C
3702 18-06-2019 20:25:00 26.1 C 64 % 18.76 C
3703 18-06-2019 20:30:00 26.2 C 64 % 18.85 C
3704 18-06-2019 20:35:00 26.2 C 63 % 18.6 C
3705 18-06-2019 20:40:00 26.1 C 63 % 18.5 C
3706 18-06-2019 20:45:00 25.8 C 63 % 18.22 C
3707 18-06-2019 20:50:00 25.6 C 63 % 18.03 C
3708 18-06-2019 20:55:00 25.2 C 64 % 17.9 C
3709 18-06-2019 21:00:00 24.9 C 65 % 17.87 C
3710 18-06-2019 21:05:00 24.7 C 66 % 17.92 C
3711 18-06-2019 21:10:00 24.4 C 67 % 17.87 C
3712 18-06-2019 21:15:00 24.3 C 67 % 17.78 C
3713 18-06-2019 21:20:00 24.1 C 67 % 17.59 C
3714 18-06-2019 21:25:00 23.8 C 68 % 17.54 C
3715 18-06-2019 21:30:00 23.6 C 69 % 17.58 C
3716 18-06-2019 21:35:00 23.3 C 69 % 17.29 C
3717 18-06-2019 21:40:00 23.2 C 69 % 17.2 C
3718 18-06-2019 21:45:00 23 C 70 % 17.23 C
3719 18-06-2019 21:50:00 22.8 C 70 % 17.04 C
3720 18-06-2019 21:55:00 22.7 C 70 % 16.95 C
3721 18-06-2019 22:00:00 22.5 C 71 % 16.98 C
3722 18-06-2019 22:05:00 22.3 C 72 % 17.01 C
3723 18-06-2019 22:10:00 22.1 C 72 % 16.82 C
3724 18-06-2019 22:15:00 21.9 C 73 % 16.84 C
3725 18-06-2019 22:20:00 21.7 C 74 % 16.86 C
Sensor: Nr:Datum:Temp:Feuchte:Taupunkt:
Aussen-T/F 3726 18-06-2019 22:25:00 21.5 C 75 % 16.88 C
3727 18-06-2019 22:30:00 21.3 C 75 % 16.69 C
3728 18-06-2019 22:35:00 21.1 C 76 % 16.7 C
3729 18-06-2019 22:40:00 20.9 C 76 % 16.51 C
3730 18-06-2019 22:45:00 20.8 C 77 % 16.62 C
3731 18-06-2019 22:50:00 20.7 C 77 % 16.52 C
3732 18-06-2019 22:55:00 20.6 C 77 % 16.43 C
3733 18-06-2019 23:00:00 20.6 C 77 % 16.43 C
3734 18-06-2019 23:05:00 20.4 C 78 % 16.44 C
3735 18-06-2019 23:10:00 20.3 C 78 % 16.34 C
3736 18-06-2019 23:15:00 20.2 C 79 % 16.44 C
3737 18-06-2019 23:20:00 20 C 79 % 16.25 C
3738 18-06-2019 23:25:00 19.8 C 79 % 16.05 C
3739 18-06-2019 23:30:00 19.7 C 80 % 16.15 C
3740 18-06-2019 23:35:00 19.6 C 80 % 16.06 C
3741 18-06-2019 23:40:00 19.5 C 81 % 16.15 C
3742 18-06-2019 23:45:00 19.4 C 81 % 16.06 C
3743 18-06-2019 23:50:00 19.3 C 81 % 15.96 C
3744 18-06-2019 23:55:00 19.2 C 82 % 16.05 C
3745 19-06-2019 00:00:00 19.1 C 82 % 15.96 C
3746 19-06-2019 00:05:00 18.9 C 82 % 15.76 C
3747 19-06-2019 00:10:00 18.8 C 83 % 15.85 C
3748 19-06-2019 00:15:00 18.8 C 83 % 15.85 C
3749 19-06-2019 00:20:00 18.6 C 83 % 15.66 C
3750 19-06-2019 00:25:00 18.6 C 83 % 15.66 C
Sensor: Nr:Datum:Temp:Feuchte:Taupunkt:
Aussen-T/F 3751 19-06-2019 00:30:00 18.4 C 84 % 15.65 C
3752 19-06-2019 00:35:00 18.3 C 84 % 15.55 C
3753 19-06-2019 00:40:00 18.2 C 84 % 15.45 C
3754 19-06-2019 00:45:00 18.1 C 85 % 15.54 C
3755 19-06-2019 00:50:00 18.1 C 85 % 15.54 C
3756 19-06-2019 00:55:00 17.9 C 85 % 15.34 C
3757 19-06-2019 01:00:00 17.9 C 86 % 15.53 C
3758 19-06-2019 01:05:00 17.8 C 86 % 15.43 C
3759 19-06-2019 01:10:00 17.8 C 86 % 15.43 C
3760 19-06-2019 01:15:00 17.7 C 86 % 15.33 C
3761 19-06-2019 01:20:00 17.7 C 86 % 15.33 C
3762 19-06-2019 01:25:00 17.6 C 87 % 15.41 C
3763 19-06-2019 01:30:00 17.6 C 87 % 15.41 C
3764 19-06-2019 01:35:00 17.5 C 87 % 15.31 C
3765 19-06-2019 01:40:00 17.5 C 87 % 15.31 C
3766 19-06-2019 01:45:00 17.5 C 87 % 15.31 C
3767 19-06-2019 01:50:00 17.4 C 87 % 15.21 C
3768 19-06-2019 01:55:00 17.4 C 87 % 15.21 C
3769 19-06-2019 02:00:00 17.4 C 88 % 15.39 C
3770 19-06-2019 02:05:00 17.4 C 88 % 15.39 C
3771 19-06-2019 02:10:00 17.5 C 88 % 15.49 C
3772 19-06-2019 02:15:00 17.5 C 88 % 15.49 C
3773 19-06-2019 02:20:00 17.5 C 88 % 15.49 C
3774 19-06-2019 02:25:00 17.4 C 88 % 15.39 C
3775 19-06-2019 02:30:00 17.5 C 88 % 15.49 C
Sensor: Nr:Datum:Temp:Feuchte:Taupunkt:
Aussen-T/F 3776 19-06-2019 02:35:00 17.4 C 88 % 15.39 C
3777 19-06-2019 02:40:00 17.4 C 89 % 15.57 C
3778 19-06-2019 02:45:00 17.3 C 89 % 15.47 C
3779 19-06-2019 02:50:00 17.2 C 89 % 15.37 C
3780 19-06-2019 02:55:00 17.2 C 89 % 15.37 C
3781 19-06-2019 03:00:00 17.1 C 89 % 15.27 C
3782 19-06-2019 03:05:00 16.9 C 89 % 15.08 C
3783 19-06-2019 03:10:00 16.8 C 89 % 14.98 C
3784 19-06-2019 03:15:00 16.7 C 89 % 14.88 C
3785 19-06-2019 03:20:00 16.6 C 89 % 14.78 C
3786 19-06-2019 03:25:00 16.5 C 89 % 14.68 C
3787 19-06-2019 03:30:00 16.4 C 90 % 14.76 C
3788 19-06-2019 03:35:00 16.3 C 90 % 14.66 C
3789 19-06-2019 03:40:00 16.3 C 91 % 14.83 C
3790 19-06-2019 03:45:00 16.3 C 91 % 14.83 C
3791 19-06-2019 03:50:00 16.3 C 91 % 14.83 C
3792 19-06-2019 03:55:00 16.2 C 91 % 14.73 C
3793 19-06-2019 04:00:00 16.2 C 91 % 14.73 C
3794 19-06-2019 04:05:00 16.1 C 91 % 14.63 C
3795 19-06-2019 04:10:00 16.1 C 91 % 14.63 C
3796 19-06-2019 04:15:00 16 C 91 % 14.53 C
3797 19-06-2019 04:20:00 15.9 C 91 % 14.43 C
3798 19-06-2019 04:25:00 15.8 C 91 % 14.33 C
3799 19-06-2019 04:30:00 15.7 C 91 % 14.24 C
3800 19-06-2019 04:35:00 15.7 C 91 % 14.24 C
Sensor: Nr:Datum:Temp:Feuchte:Taupunkt:
Aussen-T/F 3801 19-06-2019 04:40:00 15.6 C 91 % 14.14 C
3802 19-06-2019 04:45:00 15.5 C 91 % 14.04 C
3803 19-06-2019 04:50:00 15.4 C 91 % 13.94 C
3804 19-06-2019 04:55:00 15.3 C 91 % 13.84 C
3805 19-06-2019 05:00:00 15.3 C 92 % 14.01 C
3806 19-06-2019 05:05:00 15.2 C 92 % 13.91 C
3807 19-06-2019 05:10:00 15.1 C 92 % 13.81 C
3808 19-06-2019 05:15:00 15.2 C 93 % 14.08 C
3809 19-06-2019 05:20:00 15.3 C 93 % 14.18 C
3810 19-06-2019 05:25:00 15.2 C 93 % 14.08 C
3811 19-06-2019 05:30:00 15.2 C 93 % 14.08 C
3812 19-06-2019 05:35:00 15.3 C 94 % 14.34 C
3813 19-06-2019 05:40:00 15.3 C 93 % 14.18 C
3814 19-06-2019 05:45:00 15.2 C 93 % 14.08 C
3815 19-06-2019 05:50:00 15 C 93 % 13.88 C
3816 19-06-2019 05:55:00 15 C 93 % 13.88 C
3817 19-06-2019 06:00:00 15 C 93 % 13.88 C
3818 19-06-2019 06:05:00 14.9 C 93 % 13.78 C
3819 19-06-2019 06:10:00 14.9 C 93 % 13.78 C
3820 19-06-2019 06:15:00 14.9 C 93 % 13.78 C
3821 19-06-2019 06:20:00 14.9 C 94 % 13.94 C
3822 19-06-2019 06:25:00 14.9 C 94 % 13.94 C
3823 19-06-2019 06:30:00 14.9 C 94 % 13.94 C
3824 19-06-2019 06:35:00 15 C 94 % 14.04 C
3825 19-06-2019 06:40:00 15 C 94 % 14.04 C
Sensor: Nr:Datum:Temp:Feuchte:Taupunkt:
Aussen-T/F 3826 19-06-2019 06:45:00 15.1 C 94 % 14.14 C
3827 19-06-2019 06:50:00 15.2 C 94 % 14.24 C
3828 19-06-2019 06:55:00 15.2 C 94 % 14.24 C
3829 19-06-2019 07:00:00 15.2 C 94 % 14.24 C
3830 19-06-2019 07:05:00 15.2 C 94 % 14.24 C
3831 19-06-2019 07:10:00 15.2 C 95 % 14.4 C
3832 19-06-2019 07:15:00 15.3 C 95 % 14.5 C
3833 19-06-2019 07:20:00 15.3 C 95 % 14.5 C
3834 19-06-2019 07:25:00 15.3 C 95 % 14.5 C
3835 19-06-2019 07:30:00 15.4 C 95 % 14.6 C
3836 19-06-2019 07:35:00 15.4 C 95 % 14.6 C
3837 19-06-2019 07:40:00 15.6 C 95 % 14.8 C
3838 19-06-2019 07:45:00 15.7 C 95 % 14.9 C
3839 19-06-2019 07:50:00 15.7 C 95 % 14.9 C
3840 19-06-2019 07:55:00 15.8 C 95 % 15 C
3841 19-06-2019 08:00:00 15.9 C 95 % 15.1 C
3842 19-06-2019 08:05:00 16 C 95 % 15.2 C
3843 19-06-2019 08:10:00 16.1 C 95 % 15.3 C
3844 19-06-2019 08:15:00 16.2 C 95 % 15.4 C
3845 19-06-2019 08:20:00 16.4 C 95 % 15.6 C
3846 19-06-2019 08:25:00 16.5 C 95 % 15.7 C
3847 19-06-2019 08:30:00 16.6 C 95 % 15.8 C
3848 19-06-2019 08:35:00 16.7 C 95 % 15.9 C
3849 19-06-2019 08:40:00 16.8 C 95 % 15.99 C
3850 19-06-2019 08:45:00 16.9 C 95 % 16.09 C
Sensor: Nr:Datum:Temp:Feuchte:Taupunkt:
Aussen-T/F 3851 19-06-2019 08:50:00 17.1 C 95 % 16.29 C
3852 19-06-2019 08:55:00 17.3 C 95 % 16.49 C
3853 19-06-2019 09:00:00 17.4 C 95 % 16.59 C
3854 19-06-2019 09:05:00 17.6 C 95 % 16.79 C
3855 19-06-2019 09:10:00 17.7 C 95 % 16.89 C
3856 19-06-2019 09:15:00 17.9 C 95 % 17.09 C
3857 19-06-2019 09:20:00 18.1 C 94 % 17.12 C
3858 19-06-2019 09:25:00 18.2 C 94 % 17.22 C
3859 19-06-2019 09:30:00 18.4 C 94 % 17.42 C
3860 19-06-2019 09:35:00 18.7 C 94 % 17.71 C
3861 19-06-2019 09:40:00 18.9 C 93 % 17.74 C
3862 19-06-2019 09:45:00 19.2 C 93 % 18.04 C
3863 19-06-2019 09:50:00 19.6 C 92 % 18.26 C
3864 19-06-2019 09:55:00 19.9 C 92 % 18.56 C
3865 19-06-2019 10:00:00 20.3 C 91 % 18.78 C
3866 19-06-2019 10:05:00 20.8 C 89 % 18.92 C
3867 19-06-2019 10:10:00 21.2 C 86 % 18.76 C
3868 19-06-2019 10:15:00 21.6 C 85 % 18.97 C
3869 19-06-2019 10:20:00 22.2 C 81 % 18.78 C
3870 19-06-2019 10:25:00 22.8 C 80 % 19.17 C
3871 19-06-2019 10:30:00 23.8 C 68 % 17.54 C
3872 19-06-2019 10:35:00 24.7 C 64 % 17.43 C
3873 19-06-2019 10:40:00 25.4 C 62 % 17.59 C
3874 19-06-2019 10:45:00 25.9 C 62 % 18.06 C
3875 19-06-2019 10:50:00 26.2 C 57 % 17.01 C
Sensor: Nr:Datum:Temp:Feuchte:Taupunkt:
Aussen-T/F 3876 19-06-2019 10:55:00 26.4 C 56 % 16.92 C
3877 19-06-2019 11:00:00 26.5 C 57 % 17.29 C
3878 19-06-2019 11:05:00 26.6 C 55 % 16.82 C
3879 19-06-2019 11:10:0